<?xml version="1.0" encoding="UTF-8" standalone="no" ?>
<gpx xmlns="http://www.topografix.com/GPX/1/1" xmlns:xsi="http://www.w3.org/2001/XMLSchema-instance" xsi:schemaLocation="http://www.topografix.com/GPX/1/1 http://www.topografix.com/GPX/1/1/gpx.xsd" version="1.1" creator="VisuGPX - https://www.visugpx.com">
  <metadata>
    <name>Le mousseau bois de l etrille pedibus</name>
    <desc><![CDATA[petit 12 k du coté du bois de l\'etrille et le pommeret ]]></desc>
  </metadata>
  <trk>
    <name><![CDATA[Untitled]]></name>
    <trkseg>
      <trkpt lat="48.74031" lon="1.96283">
        <ele>170.80000305176</ele>
        <time>2013-10-05T09:40:24.000Z</time>
      </trkpt>
      <trkpt lat="48.74023" lon="1.96273">
        <ele>171</ele>
        <time>2013-10-05T09:40:33.000Z</time>
      </trkpt>
      <trkpt lat="48.74021" lon="1.96269">
        <ele>171</ele>
        <time>2013-10-05T09:40:36.000Z</time>
      </trkpt>
      <trkpt lat="48.74018" lon="1.96265">
        <ele>171</ele>
        <time>2013-10-05T09:40:40.000Z</time>
      </trkpt>
      <trkpt lat="48.7401" lon="1.96253">
        <ele>171</ele>
        <time>2013-10-05T09:40:48.000Z</time>
      </trkpt>
      <trkpt lat="48.74004" lon="1.96244">
        <ele>171</ele>
        <time>2013-10-05T09:40:54.000Z</time>
      </trkpt>
      <trkpt lat="48.73996" lon="1.96233">
        <ele>171.19999694824</ele>
        <time>2013-10-05T09:41:02.000Z</time>
      </trkpt>
      <trkpt lat="48.73991" lon="1.96225">
        <ele>171.39999389648</ele>
        <time>2013-10-05T09:41:08.000Z</time>
      </trkpt>
      <trkpt lat="48.73985" lon="1.96216">
        <ele>171.60000610352</ele>
        <time>2013-10-05T09:41:14.000Z</time>
      </trkpt>
      <trkpt lat="48.73984" lon="1.96207">
        <ele>171.80000305176</ele>
        <time>2013-10-05T09:41:22.000Z</time>
      </trkpt>
      <trkpt lat="48.73989" lon="1.96184">
        <ele>172.19999694824</ele>
        <time>2013-10-05T09:41:23.000Z</time>
      </trkpt>
      <trkpt lat="48.73981" lon="1.96177">
        <ele>172.19999694824</ele>
        <time>2013-10-05T09:41:31.000Z</time>
      </trkpt>
      <trkpt lat="48.73979" lon="1.96173">
        <ele>172.19999694824</ele>
        <time>2013-10-05T09:41:34.000Z</time>
      </trkpt>
      <trkpt lat="48.73975" lon="1.96167">
        <ele>172.19999694824</ele>
        <time>2013-10-05T09:41:39.000Z</time>
      </trkpt>
      <trkpt lat="48.73974" lon="1.96167">
        <ele>172.19999694824</ele>
        <time>2013-10-05T09:41:40.000Z</time>
      </trkpt>
      <trkpt lat="48.73964" lon="1.96153">
        <ele>172.39999389648</ele>
        <time>2013-10-05T09:41:44.000Z</time>
      </trkpt>
      <trkpt lat="48.73967" lon="1.96157">
        <ele>172.39999389648</ele>
        <time>2013-10-05T09:41:50.000Z</time>
      </trkpt>
      <trkpt lat="48.73962" lon="1.9615">
        <ele>172.39999389648</ele>
        <time>2013-10-05T09:41:55.000Z</time>
      </trkpt>
      <trkpt lat="48.73955" lon="1.9614">
        <ele>172.39999389648</ele>
        <time>2013-10-05T09:42:02.000Z</time>
      </trkpt>
      <trkpt lat="48.73946" lon="1.96129">
        <ele>172.60000610352</ele>
        <time>2013-10-05T09:42:10.000Z</time>
      </trkpt>
      <trkpt lat="48.73936" lon="1.96117">
        <ele>172.80000305176</ele>
        <time>2013-10-05T09:42:19.000Z</time>
      </trkpt>
      <trkpt lat="48.73928" lon="1.96108">
        <ele>173</ele>
        <time>2013-10-05T09:42:26.000Z</time>
      </trkpt>
      <trkpt lat="48.73919" lon="1.96096">
        <ele>173.39999389648</ele>
        <time>2013-10-05T09:42:34.000Z</time>
      </trkpt>
      <trkpt lat="48.73912" lon="1.96088">
        <ele>173.60000610352</ele>
        <time>2013-10-05T09:42:40.000Z</time>
      </trkpt>
      <trkpt lat="48.73906" lon="1.96081">
        <ele>173.80000305176</ele>
        <time>2013-10-05T09:42:45.000Z</time>
      </trkpt>
      <trkpt lat="48.73901" lon="1.96076">
        <ele>174</ele>
        <time>2013-10-05T09:42:49.000Z</time>
      </trkpt>
      <trkpt lat="48.73892" lon="1.96066">
        <ele>174</ele>
        <time>2013-10-05T09:42:57.000Z</time>
      </trkpt>
      <trkpt lat="48.73884" lon="1.96056">
        <ele>174.19999694824</ele>
        <time>2013-10-05T09:43:04.000Z</time>
      </trkpt>
      <trkpt lat="48.73883" lon="1.96055">
        <ele>174.39999389648</ele>
        <time>2013-10-05T09:43:05.000Z</time>
      </trkpt>
      <trkpt lat="48.73877" lon="1.96049">
        <ele>174.39999389648</ele>
        <time>2013-10-05T09:43:11.000Z</time>
      </trkpt>
      <trkpt lat="48.73855" lon="1.96053">
        <ele>174.19999694824</ele>
        <time>2013-10-05T09:43:19.000Z</time>
      </trkpt>
      <trkpt lat="48.73852" lon="1.96062">
        <ele>173.80000305176</ele>
        <time>2013-10-05T09:43:27.000Z</time>
      </trkpt>
      <trkpt lat="48.73848" lon="1.96074">
        <ele>173.39999389648</ele>
        <time>2013-10-05T09:43:35.000Z</time>
      </trkpt>
      <trkpt lat="48.73844" lon="1.96086">
        <ele>173</ele>
        <time>2013-10-05T09:43:42.000Z</time>
      </trkpt>
      <trkpt lat="48.7384" lon="1.96099">
        <ele>172.80000305176</ele>
        <time>2013-10-05T09:43:50.000Z</time>
      </trkpt>
      <trkpt lat="48.73836" lon="1.96111">
        <ele>172.60000610352</ele>
        <time>2013-10-05T09:43:57.000Z</time>
      </trkpt>
      <trkpt lat="48.73832" lon="1.96123">
        <ele>172.39999389648</ele>
        <time>2013-10-05T09:44:04.000Z</time>
      </trkpt>
      <trkpt lat="48.73827" lon="1.96137">
        <ele>172.39999389648</ele>
        <time>2013-10-05T09:44:12.000Z</time>
      </trkpt>
      <trkpt lat="48.73823" lon="1.96151">
        <ele>172.19999694824</ele>
        <time>2013-10-05T09:44:20.000Z</time>
      </trkpt>
      <trkpt lat="48.7382" lon="1.96159">
        <ele>172.19999694824</ele>
        <time>2013-10-05T09:44:27.000Z</time>
      </trkpt>
      <trkpt lat="48.7382" lon="1.96159">
        <ele>172.19999694824</ele>
        <time>2013-10-05T09:44:30.000Z</time>
      </trkpt>
      <trkpt lat="48.73815" lon="1.96174">
        <ele>172</ele>
        <time>2013-10-05T09:44:38.000Z</time>
      </trkpt>
      <trkpt lat="48.73809" lon="1.96193">
        <ele>171.80000305176</ele>
        <time>2013-10-05T09:44:47.000Z</time>
      </trkpt>
      <trkpt lat="48.73804" lon="1.96208">
        <ele>171.80000305176</ele>
        <time>2013-10-05T09:44:54.000Z</time>
      </trkpt>
      <trkpt lat="48.73799" lon="1.96222">
        <ele>171.60000610352</ele>
        <time>2013-10-05T09:45:00.000Z</time>
      </trkpt>
      <trkpt lat="48.73794" lon="1.96237">
        <ele>171.60000610352</ele>
        <time>2013-10-05T09:45:07.000Z</time>
      </trkpt>
      <trkpt lat="48.73789" lon="1.96252">
        <ele>171.39999389648</ele>
        <time>2013-10-05T09:45:15.000Z</time>
      </trkpt>
      <trkpt lat="48.73784" lon="1.96268">
        <ele>171.39999389648</ele>
        <time>2013-10-05T09:45:23.000Z</time>
      </trkpt>
      <trkpt lat="48.73778" lon="1.96284">
        <ele>171.19999694824</ele>
        <time>2013-10-05T09:45:31.000Z</time>
      </trkpt>
      <trkpt lat="48.73772" lon="1.96303">
        <ele>170.80000305176</ele>
        <time>2013-10-05T09:45:40.000Z</time>
      </trkpt>
      <trkpt lat="48.73768" lon="1.96316">
        <ele>170.60000610352</ele>
        <time>2013-10-05T09:45:46.000Z</time>
      </trkpt>
      <trkpt lat="48.73762" lon="1.96333">
        <ele>170.19999694824</ele>
        <time>2013-10-05T09:45:54.000Z</time>
      </trkpt>
      <trkpt lat="48.73758" lon="1.96346">
        <ele>170.19999694824</ele>
        <time>2013-10-05T09:46:00.000Z</time>
      </trkpt>
      <trkpt lat="48.73752" lon="1.96364">
        <ele>170.19999694824</ele>
        <time>2013-10-05T09:46:09.000Z</time>
      </trkpt>
      <trkpt lat="48.73747" lon="1.96378">
        <ele>170.39999389648</ele>
        <time>2013-10-05T09:46:16.000Z</time>
      </trkpt>
      <trkpt lat="48.73743" lon="1.96391">
        <ele>170.60000610352</ele>
        <time>2013-10-05T09:46:22.000Z</time>
      </trkpt>
      <trkpt lat="48.73737" lon="1.96407">
        <ele>170.60000610352</ele>
        <time>2013-10-05T09:46:30.000Z</time>
      </trkpt>
      <trkpt lat="48.73733" lon="1.9642">
        <ele>170.60000610352</ele>
        <time>2013-10-05T09:46:36.000Z</time>
      </trkpt>
      <trkpt lat="48.73729" lon="1.96433">
        <ele>170.60000610352</ele>
        <time>2013-10-05T09:46:42.000Z</time>
      </trkpt>
      <trkpt lat="48.73724" lon="1.96447">
        <ele>170.39999389648</ele>
        <time>2013-10-05T09:46:50.000Z</time>
      </trkpt>
      <trkpt lat="48.7372" lon="1.9646">
        <ele>170.39999389648</ele>
        <time>2013-10-05T09:46:57.000Z</time>
      </trkpt>
      <trkpt lat="48.7372" lon="1.9646">
        <ele>170.39999389648</ele>
        <time>2013-10-05T09:47:02.000Z</time>
      </trkpt>
      <trkpt lat="48.73717" lon="1.96459">
        <ele>170.39999389648</ele>
        <time>2013-10-05T09:47:08.000Z</time>
      </trkpt>
      <trkpt lat="48.73711" lon="1.96461">
        <ele>170.39999389648</ele>
        <time>2013-10-05T09:47:13.000Z</time>
      </trkpt>
      <trkpt lat="48.73703" lon="1.96459">
        <ele>170.39999389648</ele>
        <time>2013-10-05T09:47:18.000Z</time>
      </trkpt>
      <trkpt lat="48.73694" lon="1.96454">
        <ele>170.39999389648</ele>
        <time>2013-10-05T09:47:25.000Z</time>
      </trkpt>
      <trkpt lat="48.7372" lon="1.9646">
        <ele>170.39999389648</ele>
        <time>2013-10-05T09:47:29.000Z</time>
      </trkpt>
      <trkpt lat="48.73686" lon="1.96453">
        <ele>170.39999389648</ele>
        <time>2013-10-05T09:47:31.000Z</time>
      </trkpt>
      <trkpt lat="48.73677" lon="1.96451">
        <ele>170.39999389648</ele>
        <time>2013-10-05T09:47:39.000Z</time>
      </trkpt>
      <trkpt lat="48.73676" lon="1.96451">
        <ele>170.39999389648</ele>
        <time>2013-10-05T09:47:42.000Z</time>
      </trkpt>
      <trkpt lat="48.7367" lon="1.96452">
        <ele>170.39999389648</ele>
        <time>2013-10-05T09:47:46.000Z</time>
      </trkpt>
      <trkpt lat="48.73663" lon="1.96451">
        <ele>170.19999694824</ele>
        <time>2013-10-05T09:47:50.000Z</time>
      </trkpt>
      <trkpt lat="48.73648" lon="1.96447">
        <ele>170</ele>
        <time>2013-10-05T09:47:57.000Z</time>
      </trkpt>
      <trkpt lat="48.73632" lon="1.96446">
        <ele>169.60000610352</ele>
        <time>2013-10-05T09:48:05.000Z</time>
      </trkpt>
      <trkpt lat="48.73622" lon="1.96448">
        <ele>169.60000610352</ele>
        <time>2013-10-05T09:48:11.000Z</time>
      </trkpt>
      <trkpt lat="48.73611" lon="1.96449">
        <ele>169.39999389648</ele>
        <time>2013-10-05T09:48:17.000Z</time>
      </trkpt>
      <trkpt lat="48.73599" lon="1.96449">
        <ele>169.19999694824</ele>
        <time>2013-10-05T09:48:25.000Z</time>
      </trkpt>
      <trkpt lat="48.73585" lon="1.9645">
        <ele>169</ele>
        <time>2013-10-05T09:48:33.000Z</time>
      </trkpt>
      <trkpt lat="48.73573" lon="1.96451">
        <ele>168.80000305176</ele>
        <time>2013-10-05T09:48:41.000Z</time>
      </trkpt>
      <trkpt lat="48.7356" lon="1.96452">
        <ele>168.60000610352</ele>
        <time>2013-10-05T09:48:49.000Z</time>
      </trkpt>
      <trkpt lat="48.73549" lon="1.96452">
        <ele>168.39999389648</ele>
        <time>2013-10-05T09:48:56.000Z</time>
      </trkpt>
      <trkpt lat="48.73538" lon="1.96453">
        <ele>168.19999694824</ele>
        <time>2013-10-05T09:49:03.000Z</time>
      </trkpt>
      <trkpt lat="48.73529" lon="1.96454">
        <ele>168</ele>
        <time>2013-10-05T09:49:10.000Z</time>
      </trkpt>
      <trkpt lat="48.73518" lon="1.96454">
        <ele>167.80000305176</ele>
        <time>2013-10-05T09:49:17.000Z</time>
      </trkpt>
      <trkpt lat="48.73507" lon="1.96454">
        <ele>167.60000610352</ele>
        <time>2013-10-05T09:49:24.000Z</time>
      </trkpt>
      <trkpt lat="48.73499" lon="1.96456">
        <ele>167.39999389648</ele>
        <time>2013-10-05T09:49:29.000Z</time>
      </trkpt>
      <trkpt lat="48.7349" lon="1.96456">
        <ele>167.39999389648</ele>
        <time>2013-10-05T09:49:35.000Z</time>
      </trkpt>
      <trkpt lat="48.7348" lon="1.96457">
        <ele>167.39999389648</ele>
        <time>2013-10-05T09:49:41.000Z</time>
      </trkpt>
      <trkpt lat="48.73471" lon="1.96458">
        <ele>167.39999389648</ele>
        <time>2013-10-05T09:49:47.000Z</time>
      </trkpt>
      <trkpt lat="48.73459" lon="1.96458">
        <ele>167.39999389648</ele>
        <time>2013-10-05T09:49:55.000Z</time>
      </trkpt>
      <trkpt lat="48.73448" lon="1.96458">
        <ele>167.39999389648</ele>
        <time>2013-10-05T09:50:02.000Z</time>
      </trkpt>
      <trkpt lat="48.73436" lon="1.96458">
        <ele>167.39999389648</ele>
        <time>2013-10-05T09:50:10.000Z</time>
      </trkpt>
      <trkpt lat="48.73424" lon="1.96456">
        <ele>167.39999389648</ele>
        <time>2013-10-05T09:50:18.000Z</time>
      </trkpt>
      <trkpt lat="48.73414" lon="1.96459">
        <ele>167.39999389648</ele>
        <time>2013-10-05T09:50:25.000Z</time>
      </trkpt>
      <trkpt lat="48.73402" lon="1.9646">
        <ele>167.19999694824</ele>
        <time>2013-10-05T09:50:33.000Z</time>
      </trkpt>
      <trkpt lat="48.734" lon="1.9646">
        <ele>167.19999694824</ele>
        <time>2013-10-05T09:50:34.000Z</time>
      </trkpt>
      <trkpt lat="48.73388" lon="1.96462">
        <ele>167.19999694824</ele>
        <time>2013-10-05T09:50:42.000Z</time>
      </trkpt>
      <trkpt lat="48.73375" lon="1.96466">
        <ele>167</ele>
        <time>2013-10-05T09:50:51.000Z</time>
      </trkpt>
      <trkpt lat="48.73364" lon="1.96469">
        <ele>166.80000305176</ele>
        <time>2013-10-05T09:50:58.000Z</time>
      </trkpt>
      <trkpt lat="48.73355" lon="1.9647">
        <ele>166.80000305176</ele>
        <time>2013-10-05T09:51:04.000Z</time>
      </trkpt>
      <trkpt lat="48.73343" lon="1.96471">
        <ele>166.60000610352</ele>
        <time>2013-10-05T09:51:11.000Z</time>
      </trkpt>
      <trkpt lat="48.73332" lon="1.96474">
        <ele>166.60000610352</ele>
        <time>2013-10-05T09:51:19.000Z</time>
      </trkpt>
      <trkpt lat="48.7332" lon="1.96477">
        <ele>166.39999389648</ele>
        <time>2013-10-05T09:51:27.000Z</time>
      </trkpt>
      <trkpt lat="48.73309" lon="1.96479">
        <ele>166.19999694824</ele>
        <time>2013-10-05T09:51:34.000Z</time>
      </trkpt>
      <trkpt lat="48.73297" lon="1.96483">
        <ele>165.80000305176</ele>
        <time>2013-10-05T09:51:43.000Z</time>
      </trkpt>
      <trkpt lat="48.73282" lon="1.96485">
        <ele>165.60000610352</ele>
        <time>2013-10-05T09:51:53.000Z</time>
      </trkpt>
      <trkpt lat="48.73281" lon="1.96485">
        <ele>165.60000610352</ele>
        <time>2013-10-05T09:51:54.000Z</time>
      </trkpt>
      <trkpt lat="48.73274" lon="1.96488">
        <ele>165.39999389648</ele>
        <time>2013-10-05T09:51:58.000Z</time>
      </trkpt>
      <trkpt lat="48.73263" lon="1.9649">
        <ele>165.39999389648</ele>
        <time>2013-10-05T09:52:05.000Z</time>
      </trkpt>
      <trkpt lat="48.73252" lon="1.96488">
        <ele>165.19999694824</ele>
        <time>2013-10-05T09:52:12.000Z</time>
      </trkpt>
      <trkpt lat="48.7324" lon="1.96489">
        <ele>165.19999694824</ele>
        <time>2013-10-05T09:52:20.000Z</time>
      </trkpt>
      <trkpt lat="48.73228" lon="1.9649">
        <ele>165.39999389648</ele>
        <time>2013-10-05T09:52:28.000Z</time>
      </trkpt>
      <trkpt lat="48.73217" lon="1.96491">
        <ele>165.39999389648</ele>
        <time>2013-10-05T09:52:36.000Z</time>
      </trkpt>
      <trkpt lat="48.73208" lon="1.96492">
        <ele>165.39999389648</ele>
        <time>2013-10-05T09:52:42.000Z</time>
      </trkpt>
      <trkpt lat="48.73197" lon="1.96496">
        <ele>165.60000610352</ele>
        <time>2013-10-05T09:52:49.000Z</time>
      </trkpt>
      <trkpt lat="48.73187" lon="1.96496">
        <ele>165.60000610352</ele>
        <time>2013-10-05T09:52:56.000Z</time>
      </trkpt>
      <trkpt lat="48.73177" lon="1.96496">
        <ele>165.80000305176</ele>
        <time>2013-10-05T09:53:03.000Z</time>
      </trkpt>
      <trkpt lat="48.73167" lon="1.96496">
        <ele>165.80000305176</ele>
        <time>2013-10-05T09:53:10.000Z</time>
      </trkpt>
      <trkpt lat="48.73157" lon="1.96496">
        <ele>165.80000305176</ele>
        <time>2013-10-05T09:53:17.000Z</time>
      </trkpt>
      <trkpt lat="48.73144" lon="1.96496">
        <ele>165.60000610352</ele>
        <time>2013-10-05T09:53:25.000Z</time>
      </trkpt>
      <trkpt lat="48.73134" lon="1.96495">
        <ele>165.60000610352</ele>
        <time>2013-10-05T09:53:32.000Z</time>
      </trkpt>
      <trkpt lat="48.73122" lon="1.96494">
        <ele>165.39999389648</ele>
        <time>2013-10-05T09:53:39.000Z</time>
      </trkpt>
      <trkpt lat="48.73113" lon="1.96493">
        <ele>165.39999389648</ele>
        <time>2013-10-05T09:53:45.000Z</time>
      </trkpt>
      <trkpt lat="48.73105" lon="1.96492">
        <ele>165.19999694824</ele>
        <time>2013-10-05T09:53:50.000Z</time>
      </trkpt>
      <trkpt lat="48.73091" lon="1.9649">
        <ele>165</ele>
        <time>2013-10-05T09:54:00.000Z</time>
      </trkpt>
      <trkpt lat="48.73082" lon="1.96489">
        <ele>165</ele>
        <time>2013-10-05T09:54:06.000Z</time>
      </trkpt>
      <trkpt lat="48.73069" lon="1.96487">
        <ele>165.19999694824</ele>
        <time>2013-10-05T09:54:15.000Z</time>
      </trkpt>
      <trkpt lat="48.73062" lon="1.96486">
        <ele>165.19999694824</ele>
        <time>2013-10-05T09:54:20.000Z</time>
      </trkpt>
      <trkpt lat="48.7305" lon="1.96485">
        <ele>165.39999389648</ele>
        <time>2013-10-05T09:54:28.000Z</time>
      </trkpt>
      <trkpt lat="48.73036" lon="1.96483">
        <ele>165.60000610352</ele>
        <time>2013-10-05T09:54:38.000Z</time>
      </trkpt>
      <trkpt lat="48.73024" lon="1.96481">
        <ele>165.60000610352</ele>
        <time>2013-10-05T09:54:46.000Z</time>
      </trkpt>
      <trkpt lat="48.73015" lon="1.96479">
        <ele>165.80000305176</ele>
        <time>2013-10-05T09:54:52.000Z</time>
      </trkpt>
      <trkpt lat="48.73003" lon="1.96477">
        <ele>165.80000305176</ele>
        <time>2013-10-05T09:55:01.000Z</time>
      </trkpt>
      <trkpt lat="48.72993" lon="1.96475">
        <ele>166</ele>
        <time>2013-10-05T09:55:07.000Z</time>
      </trkpt>
      <trkpt lat="48.72983" lon="1.96474">
        <ele>166</ele>
        <time>2013-10-05T09:55:14.000Z</time>
      </trkpt>
      <trkpt lat="48.72969" lon="1.96472">
        <ele>166</ele>
        <time>2013-10-05T09:55:23.000Z</time>
      </trkpt>
      <trkpt lat="48.72959" lon="1.9647">
        <ele>166</ele>
        <time>2013-10-05T09:55:30.000Z</time>
      </trkpt>
      <trkpt lat="48.72942" lon="1.96468">
        <ele>166</ele>
        <time>2013-10-05T09:55:41.000Z</time>
      </trkpt>
      <trkpt lat="48.72924" lon="1.96465">
        <ele>166</ele>
        <time>2013-10-05T09:55:53.000Z</time>
      </trkpt>
      <trkpt lat="48.72913" lon="1.96463">
        <ele>165.80000305176</ele>
        <time>2013-10-05T09:56:01.000Z</time>
      </trkpt>
      <trkpt lat="48.72898" lon="1.96463">
        <ele>165.80000305176</ele>
        <time>2013-10-05T09:56:11.000Z</time>
      </trkpt>
      <trkpt lat="48.72883" lon="1.96464">
        <ele>165.60000610352</ele>
        <time>2013-10-05T09:56:21.000Z</time>
      </trkpt>
      <trkpt lat="48.72862" lon="1.96465">
        <ele>165.60000610352</ele>
        <time>2013-10-05T09:56:35.000Z</time>
      </trkpt>
      <trkpt lat="48.72847" lon="1.96466">
        <ele>165.39999389648</ele>
        <time>2013-10-05T09:56:45.000Z</time>
      </trkpt>
      <trkpt lat="48.72834" lon="1.96467">
        <ele>165.39999389648</ele>
        <time>2013-10-05T09:56:54.000Z</time>
      </trkpt>
      <trkpt lat="48.7282" lon="1.96468">
        <ele>165.19999694824</ele>
        <time>2013-10-05T09:57:03.000Z</time>
      </trkpt>
      <trkpt lat="48.72808" lon="1.96469">
        <ele>165.19999694824</ele>
        <time>2013-10-05T09:57:11.000Z</time>
      </trkpt>
      <trkpt lat="48.72796" lon="1.9647">
        <ele>165.19999694824</ele>
        <time>2013-10-05T09:57:19.000Z</time>
      </trkpt>
      <trkpt lat="48.72789" lon="1.96473">
        <ele>165</ele>
        <time>2013-10-05T09:57:24.000Z</time>
      </trkpt>
      <trkpt lat="48.72788" lon="1.96473">
        <ele>165</ele>
        <time>2013-10-05T09:57:25.000Z</time>
      </trkpt>
      <trkpt lat="48.72778" lon="1.96471">
        <ele>165</ele>
        <time>2013-10-05T09:57:31.000Z</time>
      </trkpt>
      <trkpt lat="48.72766" lon="1.96472">
        <ele>165</ele>
        <time>2013-10-05T09:57:40.000Z</time>
      </trkpt>
      <trkpt lat="48.72754" lon="1.96473">
        <ele>165</ele>
        <time>2013-10-05T09:57:48.000Z</time>
      </trkpt>
      <trkpt lat="48.72745" lon="1.96472">
        <ele>165</ele>
        <time>2013-10-05T09:57:55.000Z</time>
      </trkpt>
      <trkpt lat="48.72731" lon="1.9647">
        <ele>165</ele>
        <time>2013-10-05T09:58:05.000Z</time>
      </trkpt>
      <trkpt lat="48.72722" lon="1.96469">
        <ele>165.19999694824</ele>
        <time>2013-10-05T09:58:12.000Z</time>
      </trkpt>
      <trkpt lat="48.72715" lon="1.96466">
        <ele>165.19999694824</ele>
        <time>2013-10-05T09:58:18.000Z</time>
      </trkpt>
      <trkpt lat="48.72705" lon="1.96463">
        <ele>165.19999694824</ele>
        <time>2013-10-05T09:58:25.000Z</time>
      </trkpt>
      <trkpt lat="48.72697" lon="1.9646">
        <ele>165.19999694824</ele>
        <time>2013-10-05T09:58:31.000Z</time>
      </trkpt>
      <trkpt lat="48.72688" lon="1.96454">
        <ele>165.19999694824</ele>
        <time>2013-10-05T09:58:38.000Z</time>
      </trkpt>
      <trkpt lat="48.72679" lon="1.96449">
        <ele>165.19999694824</ele>
        <time>2013-10-05T09:58:45.000Z</time>
      </trkpt>
      <trkpt lat="48.72669" lon="1.96443">
        <ele>165.19999694824</ele>
        <time>2013-10-05T09:58:52.000Z</time>
      </trkpt>
      <trkpt lat="48.72668" lon="1.96442">
        <ele>165.19999694824</ele>
        <time>2013-10-05T09:58:53.000Z</time>
      </trkpt>
      <trkpt lat="48.72657" lon="1.96435">
        <ele>165.19999694824</ele>
        <time>2013-10-05T09:59:01.000Z</time>
      </trkpt>
      <trkpt lat="48.72648" lon="1.96429">
        <ele>165.39999389648</ele>
        <time>2013-10-05T09:59:07.000Z</time>
      </trkpt>
      <trkpt lat="48.72639" lon="1.96425">
        <ele>165.60000610352</ele>
        <time>2013-10-05T09:59:13.000Z</time>
      </trkpt>
      <trkpt lat="48.72634" lon="1.96421">
        <ele>165.60000610352</ele>
        <time>2013-10-05T09:59:17.000Z</time>
      </trkpt>
      <trkpt lat="48.72623" lon="1.96414">
        <ele>166</ele>
        <time>2013-10-05T09:59:24.000Z</time>
      </trkpt>
      <trkpt lat="48.72623" lon="1.96412">
        <ele>166</ele>
        <time>2013-10-05T09:59:25.000Z</time>
      </trkpt>
      <trkpt lat="48.72621" lon="1.9641">
        <ele>166</ele>
        <time>2013-10-05T09:59:27.000Z</time>
      </trkpt>
      <trkpt lat="48.72611" lon="1.96405">
        <ele>166.19999694824</ele>
        <time>2013-10-05T09:59:34.000Z</time>
      </trkpt>
      <trkpt lat="48.72604" lon="1.96399">
        <ele>166.19999694824</ele>
        <time>2013-10-05T09:59:39.000Z</time>
      </trkpt>
      <trkpt lat="48.72594" lon="1.96392">
        <ele>166.39999389648</ele>
        <time>2013-10-05T09:59:47.000Z</time>
      </trkpt>
      <trkpt lat="48.72587" lon="1.96388">
        <ele>166.39999389648</ele>
        <time>2013-10-05T09:59:53.000Z</time>
      </trkpt>
      <trkpt lat="48.72578" lon="1.96382">
        <ele>166.80000305176</ele>
        <time>2013-10-05T10:00:01.000Z</time>
      </trkpt>
      <trkpt lat="48.72572" lon="1.96377">
        <ele>167.19999694824</ele>
        <time>2013-10-05T10:00:05.000Z</time>
      </trkpt>
      <trkpt lat="48.72564" lon="1.96371">
        <ele>167.60000610352</ele>
        <time>2013-10-05T10:00:10.000Z</time>
      </trkpt>
      <trkpt lat="48.72554" lon="1.96366">
        <ele>168.19999694824</ele>
        <time>2013-10-05T10:00:17.000Z</time>
      </trkpt>
      <trkpt lat="48.7255" lon="1.96363">
        <ele>168.39999389648</ele>
        <time>2013-10-05T10:00:19.000Z</time>
      </trkpt>
      <trkpt lat="48.72543" lon="1.96358">
        <ele>168.80000305176</ele>
        <time>2013-10-05T10:00:24.000Z</time>
      </trkpt>
      <trkpt lat="48.72537" lon="1.96354">
        <ele>169</ele>
        <time>2013-10-05T10:00:31.000Z</time>
      </trkpt>
      <trkpt lat="48.7253" lon="1.96349">
        <ele>169.39999389648</ele>
        <time>2013-10-05T10:00:37.000Z</time>
      </trkpt>
      <trkpt lat="48.72521" lon="1.96342">
        <ele>169.80000305176</ele>
        <time>2013-10-05T10:00:44.000Z</time>
      </trkpt>
      <trkpt lat="48.72512" lon="1.96343">
        <ele>170.39999389648</ele>
        <time>2013-10-05T10:00:50.000Z</time>
      </trkpt>
      <trkpt lat="48.72508" lon="1.96338">
        <ele>170.60000610352</ele>
        <time>2013-10-05T10:00:56.000Z</time>
      </trkpt>
      <trkpt lat="48.72507" lon="1.96339">
        <ele>170.60000610352</ele>
        <time>2013-10-05T10:00:57.000Z</time>
      </trkpt>
      <trkpt lat="48.72501" lon="1.9634">
        <ele>171</ele>
        <time>2013-10-05T10:01:04.000Z</time>
      </trkpt>
      <trkpt lat="48.72494" lon="1.96341">
        <ele>171.19999694824</ele>
        <time>2013-10-05T10:01:09.000Z</time>
      </trkpt>
      <trkpt lat="48.72493" lon="1.96341">
        <ele>171.19999694824</ele>
        <time>2013-10-05T10:01:10.000Z</time>
      </trkpt>
      <trkpt lat="48.72482" lon="1.96275">
        <ele>168.60000610352</ele>
        <time>2013-10-05T10:01:17.000Z</time>
      </trkpt>
      <trkpt lat="48.72479" lon="1.96275">
        <ele>168.60000610352</ele>
        <time>2013-10-05T10:01:20.000Z</time>
      </trkpt>
      <trkpt lat="48.72475" lon="1.96273">
        <ele>168.39999389648</ele>
        <time>2013-10-05T10:01:22.000Z</time>
      </trkpt>
      <trkpt lat="48.72473" lon="1.96272">
        <ele>168.39999389648</ele>
        <time>2013-10-05T10:01:31.000Z</time>
      </trkpt>
      <trkpt lat="48.72461" lon="1.96272">
        <ele>168.19999694824</ele>
        <time>2013-10-05T10:01:33.000Z</time>
      </trkpt>
      <trkpt lat="48.72455" lon="1.96273">
        <ele>168.19999694824</ele>
        <time>2013-10-05T10:01:37.000Z</time>
      </trkpt>
      <trkpt lat="48.72451" lon="1.96273">
        <ele>168</ele>
        <time>2013-10-05T10:01:41.000Z</time>
      </trkpt>
      <trkpt lat="48.72446" lon="1.96271">
        <ele>167.80000305176</ele>
        <time>2013-10-05T10:01:44.000Z</time>
      </trkpt>
      <trkpt lat="48.72437" lon="1.96271">
        <ele>167.80000305176</ele>
        <time>2013-10-05T10:01:50.000Z</time>
      </trkpt>
      <trkpt lat="48.72434" lon="1.96271">
        <ele>167.60000610352</ele>
        <time>2013-10-05T10:01:56.000Z</time>
      </trkpt>
      <trkpt lat="48.72414" lon="1.96266">
        <ele>167.19999694824</ele>
        <time>2013-10-05T10:02:04.000Z</time>
      </trkpt>
      <trkpt lat="48.72408" lon="1.96264">
        <ele>167.19999694824</ele>
        <time>2013-10-05T10:02:08.000Z</time>
      </trkpt>
      <trkpt lat="48.72401" lon="1.96262">
        <ele>167.39999389648</ele>
        <time>2013-10-05T10:02:12.000Z</time>
      </trkpt>
      <trkpt lat="48.72399" lon="1.9626">
        <ele>167.39999389648</ele>
        <time>2013-10-05T10:02:15.000Z</time>
      </trkpt>
      <trkpt lat="48.72395" lon="1.96259">
        <ele>167.39999389648</ele>
        <time>2013-10-05T10:02:19.000Z</time>
      </trkpt>
      <trkpt lat="48.72382" lon="1.96253">
        <ele>167.60000610352</ele>
        <time>2013-10-05T10:02:27.000Z</time>
      </trkpt>
      <trkpt lat="48.72382" lon="1.96253">
        <ele>167.60000610352</ele>
        <time>2013-10-05T10:02:28.000Z</time>
      </trkpt>
      <trkpt lat="48.7237" lon="1.96248">
        <ele>167.80000305176</ele>
        <time>2013-10-05T10:02:35.000Z</time>
      </trkpt>
      <trkpt lat="48.72367" lon="1.96245">
        <ele>167.80000305176</ele>
        <time>2013-10-05T10:02:40.000Z</time>
      </trkpt>
      <trkpt lat="48.7235" lon="1.96232">
        <ele>167.60000610352</ele>
        <time>2013-10-05T10:02:47.000Z</time>
      </trkpt>
      <trkpt lat="48.72342" lon="1.96228">
        <ele>167.80000305176</ele>
        <time>2013-10-05T10:02:52.000Z</time>
      </trkpt>
      <trkpt lat="48.72335" lon="1.96221">
        <ele>167.80000305176</ele>
        <time>2013-10-05T10:02:57.000Z</time>
      </trkpt>
      <trkpt lat="48.72329" lon="1.96217">
        <ele>167.60000610352</ele>
        <time>2013-10-05T10:03:01.000Z</time>
      </trkpt>
      <trkpt lat="48.7232" lon="1.96209">
        <ele>167</ele>
        <time>2013-10-05T10:03:07.000Z</time>
      </trkpt>
      <trkpt lat="48.7231" lon="1.96201">
        <ele>166.39999389648</ele>
        <time>2013-10-05T10:03:13.000Z</time>
      </trkpt>
      <trkpt lat="48.72307" lon="1.962">
        <ele>166.39999389648</ele>
        <time>2013-10-05T10:03:14.000Z</time>
      </trkpt>
      <trkpt lat="48.72298" lon="1.96194">
        <ele>166</ele>
        <time>2013-10-05T10:03:20.000Z</time>
      </trkpt>
      <trkpt lat="48.72291" lon="1.96189">
        <ele>165.60000610352</ele>
        <time>2013-10-05T10:03:26.000Z</time>
      </trkpt>
      <trkpt lat="48.72287" lon="1.96187">
        <ele>165.39999389648</ele>
        <time>2013-10-05T10:03:29.000Z</time>
      </trkpt>
      <trkpt lat="48.72278" lon="1.96182">
        <ele>165.19999694824</ele>
        <time>2013-10-05T10:03:36.000Z</time>
      </trkpt>
      <trkpt lat="48.72267" lon="1.96176">
        <ele>164.60000610352</ele>
        <time>2013-10-05T10:03:43.000Z</time>
      </trkpt>
      <trkpt lat="48.72259" lon="1.96172">
        <ele>164.39999389648</ele>
        <time>2013-10-05T10:03:49.000Z</time>
      </trkpt>
      <trkpt lat="48.72246" lon="1.96173">
        <ele>164.39999389648</ele>
        <time>2013-10-05T10:03:55.000Z</time>
      </trkpt>
      <trkpt lat="48.72238" lon="1.96174">
        <ele>164.19999694824</ele>
        <time>2013-10-05T10:04:00.000Z</time>
      </trkpt>
      <trkpt lat="48.72231" lon="1.96174">
        <ele>164</ele>
        <time>2013-10-05T10:04:06.000Z</time>
      </trkpt>
      <trkpt lat="48.72223" lon="1.96176">
        <ele>164</ele>
        <time>2013-10-05T10:04:09.000Z</time>
      </trkpt>
      <trkpt lat="48.72214" lon="1.96179">
        <ele>163.80000305176</ele>
        <time>2013-10-05T10:04:16.000Z</time>
      </trkpt>
      <trkpt lat="48.72211" lon="1.9618">
        <ele>163.80000305176</ele>
        <time>2013-10-05T10:04:23.000Z</time>
      </trkpt>
      <trkpt lat="48.722" lon="1.96183">
        <ele>163.80000305176</ele>
        <time>2013-10-05T10:04:28.000Z</time>
      </trkpt>
      <trkpt lat="48.72197" lon="1.96184">
        <ele>163.60000610352</ele>
        <time>2013-10-05T10:04:30.000Z</time>
      </trkpt>
      <trkpt lat="48.72188" lon="1.96185">
        <ele>163.39999389648</ele>
        <time>2013-10-05T10:04:36.000Z</time>
      </trkpt>
      <trkpt lat="48.72183" lon="1.96188">
        <ele>163.39999389648</ele>
        <time>2013-10-05T10:04:41.000Z</time>
      </trkpt>
      <trkpt lat="48.72176" lon="1.9619">
        <ele>163.39999389648</ele>
        <time>2013-10-05T10:04:46.000Z</time>
      </trkpt>
      <trkpt lat="48.72166" lon="1.96194">
        <ele>163.19999694824</ele>
        <time>2013-10-05T10:04:52.000Z</time>
      </trkpt>
      <trkpt lat="48.7216" lon="1.96197">
        <ele>162.60000610352</ele>
        <time>2013-10-05T10:04:58.000Z</time>
      </trkpt>
      <trkpt lat="48.72156" lon="1.96198">
        <ele>162.19999694824</ele>
        <time>2013-10-05T10:05:03.000Z</time>
      </trkpt>
      <trkpt lat="48.72149" lon="1.96202">
        <ele>161.80000305176</ele>
        <time>2013-10-05T10:05:08.000Z</time>
      </trkpt>
      <trkpt lat="48.72147" lon="1.96205">
        <ele>161.60000610352</ele>
        <time>2013-10-05T10:05:15.000Z</time>
      </trkpt>
      <trkpt lat="48.7214" lon="1.96211">
        <ele>161.19999694824</ele>
        <time>2013-10-05T10:05:21.000Z</time>
      </trkpt>
      <trkpt lat="48.7214" lon="1.96211">
        <ele>161.19999694824</ele>
        <time>2013-10-05T10:05:25.000Z</time>
      </trkpt>
      <trkpt lat="48.72134" lon="1.96214">
        <ele>160.60000610352</ele>
        <time>2013-10-05T10:05:29.000Z</time>
      </trkpt>
      <trkpt lat="48.72123" lon="1.9622">
        <ele>159.80000305176</ele>
        <time>2013-10-05T10:05:33.000Z</time>
      </trkpt>
      <trkpt lat="48.72122" lon="1.96218">
        <ele>159.60000610352</ele>
        <time>2013-10-05T10:05:39.000Z</time>
      </trkpt>
      <trkpt lat="48.72119" lon="1.96214">
        <ele>159</ele>
        <time>2013-10-05T10:05:44.000Z</time>
      </trkpt>
      <trkpt lat="48.72114" lon="1.96208">
        <ele>158.19999694824</ele>
        <time>2013-10-05T10:05:50.000Z</time>
      </trkpt>
      <trkpt lat="48.72114" lon="1.96208">
        <ele>158.19999694824</ele>
        <time>2013-10-05T10:05:54.000Z</time>
      </trkpt>
      <trkpt lat="48.72102" lon="1.96192">
        <ele>156</ele>
        <time>2013-10-05T10:06:01.000Z</time>
      </trkpt>
      <trkpt lat="48.72096" lon="1.96185">
        <ele>155.19999694824</ele>
        <time>2013-10-05T10:06:06.000Z</time>
      </trkpt>
      <trkpt lat="48.7209" lon="1.96177">
        <ele>154.19999694824</ele>
        <time>2013-10-05T10:06:12.000Z</time>
      </trkpt>
      <trkpt lat="48.72088" lon="1.96174">
        <ele>153.80000305176</ele>
        <time>2013-10-05T10:06:15.000Z</time>
      </trkpt>
      <trkpt lat="48.7208" lon="1.96164">
        <ele>151.80000305176</ele>
        <time>2013-10-05T10:06:21.000Z</time>
      </trkpt>
      <trkpt lat="48.72081" lon="1.9616">
        <ele>151.39999389648</ele>
        <time>2013-10-05T10:06:30.000Z</time>
      </trkpt>
      <trkpt lat="48.72081" lon="1.9616">
        <ele>151.39999389648</ele>
        <time>2013-10-05T10:06:32.000Z</time>
      </trkpt>
      <trkpt lat="48.72083" lon="1.96141">
        <ele>150</ele>
        <time>2013-10-05T10:06:37.000Z</time>
      </trkpt>
      <trkpt lat="48.72083" lon="1.9614">
        <ele>150</ele>
        <time>2013-10-05T10:06:42.000Z</time>
      </trkpt>
      <trkpt lat="48.72083" lon="1.96137">
        <ele>149.60000610352</ele>
        <time>2013-10-05T10:06:47.000Z</time>
      </trkpt>
      <trkpt lat="48.72072" lon="1.96139">
        <ele>146.80000305176</ele>
        <time>2013-10-05T10:06:54.000Z</time>
      </trkpt>
      <trkpt lat="48.72067" lon="1.96136">
        <ele>145.19999694824</ele>
        <time>2013-10-05T10:07:01.000Z</time>
      </trkpt>
      <trkpt lat="48.72066" lon="1.96136">
        <ele>145</ele>
        <time>2013-10-05T10:07:02.000Z</time>
      </trkpt>
      <trkpt lat="48.72072" lon="1.96112">
        <ele>144.19999694824</ele>
        <time>2013-10-05T10:07:10.000Z</time>
      </trkpt>
      <trkpt lat="48.72072" lon="1.96112">
        <ele>144.19999694824</ele>
        <time>2013-10-05T10:07:16.000Z</time>
      </trkpt>
      <trkpt lat="48.72072" lon="1.96112">
        <ele>144.19999694824</ele>
        <time>2013-10-05T10:07:24.000Z</time>
      </trkpt>
      <trkpt lat="48.72072" lon="1.96112">
        <ele>144.19999694824</ele>
        <time>2013-10-05T10:07:30.000Z</time>
      </trkpt>
      <trkpt lat="48.72072" lon="1.96112">
        <ele>144.19999694824</ele>
        <time>2013-10-05T10:07:34.000Z</time>
      </trkpt>
      <trkpt lat="48.72072" lon="1.96112">
        <ele>144.19999694824</ele>
        <time>2013-10-05T10:07:41.000Z</time>
      </trkpt>
      <trkpt lat="48.72056" lon="1.961">
        <ele>139.19999694824</ele>
        <time>2013-10-05T10:07:43.000Z</time>
      </trkpt>
      <trkpt lat="48.72051" lon="1.96094">
        <ele>137.39999389648</ele>
        <time>2013-10-05T10:07:49.000Z</time>
      </trkpt>
      <trkpt lat="48.72048" lon="1.96092">
        <ele>136.80000305176</ele>
        <time>2013-10-05T10:07:56.000Z</time>
      </trkpt>
      <trkpt lat="48.72048" lon="1.96092">
        <ele>136.80000305176</ele>
        <time>2013-10-05T10:08:03.000Z</time>
      </trkpt>
      <trkpt lat="48.72035" lon="1.96083">
        <ele>133</ele>
        <time>2013-10-05T10:08:09.000Z</time>
      </trkpt>
      <trkpt lat="48.72032" lon="1.9608">
        <ele>132</ele>
        <time>2013-10-05T10:08:14.000Z</time>
      </trkpt>
      <trkpt lat="48.72024" lon="1.96075">
        <ele>129.80000305176</ele>
        <time>2013-10-05T10:08:23.000Z</time>
      </trkpt>
      <trkpt lat="48.72022" lon="1.96073">
        <ele>129.19999694824</ele>
        <time>2013-10-05T10:08:26.000Z</time>
      </trkpt>
      <trkpt lat="48.72015" lon="1.9607">
        <ele>127.59999847412</ele>
        <time>2013-10-05T10:08:32.000Z</time>
      </trkpt>
      <trkpt lat="48.72012" lon="1.96066">
        <ele>126.59999847412</ele>
        <time>2013-10-05T10:08:35.000Z</time>
      </trkpt>
      <trkpt lat="48.72006" lon="1.96063">
        <ele>125.19999694824</ele>
        <time>2013-10-05T10:08:41.000Z</time>
      </trkpt>
      <trkpt lat="48.72004" lon="1.96062">
        <ele>124.80000305176</ele>
        <time>2013-10-05T10:08:46.000Z</time>
      </trkpt>
      <trkpt lat="48.71996" lon="1.96054">
        <ele>123</ele>
        <time>2013-10-05T10:08:53.000Z</time>
      </trkpt>
      <trkpt lat="48.71993" lon="1.96052">
        <ele>122.40000152588</ele>
        <time>2013-10-05T10:08:59.000Z</time>
      </trkpt>
      <trkpt lat="48.71993" lon="1.96052">
        <ele>122.40000152588</ele>
        <time>2013-10-05T10:09:04.000Z</time>
      </trkpt>
      <trkpt lat="48.71987" lon="1.96048">
        <ele>121.40000152588</ele>
        <time>2013-10-05T10:09:08.000Z</time>
      </trkpt>
      <trkpt lat="48.71986" lon="1.96049">
        <ele>121.19999694824</ele>
        <time>2013-10-05T10:09:10.000Z</time>
      </trkpt>
      <trkpt lat="48.71984" lon="1.96047">
        <ele>120.80000305176</ele>
        <time>2013-10-05T10:09:12.000Z</time>
      </trkpt>
      <trkpt lat="48.7197" lon="1.96052">
        <ele>119.19999694824</ele>
        <time>2013-10-05T10:09:14.000Z</time>
      </trkpt>
      <trkpt lat="48.71969" lon="1.96059">
        <ele>119.19999694824</ele>
        <time>2013-10-05T10:09:18.000Z</time>
      </trkpt>
      <trkpt lat="48.71969" lon="1.96062">
        <ele>119.19999694824</ele>
        <time>2013-10-05T10:09:20.000Z</time>
      </trkpt>
      <trkpt lat="48.71967" lon="1.96069">
        <ele>119</ele>
        <time>2013-10-05T10:09:24.000Z</time>
      </trkpt>
      <trkpt lat="48.71966" lon="1.96075">
        <ele>119</ele>
        <time>2013-10-05T10:09:27.000Z</time>
      </trkpt>
      <trkpt lat="48.71964" lon="1.9609">
        <ele>119</ele>
        <time>2013-10-05T10:09:34.000Z</time>
      </trkpt>
      <trkpt lat="48.71962" lon="1.96101">
        <ele>119</ele>
        <time>2013-10-05T10:09:39.000Z</time>
      </trkpt>
      <trkpt lat="48.71961" lon="1.96106">
        <ele>119</ele>
        <time>2013-10-05T10:09:41.000Z</time>
      </trkpt>
      <trkpt lat="48.71962" lon="1.96112">
        <ele>119.40000152588</ele>
        <time>2013-10-05T10:09:44.000Z</time>
      </trkpt>
      <trkpt lat="48.71961" lon="1.96117">
        <ele>119.40000152588</ele>
        <time>2013-10-05T10:09:47.000Z</time>
      </trkpt>
      <trkpt lat="48.71957" lon="1.96125">
        <ele>118.80000305176</ele>
        <time>2013-10-05T10:09:54.000Z</time>
      </trkpt>
      <trkpt lat="48.71957" lon="1.96125">
        <ele>118.80000305176</ele>
        <time>2013-10-05T10:09:55.000Z</time>
      </trkpt>
      <trkpt lat="48.71954" lon="1.96141">
        <ele>118.80000305176</ele>
        <time>2013-10-05T10:10:00.000Z</time>
      </trkpt>
      <trkpt lat="48.71953" lon="1.96144">
        <ele>118.59999847412</ele>
        <time>2013-10-05T10:10:02.000Z</time>
      </trkpt>
      <trkpt lat="48.71952" lon="1.96148">
        <ele>118.59999847412</ele>
        <time>2013-10-05T10:10:04.000Z</time>
      </trkpt>
      <trkpt lat="48.71953" lon="1.96151">
        <ele>118.80000305176</ele>
        <time>2013-10-05T10:10:06.000Z</time>
      </trkpt>
      <trkpt lat="48.71949" lon="1.96162">
        <ele>118.40000152588</ele>
        <time>2013-10-05T10:10:13.000Z</time>
      </trkpt>
      <trkpt lat="48.71946" lon="1.96168">
        <ele>118</ele>
        <time>2013-10-05T10:10:17.000Z</time>
      </trkpt>
      <trkpt lat="48.71944" lon="1.96173">
        <ele>117.59999847412</ele>
        <time>2013-10-05T10:10:23.000Z</time>
      </trkpt>
      <trkpt lat="48.71944" lon="1.96173">
        <ele>117.59999847412</ele>
        <time>2013-10-05T10:10:28.000Z</time>
      </trkpt>
      <trkpt lat="48.71933" lon="1.96206">
        <ele>116.40000152588</ele>
        <time>2013-10-05T10:10:34.000Z</time>
      </trkpt>
      <trkpt lat="48.71931" lon="1.96216">
        <ele>116.40000152588</ele>
        <time>2013-10-05T10:10:38.000Z</time>
      </trkpt>
      <trkpt lat="48.71931" lon="1.96221">
        <ele>116.59999847412</ele>
        <time>2013-10-05T10:10:42.000Z</time>
      </trkpt>
      <trkpt lat="48.71928" lon="1.96236">
        <ele>116.19999694824</ele>
        <time>2013-10-05T10:10:47.000Z</time>
      </trkpt>
      <trkpt lat="48.71928" lon="1.96246">
        <ele>116.59999847412</ele>
        <time>2013-10-05T10:10:54.000Z</time>
      </trkpt>
      <trkpt lat="48.71925" lon="1.96251">
        <ele>116</ele>
        <time>2013-10-05T10:11:01.000Z</time>
      </trkpt>
      <trkpt lat="48.71923" lon="1.96265">
        <ele>116.19999694824</ele>
        <time>2013-10-05T10:11:08.000Z</time>
      </trkpt>
      <trkpt lat="48.71917" lon="1.96271">
        <ele>115.19999694824</ele>
        <time>2013-10-05T10:11:13.000Z</time>
      </trkpt>
      <trkpt lat="48.7191" lon="1.9628">
        <ele>114.80000305176</ele>
        <time>2013-10-05T10:11:19.000Z</time>
      </trkpt>
      <trkpt lat="48.71907" lon="1.96289">
        <ele>114.80000305176</ele>
        <time>2013-10-05T10:11:22.000Z</time>
      </trkpt>
      <trkpt lat="48.71905" lon="1.96294">
        <ele>114.80000305176</ele>
        <time>2013-10-05T10:11:26.000Z</time>
      </trkpt>
      <trkpt lat="48.71899" lon="1.96306">
        <ele>114.80000305176</ele>
        <time>2013-10-05T10:11:32.000Z</time>
      </trkpt>
      <trkpt lat="48.71894" lon="1.9632">
        <ele>114.59999847412</ele>
        <time>2013-10-05T10:11:39.000Z</time>
      </trkpt>
      <trkpt lat="48.71896" lon="1.96323">
        <ele>115</ele>
        <time>2013-10-05T10:11:45.000Z</time>
      </trkpt>
      <trkpt lat="48.71894" lon="1.9632">
        <ele>114.59999847412</ele>
        <time>2013-10-05T10:11:51.000Z</time>
      </trkpt>
      <trkpt lat="48.71876" lon="1.96359">
        <ele>114.19999694824</ele>
        <time>2013-10-05T10:11:56.000Z</time>
      </trkpt>
      <trkpt lat="48.71876" lon="1.96365">
        <ele>114.40000152588</ele>
        <time>2013-10-05T10:12:01.000Z</time>
      </trkpt>
      <trkpt lat="48.71876" lon="1.96365">
        <ele>114.40000152588</ele>
        <time>2013-10-05T10:12:05.000Z</time>
      </trkpt>
      <trkpt lat="48.71877" lon="1.96395">
        <ele>115.80000305176</ele>
        <time>2013-10-05T10:12:11.000Z</time>
      </trkpt>
      <trkpt lat="48.71877" lon="1.96397">
        <ele>116</ele>
        <time>2013-10-05T10:12:12.000Z</time>
      </trkpt>
      <trkpt lat="48.71879" lon="1.96406">
        <ele>116.59999847412</ele>
        <time>2013-10-05T10:12:16.000Z</time>
      </trkpt>
      <trkpt lat="48.71876" lon="1.96418">
        <ele>116.80000305176</ele>
        <time>2013-10-05T10:12:23.000Z</time>
      </trkpt>
      <trkpt lat="48.71876" lon="1.96418">
        <ele>116.80000305176</ele>
        <time>2013-10-05T10:12:24.000Z</time>
      </trkpt>
      <trkpt lat="48.71875" lon="1.96425">
        <ele>117</ele>
        <time>2013-10-05T10:12:27.000Z</time>
      </trkpt>
      <trkpt lat="48.71873" lon="1.96432">
        <ele>117.19999694824</ele>
        <time>2013-10-05T10:12:30.000Z</time>
      </trkpt>
      <trkpt lat="48.71872" lon="1.96436">
        <ele>117.40000152588</ele>
        <time>2013-10-05T10:12:34.000Z</time>
      </trkpt>
      <trkpt lat="48.71871" lon="1.96442">
        <ele>117.59999847412</ele>
        <time>2013-10-05T10:12:36.000Z</time>
      </trkpt>
      <trkpt lat="48.71867" lon="1.96456">
        <ele>117.80000305176</ele>
        <time>2013-10-05T10:12:42.000Z</time>
      </trkpt>
      <trkpt lat="48.71865" lon="1.96467">
        <ele>118</ele>
        <time>2013-10-05T10:12:48.000Z</time>
      </trkpt>
      <trkpt lat="48.71865" lon="1.96467">
        <ele>118</ele>
        <time>2013-10-05T10:12:49.000Z</time>
      </trkpt>
      <trkpt lat="48.71863" lon="1.9648">
        <ele>118.40000152588</ele>
        <time>2013-10-05T10:12:56.000Z</time>
      </trkpt>
      <trkpt lat="48.71861" lon="1.96495">
        <ele>118.80000305176</ele>
        <time>2013-10-05T10:13:00.000Z</time>
      </trkpt>
      <trkpt lat="48.71861" lon="1.96495">
        <ele>118.80000305176</ele>
        <time>2013-10-05T10:13:01.000Z</time>
      </trkpt>
      <trkpt lat="48.71857" lon="1.96506">
        <ele>118.40000152588</ele>
        <time>2013-10-05T10:13:07.000Z</time>
      </trkpt>
      <trkpt lat="48.7185" lon="1.96518">
        <ele>117.19999694824</ele>
        <time>2013-10-05T10:13:13.000Z</time>
      </trkpt>
      <trkpt lat="48.71845" lon="1.9653">
        <ele>116.59999847412</ele>
        <time>2013-10-05T10:13:18.000Z</time>
      </trkpt>
      <trkpt lat="48.7184" lon="1.96543">
        <ele>116</ele>
        <time>2013-10-05T10:13:24.000Z</time>
      </trkpt>
      <trkpt lat="48.7184" lon="1.96543">
        <ele>116</ele>
        <time>2013-10-05T10:13:27.000Z</time>
      </trkpt>
      <trkpt lat="48.71834" lon="1.96555">
        <ele>114.59999847412</ele>
        <time>2013-10-05T10:13:32.000Z</time>
      </trkpt>
      <trkpt lat="48.71831" lon="1.96562">
        <ele>114.59999847412</ele>
        <time>2013-10-05T10:13:36.000Z</time>
      </trkpt>
      <trkpt lat="48.71828" lon="1.96573">
        <ele>114.80000305176</ele>
        <time>2013-10-05T10:13:42.000Z</time>
      </trkpt>
      <trkpt lat="48.71825" lon="1.96582">
        <ele>114.80000305176</ele>
        <time>2013-10-05T10:13:47.000Z</time>
      </trkpt>
      <trkpt lat="48.71822" lon="1.96594">
        <ele>115.19999694824</ele>
        <time>2013-10-05T10:13:52.000Z</time>
      </trkpt>
      <trkpt lat="48.71817" lon="1.9661">
        <ele>115.40000152588</ele>
        <time>2013-10-05T10:14:00.000Z</time>
      </trkpt>
      <trkpt lat="48.71817" lon="1.9661">
        <ele>115.40000152588</ele>
        <time>2013-10-05T10:14:03.000Z</time>
      </trkpt>
      <trkpt lat="48.7181" lon="1.96629">
        <ele>115.40000152588</ele>
        <time>2013-10-05T10:14:10.000Z</time>
      </trkpt>
      <trkpt lat="48.71809" lon="1.96639">
        <ele>115.80000305176</ele>
        <time>2013-10-05T10:14:15.000Z</time>
      </trkpt>
      <trkpt lat="48.71808" lon="1.96644">
        <ele>115.80000305176</ele>
        <time>2013-10-05T10:14:18.000Z</time>
      </trkpt>
      <trkpt lat="48.71805" lon="1.96656">
        <ele>116</ele>
        <time>2013-10-05T10:14:22.000Z</time>
      </trkpt>
      <trkpt lat="48.71803" lon="1.96668">
        <ele>116.19999694824</ele>
        <time>2013-10-05T10:14:26.000Z</time>
      </trkpt>
      <trkpt lat="48.71804" lon="1.96686">
        <ele>116.80000305176</ele>
        <time>2013-10-05T10:14:33.000Z</time>
      </trkpt>
      <trkpt lat="48.71801" lon="1.96687">
        <ele>116.19999694824</ele>
        <time>2013-10-05T10:14:34.000Z</time>
      </trkpt>
      <trkpt lat="48.718" lon="1.967">
        <ele>116.19999694824</ele>
        <time>2013-10-05T10:14:40.000Z</time>
      </trkpt>
      <trkpt lat="48.71799" lon="1.9671">
        <ele>116.40000152588</ele>
        <time>2013-10-05T10:14:45.000Z</time>
      </trkpt>
      <trkpt lat="48.71801" lon="1.96714">
        <ele>116.80000305176</ele>
        <time>2013-10-05T10:14:48.000Z</time>
      </trkpt>
      <trkpt lat="48.71799" lon="1.96725">
        <ele>116.59999847412</ele>
        <time>2013-10-05T10:14:54.000Z</time>
      </trkpt>
      <trkpt lat="48.71796" lon="1.9673">
        <ele>116</ele>
        <time>2013-10-05T10:14:57.000Z</time>
      </trkpt>
      <trkpt lat="48.71796" lon="1.96745">
        <ele>116.40000152588</ele>
        <time>2013-10-05T10:15:02.000Z</time>
      </trkpt>
      <trkpt lat="48.71795" lon="1.96751">
        <ele>116.19999694824</ele>
        <time>2013-10-05T10:15:07.000Z</time>
      </trkpt>
      <trkpt lat="48.71795" lon="1.96751">
        <ele>116.19999694824</ele>
        <time>2013-10-05T10:15:08.000Z</time>
      </trkpt>
      <trkpt lat="48.7179" lon="1.96768">
        <ele>115.40000152588</ele>
        <time>2013-10-05T10:15:14.000Z</time>
      </trkpt>
      <trkpt lat="48.71791" lon="1.96775">
        <ele>116</ele>
        <time>2013-10-05T10:15:22.000Z</time>
      </trkpt>
      <trkpt lat="48.71791" lon="1.96775">
        <ele>116</ele>
        <time>2013-10-05T10:15:25.000Z</time>
      </trkpt>
      <trkpt lat="48.71789" lon="1.96798">
        <ele>116.19999694824</ele>
        <time>2013-10-05T10:15:30.000Z</time>
      </trkpt>
      <trkpt lat="48.71789" lon="1.96807">
        <ele>116.40000152588</ele>
        <time>2013-10-05T10:15:36.000Z</time>
      </trkpt>
      <trkpt lat="48.71789" lon="1.96807">
        <ele>116.40000152588</ele>
        <time>2013-10-05T10:15:41.000Z</time>
      </trkpt>
      <trkpt lat="48.71788" lon="1.96814">
        <ele>116.40000152588</ele>
        <time>2013-10-05T10:15:46.000Z</time>
      </trkpt>
      <trkpt lat="48.71787" lon="1.96818">
        <ele>116.19999694824</ele>
        <time>2013-10-05T10:15:47.000Z</time>
      </trkpt>
      <trkpt lat="48.71786" lon="1.96831">
        <ele>116.40000152588</ele>
        <time>2013-10-05T10:15:53.000Z</time>
      </trkpt>
      <trkpt lat="48.71786" lon="1.96839">
        <ele>116.40000152588</ele>
        <time>2013-10-05T10:15:56.000Z</time>
      </trkpt>
      <trkpt lat="48.71785" lon="1.96853">
        <ele>116.19999694824</ele>
        <time>2013-10-05T10:16:02.000Z</time>
      </trkpt>
      <trkpt lat="48.71784" lon="1.9687">
        <ele>116.19999694824</ele>
        <time>2013-10-05T10:16:10.000Z</time>
      </trkpt>
      <trkpt lat="48.71783" lon="1.96879">
        <ele>115.80000305176</ele>
        <time>2013-10-05T10:16:15.000Z</time>
      </trkpt>
      <trkpt lat="48.71782" lon="1.96895">
        <ele>115.59999847412</ele>
        <time>2013-10-05T10:16:21.000Z</time>
      </trkpt>
      <trkpt lat="48.71779" lon="1.96906">
        <ele>114.80000305176</ele>
        <time>2013-10-05T10:16:27.000Z</time>
      </trkpt>
      <trkpt lat="48.71778" lon="1.96906">
        <ele>114.59999847412</ele>
        <time>2013-10-05T10:16:29.000Z</time>
      </trkpt>
      <trkpt lat="48.71778" lon="1.96906">
        <ele>114.59999847412</ele>
        <time>2013-10-05T10:16:36.000Z</time>
      </trkpt>
      <trkpt lat="48.71756" lon="1.9691">
        <ele>109.19999694824</ele>
        <time>2013-10-05T10:16:42.000Z</time>
      </trkpt>
      <trkpt lat="48.7175" lon="1.96911">
        <ele>107.80000305176</ele>
        <time>2013-10-05T10:16:47.000Z</time>
      </trkpt>
      <trkpt lat="48.71743" lon="1.96905">
        <ele>107.59999847412</ele>
        <time>2013-10-05T10:16:52.000Z</time>
      </trkpt>
      <trkpt lat="48.7174" lon="1.96903">
        <ele>107.40000152588</ele>
        <time>2013-10-05T10:16:54.000Z</time>
      </trkpt>
      <trkpt lat="48.7173" lon="1.96896">
        <ele>107</ele>
        <time>2013-10-05T10:17:01.000Z</time>
      </trkpt>
      <trkpt lat="48.71722" lon="1.96891">
        <ele>106.59999847412</ele>
        <time>2013-10-05T10:17:07.000Z</time>
      </trkpt>
      <trkpt lat="48.71712" lon="1.96885">
        <ele>106.19999694824</ele>
        <time>2013-10-05T10:17:14.000Z</time>
      </trkpt>
      <trkpt lat="48.71702" lon="1.96878">
        <ele>105.80000305176</ele>
        <time>2013-10-05T10:17:21.000Z</time>
      </trkpt>
      <trkpt lat="48.71699" lon="1.96876">
        <ele>105.80000305176</ele>
        <time>2013-10-05T10:17:27.000Z</time>
      </trkpt>
      <trkpt lat="48.71699" lon="1.96876">
        <ele>105.80000305176</ele>
        <time>2013-10-05T10:17:29.000Z</time>
      </trkpt>
      <trkpt lat="48.71682" lon="1.96868">
        <ele>105.19999694824</ele>
        <time>2013-10-05T10:17:37.000Z</time>
      </trkpt>
      <trkpt lat="48.71681" lon="1.96867">
        <ele>105</ele>
        <time>2013-10-05T10:17:38.000Z</time>
      </trkpt>
      <trkpt lat="48.71673" lon="1.96863">
        <ele>104.80000305176</ele>
        <time>2013-10-05T10:17:43.000Z</time>
      </trkpt>
      <trkpt lat="48.71664" lon="1.9686">
        <ele>104.59999847412</ele>
        <time>2013-10-05T10:17:50.000Z</time>
      </trkpt>
      <trkpt lat="48.71659" lon="1.96858">
        <ele>105</ele>
        <time>2013-10-05T10:17:53.000Z</time>
      </trkpt>
      <trkpt lat="48.71653" lon="1.96857">
        <ele>105.19999694824</ele>
        <time>2013-10-05T10:17:57.000Z</time>
      </trkpt>
      <trkpt lat="48.7164" lon="1.96855">
        <ele>105.80000305176</ele>
        <time>2013-10-05T10:18:03.000Z</time>
      </trkpt>
      <trkpt lat="48.7163" lon="1.96853">
        <ele>106.19999694824</ele>
        <time>2013-10-05T10:18:10.000Z</time>
      </trkpt>
      <trkpt lat="48.71625" lon="1.96854">
        <ele>106.40000152588</ele>
        <time>2013-10-05T10:18:15.000Z</time>
      </trkpt>
      <trkpt lat="48.71619" lon="1.96855">
        <ele>106.59999847412</ele>
        <time>2013-10-05T10:18:20.000Z</time>
      </trkpt>
      <trkpt lat="48.71616" lon="1.96857">
        <ele>106.80000305176</ele>
        <time>2013-10-05T10:18:23.000Z</time>
      </trkpt>
      <trkpt lat="48.71591" lon="1.96872">
        <ele>107.19999694824</ele>
        <time>2013-10-05T10:18:29.000Z</time>
      </trkpt>
      <trkpt lat="48.71606" lon="1.96851">
        <ele>107.19999694824</ele>
        <time>2013-10-05T10:18:30.000Z</time>
      </trkpt>
      <trkpt lat="48.71615" lon="1.96857">
        <ele>106.80000305176</ele>
        <time>2013-10-05T10:18:40.000Z</time>
      </trkpt>
      <trkpt lat="48.7162" lon="1.96855">
        <ele>106.59999847412</ele>
        <time>2013-10-05T10:18:48.000Z</time>
      </trkpt>
      <trkpt lat="48.71621" lon="1.96855">
        <ele>106.59999847412</ele>
        <time>2013-10-05T10:18:49.000Z</time>
      </trkpt>
      <trkpt lat="48.71622" lon="1.96855">
        <ele>106.59999847412</ele>
        <time>2013-10-05T10:18:52.000Z</time>
      </trkpt>
      <trkpt lat="48.71628" lon="1.96853">
        <ele>106.40000152588</ele>
        <time>2013-10-05T10:19:00.000Z</time>
      </trkpt>
      <trkpt lat="48.7163" lon="1.96853">
        <ele>106.19999694824</ele>
        <time>2013-10-05T10:19:06.000Z</time>
      </trkpt>
      <trkpt lat="48.7163" lon="1.96853">
        <ele>106.19999694824</ele>
        <time>2013-10-05T10:19:07.000Z</time>
      </trkpt>
      <trkpt lat="48.71632" lon="1.96802">
        <ele>107.19999694824</ele>
        <time>2013-10-05T10:19:09.000Z</time>
      </trkpt>
      <trkpt lat="48.71638" lon="1.96853">
        <ele>105.80000305176</ele>
        <time>2013-10-05T10:19:18.000Z</time>
      </trkpt>
      <trkpt lat="48.71638" lon="1.96853">
        <ele>105.80000305176</ele>
        <time>2013-10-05T10:19:26.000Z</time>
      </trkpt>
      <trkpt lat="48.71653" lon="1.96769">
        <ele>107</ele>
        <time>2013-10-05T10:19:33.000Z</time>
      </trkpt>
      <trkpt lat="48.71654" lon="1.96754">
        <ele>107.19999694824</ele>
        <time>2013-10-05T10:19:39.000Z</time>
      </trkpt>
      <trkpt lat="48.71652" lon="1.96739">
        <ele>107.80000305176</ele>
        <time>2013-10-05T10:19:46.000Z</time>
      </trkpt>
      <trkpt lat="48.71647" lon="1.96729">
        <ele>108.19999694824</ele>
        <time>2013-10-05T10:19:53.000Z</time>
      </trkpt>
      <trkpt lat="48.71639" lon="1.96719">
        <ele>108.80000305176</ele>
        <time>2013-10-05T10:20:01.000Z</time>
      </trkpt>
      <trkpt lat="48.71632" lon="1.96712">
        <ele>109.19999694824</ele>
        <time>2013-10-05T10:20:08.000Z</time>
      </trkpt>
      <trkpt lat="48.71626" lon="1.96705">
        <ele>109.40000152588</ele>
        <time>2013-10-05T10:20:14.000Z</time>
      </trkpt>
      <trkpt lat="48.71624" lon="1.96704">
        <ele>109.59999847412</ele>
        <time>2013-10-05T10:20:16.000Z</time>
      </trkpt>
      <trkpt lat="48.71615" lon="1.96697">
        <ele>109.80000305176</ele>
        <time>2013-10-05T10:20:23.000Z</time>
      </trkpt>
      <trkpt lat="48.71606" lon="1.96685">
        <ele>110.19999694824</ele>
        <time>2013-10-05T10:20:31.000Z</time>
      </trkpt>
      <trkpt lat="48.71596" lon="1.96676">
        <ele>110.59999847412</ele>
        <time>2013-10-05T10:20:39.000Z</time>
      </trkpt>
      <trkpt lat="48.71587" lon="1.96671">
        <ele>110.80000305176</ele>
        <time>2013-10-05T10:20:44.000Z</time>
      </trkpt>
      <trkpt lat="48.7158" lon="1.96665">
        <ele>111</ele>
        <time>2013-10-05T10:20:49.000Z</time>
      </trkpt>
      <trkpt lat="48.71574" lon="1.9666">
        <ele>111</ele>
        <time>2013-10-05T10:20:54.000Z</time>
      </trkpt>
      <trkpt lat="48.71563" lon="1.96651">
        <ele>111</ele>
        <time>2013-10-05T10:21:01.000Z</time>
      </trkpt>
      <trkpt lat="48.71557" lon="1.96646">
        <ele>111.19999694824</ele>
        <time>2013-10-05T10:21:06.000Z</time>
      </trkpt>
      <trkpt lat="48.71555" lon="1.96643">
        <ele>111.19999694824</ele>
        <time>2013-10-05T10:21:08.000Z</time>
      </trkpt>
      <trkpt lat="48.71505" lon="1.96644">
        <ele>111.59999847412</ele>
        <time>2013-10-05T10:21:15.000Z</time>
      </trkpt>
      <trkpt lat="48.71503" lon="1.96614">
        <ele>111.19999694824</ele>
        <time>2013-10-05T10:21:20.000Z</time>
      </trkpt>
      <trkpt lat="48.71503" lon="1.96614">
        <ele>111.19999694824</ele>
        <time>2013-10-05T10:21:24.000Z</time>
      </trkpt>
      <trkpt lat="48.71505" lon="1.96655">
        <ele>111.80000305176</ele>
        <time>2013-10-05T10:21:27.000Z</time>
      </trkpt>
      <trkpt lat="48.71501" lon="1.96717">
        <ele>113</ele>
        <time>2013-10-05T10:21:33.000Z</time>
      </trkpt>
      <trkpt lat="48.71492" lon="1.96711">
        <ele>113.80000305176</ele>
        <time>2013-10-05T10:21:39.000Z</time>
      </trkpt>
      <trkpt lat="48.7149" lon="1.96709">
        <ele>114</ele>
        <time>2013-10-05T10:21:43.000Z</time>
      </trkpt>
      <trkpt lat="48.71505" lon="1.96647">
        <ele>111.59999847412</ele>
        <time>2013-10-05T10:21:49.000Z</time>
      </trkpt>
      <trkpt lat="48.71505" lon="1.96645">
        <ele>111.59999847412</ele>
        <time>2013-10-05T10:21:50.000Z</time>
      </trkpt>
      <trkpt lat="48.71505" lon="1.96643">
        <ele>111.59999847412</ele>
        <time>2013-10-05T10:21:52.000Z</time>
      </trkpt>
      <trkpt lat="48.71505" lon="1.96637">
        <ele>111.59999847412</ele>
        <time>2013-10-05T10:21:57.000Z</time>
      </trkpt>
      <trkpt lat="48.71504" lon="1.96627">
        <ele>111.40000152588</ele>
        <time>2013-10-05T10:22:02.000Z</time>
      </trkpt>
      <trkpt lat="48.71497" lon="1.96611">
        <ele>111.59999847412</ele>
        <time>2013-10-05T10:22:08.000Z</time>
      </trkpt>
      <trkpt lat="48.71491" lon="1.96606">
        <ele>112.19999694824</ele>
        <time>2013-10-05T10:22:14.000Z</time>
      </trkpt>
      <trkpt lat="48.71487" lon="1.96602">
        <ele>112.40000152588</ele>
        <time>2013-10-05T10:22:20.000Z</time>
      </trkpt>
      <trkpt lat="48.71487" lon="1.96602">
        <ele>112.40000152588</ele>
        <time>2013-10-05T10:22:24.000Z</time>
      </trkpt>
      <trkpt lat="48.71478" lon="1.9659">
        <ele>113.40000152588</ele>
        <time>2013-10-05T10:22:31.000Z</time>
      </trkpt>
      <trkpt lat="48.71471" lon="1.96582">
        <ele>114</ele>
        <time>2013-10-05T10:22:37.000Z</time>
      </trkpt>
      <trkpt lat="48.7147" lon="1.96581">
        <ele>114</ele>
        <time>2013-10-05T10:22:38.000Z</time>
      </trkpt>
      <trkpt lat="48.71468" lon="1.96578">
        <ele>114.40000152588</ele>
        <time>2013-10-05T10:22:40.000Z</time>
      </trkpt>
      <trkpt lat="48.71461" lon="1.96569">
        <ele>115</ele>
        <time>2013-10-05T10:22:46.000Z</time>
      </trkpt>
      <trkpt lat="48.71455" lon="1.96562">
        <ele>115.40000152588</ele>
        <time>2013-10-05T10:22:51.000Z</time>
      </trkpt>
      <trkpt lat="48.71449" lon="1.96554">
        <ele>115.80000305176</ele>
        <time>2013-10-05T10:22:56.000Z</time>
      </trkpt>
      <trkpt lat="48.71447" lon="1.96552">
        <ele>116</ele>
        <time>2013-10-05T10:22:58.000Z</time>
      </trkpt>
      <trkpt lat="48.71443" lon="1.96541">
        <ele>116</ele>
        <time>2013-10-05T10:23:05.000Z</time>
      </trkpt>
      <trkpt lat="48.71439" lon="1.96528">
        <ele>116</ele>
        <time>2013-10-05T10:23:12.000Z</time>
      </trkpt>
      <trkpt lat="48.71435" lon="1.96519">
        <ele>115.80000305176</ele>
        <time>2013-10-05T10:23:16.000Z</time>
      </trkpt>
      <trkpt lat="48.71432" lon="1.96507">
        <ele>115.59999847412</ele>
        <time>2013-10-05T10:23:22.000Z</time>
      </trkpt>
      <trkpt lat="48.71427" lon="1.96497">
        <ele>116</ele>
        <time>2013-10-05T10:23:28.000Z</time>
      </trkpt>
      <trkpt lat="48.71426" lon="1.96494">
        <ele>116.40000152588</ele>
        <time>2013-10-05T10:23:33.000Z</time>
      </trkpt>
      <trkpt lat="48.71426" lon="1.96494">
        <ele>116.40000152588</ele>
        <time>2013-10-05T10:23:35.000Z</time>
      </trkpt>
      <trkpt lat="48.71421" lon="1.96485">
        <ele>118.19999694824</ele>
        <time>2013-10-05T10:23:43.000Z</time>
      </trkpt>
      <trkpt lat="48.71416" lon="1.96476">
        <ele>119.80000305176</ele>
        <time>2013-10-05T10:23:47.000Z</time>
      </trkpt>
      <trkpt lat="48.71409" lon="1.96468">
        <ele>122</ele>
        <time>2013-10-05T10:23:53.000Z</time>
      </trkpt>
      <trkpt lat="48.71403" lon="1.96466">
        <ele>123</ele>
        <time>2013-10-05T10:23:57.000Z</time>
      </trkpt>
      <trkpt lat="48.71399" lon="1.96464">
        <ele>123.59999847412</ele>
        <time>2013-10-05T10:24:00.000Z</time>
      </trkpt>
      <trkpt lat="48.71389" lon="1.96463">
        <ele>124.80000305176</ele>
        <time>2013-10-05T10:24:06.000Z</time>
      </trkpt>
      <trkpt lat="48.71381" lon="1.96461">
        <ele>125.80000305176</ele>
        <time>2013-10-05T10:24:12.000Z</time>
      </trkpt>
      <trkpt lat="48.71373" lon="1.96459">
        <ele>126.80000305176</ele>
        <time>2013-10-05T10:24:17.000Z</time>
      </trkpt>
      <trkpt lat="48.71368" lon="1.96458">
        <ele>127.40000152588</ele>
        <time>2013-10-05T10:24:21.000Z</time>
      </trkpt>
      <trkpt lat="48.71362" lon="1.96453">
        <ele>128.19999694824</ele>
        <time>2013-10-05T10:24:26.000Z</time>
      </trkpt>
      <trkpt lat="48.71356" lon="1.96449">
        <ele>128.80000305176</ele>
        <time>2013-10-05T10:24:32.000Z</time>
      </trkpt>
      <trkpt lat="48.71351" lon="1.96441">
        <ele>129.60000610352</ele>
        <time>2013-10-05T10:24:39.000Z</time>
      </trkpt>
      <trkpt lat="48.71347" lon="1.96436">
        <ele>130</ele>
        <time>2013-10-05T10:24:43.000Z</time>
      </trkpt>
      <trkpt lat="48.71345" lon="1.96428">
        <ele>130.39999389648</ele>
        <time>2013-10-05T10:24:50.000Z</time>
      </trkpt>
      <trkpt lat="48.71343" lon="1.96417">
        <ele>130.80000305176</ele>
        <time>2013-10-05T10:24:56.000Z</time>
      </trkpt>
      <trkpt lat="48.71343" lon="1.96415">
        <ele>131</ele>
        <time>2013-10-05T10:25:01.000Z</time>
      </trkpt>
      <trkpt lat="48.71343" lon="1.96415">
        <ele>131</ele>
        <time>2013-10-05T10:25:03.000Z</time>
      </trkpt>
      <trkpt lat="48.71328" lon="1.96386">
        <ele>135.39999389648</ele>
        <time>2013-10-05T10:25:07.000Z</time>
      </trkpt>
      <trkpt lat="48.71325" lon="1.96383">
        <ele>136.60000610352</ele>
        <time>2013-10-05T10:25:14.000Z</time>
      </trkpt>
      <trkpt lat="48.71325" lon="1.96383">
        <ele>136.60000610352</ele>
        <time>2013-10-05T10:25:19.000Z</time>
      </trkpt>
      <trkpt lat="48.71314" lon="1.96374">
        <ele>139.19999694824</ele>
        <time>2013-10-05T10:25:24.000Z</time>
      </trkpt>
      <trkpt lat="48.71314" lon="1.96374">
        <ele>139.19999694824</ele>
        <time>2013-10-05T10:25:29.000Z</time>
      </trkpt>
      <trkpt lat="48.7131" lon="1.9637">
        <ele>140.39999389648</ele>
        <time>2013-10-05T10:25:35.000Z</time>
      </trkpt>
      <trkpt lat="48.7131" lon="1.9637">
        <ele>140.39999389648</ele>
        <time>2013-10-05T10:25:36.000Z</time>
      </trkpt>
      <trkpt lat="48.71308" lon="1.96368">
        <ele>141</ele>
        <time>2013-10-05T10:25:41.000Z</time>
      </trkpt>
      <trkpt lat="48.71297" lon="1.96343">
        <ele>144.60000610352</ele>
        <time>2013-10-05T10:25:47.000Z</time>
      </trkpt>
      <trkpt lat="48.71297" lon="1.96343">
        <ele>144.60000610352</ele>
        <time>2013-10-05T10:25:51.000Z</time>
      </trkpt>
      <trkpt lat="48.71295" lon="1.96327">
        <ele>145.60000610352</ele>
        <time>2013-10-05T10:25:54.000Z</time>
      </trkpt>
      <trkpt lat="48.71292" lon="1.96318">
        <ele>146.19999694824</ele>
        <time>2013-10-05T10:26:00.000Z</time>
      </trkpt>
      <trkpt lat="48.7129" lon="1.96306">
        <ele>146.60000610352</ele>
        <time>2013-10-05T10:26:07.000Z</time>
      </trkpt>
      <trkpt lat="48.7129" lon="1.96306">
        <ele>146.60000610352</ele>
        <time>2013-10-05T10:26:10.000Z</time>
      </trkpt>
      <trkpt lat="48.71287" lon="1.96292">
        <ele>147.19999694824</ele>
        <time>2013-10-05T10:26:18.000Z</time>
      </trkpt>
      <trkpt lat="48.71278" lon="1.96266">
        <ele>147.80000305176</ele>
        <time>2013-10-05T10:26:24.000Z</time>
      </trkpt>
      <trkpt lat="48.71278" lon="1.96264">
        <ele>147.80000305176</ele>
        <time>2013-10-05T10:26:29.000Z</time>
      </trkpt>
      <trkpt lat="48.71278" lon="1.96264">
        <ele>147.80000305176</ele>
        <time>2013-10-05T10:26:31.000Z</time>
      </trkpt>
      <trkpt lat="48.71272" lon="1.9625">
        <ele>148</ele>
        <time>2013-10-05T10:26:37.000Z</time>
      </trkpt>
      <trkpt lat="48.71265" lon="1.96236">
        <ele>148.19999694824</ele>
        <time>2013-10-05T10:26:42.000Z</time>
      </trkpt>
      <trkpt lat="48.71262" lon="1.96233">
        <ele>148.19999694824</ele>
        <time>2013-10-05T10:26:44.000Z</time>
      </trkpt>
      <trkpt lat="48.71257" lon="1.96224">
        <ele>148.39999389648</ele>
        <time>2013-10-05T10:26:50.000Z</time>
      </trkpt>
      <trkpt lat="48.71246" lon="1.96209">
        <ele>148.60000610352</ele>
        <time>2013-10-05T10:26:56.000Z</time>
      </trkpt>
      <trkpt lat="48.71243" lon="1.96206">
        <ele>148.80000305176</ele>
        <time>2013-10-05T10:27:02.000Z</time>
      </trkpt>
      <trkpt lat="48.71237" lon="1.96199">
        <ele>149.19999694824</ele>
        <time>2013-10-05T10:27:06.000Z</time>
      </trkpt>
      <trkpt lat="48.71237" lon="1.96199">
        <ele>149.19999694824</ele>
        <time>2013-10-05T10:27:10.000Z</time>
      </trkpt>
      <trkpt lat="48.7123" lon="1.96191">
        <ele>149.60000610352</ele>
        <time>2013-10-05T10:27:16.000Z</time>
      </trkpt>
      <trkpt lat="48.7123" lon="1.96191">
        <ele>149.60000610352</ele>
        <time>2013-10-05T10:27:22.000Z</time>
      </trkpt>
      <trkpt lat="48.7123" lon="1.96191">
        <ele>149.60000610352</ele>
        <time>2013-10-05T10:27:27.000Z</time>
      </trkpt>
      <trkpt lat="48.7123" lon="1.96191">
        <ele>149.60000610352</ele>
        <time>2013-10-05T10:27:34.000Z</time>
      </trkpt>
      <trkpt lat="48.71219" lon="1.96174">
        <ele>149.80000305176</ele>
        <time>2013-10-05T10:27:39.000Z</time>
      </trkpt>
      <trkpt lat="48.71216" lon="1.96168">
        <ele>149.80000305176</ele>
        <time>2013-10-05T10:27:45.000Z</time>
      </trkpt>
      <trkpt lat="48.71215" lon="1.96164">
        <ele>149.80000305176</ele>
        <time>2013-10-05T10:27:48.000Z</time>
      </trkpt>
      <trkpt lat="48.71213" lon="1.96157">
        <ele>150</ele>
        <time>2013-10-05T10:27:53.000Z</time>
      </trkpt>
      <trkpt lat="48.71211" lon="1.96145">
        <ele>150.39999389648</ele>
        <time>2013-10-05T10:27:59.000Z</time>
      </trkpt>
      <trkpt lat="48.71208" lon="1.96129">
        <ele>150.80000305176</ele>
        <time>2013-10-05T10:28:07.000Z</time>
      </trkpt>
      <trkpt lat="48.71201" lon="1.96112">
        <ele>151.19999694824</ele>
        <time>2013-10-05T10:28:14.000Z</time>
      </trkpt>
      <trkpt lat="48.71199" lon="1.96103">
        <ele>151.39999389648</ele>
        <time>2013-10-05T10:28:21.000Z</time>
      </trkpt>
      <trkpt lat="48.71195" lon="1.96098">
        <ele>151.60000610352</ele>
        <time>2013-10-05T10:28:23.000Z</time>
      </trkpt>
      <trkpt lat="48.71193" lon="1.96087">
        <ele>151.80000305176</ele>
        <time>2013-10-05T10:28:29.000Z</time>
      </trkpt>
      <trkpt lat="48.71193" lon="1.96087">
        <ele>151.80000305176</ele>
        <time>2013-10-05T10:28:30.000Z</time>
      </trkpt>
      <trkpt lat="48.71189" lon="1.96082">
        <ele>152</ele>
        <time>2013-10-05T10:28:37.000Z</time>
      </trkpt>
      <trkpt lat="48.71186" lon="1.9606">
        <ele>152</ele>
        <time>2013-10-05T10:28:44.000Z</time>
      </trkpt>
      <trkpt lat="48.71186" lon="1.96048">
        <ele>152</ele>
        <time>2013-10-05T10:28:51.000Z</time>
      </trkpt>
      <trkpt lat="48.71183" lon="1.96042">
        <ele>152</ele>
        <time>2013-10-05T10:28:57.000Z</time>
      </trkpt>
      <trkpt lat="48.71184" lon="1.96036">
        <ele>152.19999694824</ele>
        <time>2013-10-05T10:29:03.000Z</time>
      </trkpt>
      <trkpt lat="48.71184" lon="1.96036">
        <ele>152.19999694824</ele>
        <time>2013-10-05T10:29:13.000Z</time>
      </trkpt>
      <trkpt lat="48.71181" lon="1.96032">
        <ele>152.19999694824</ele>
        <time>2013-10-05T10:29:17.000Z</time>
      </trkpt>
      <trkpt lat="48.71181" lon="1.96018">
        <ele>152.19999694824</ele>
        <time>2013-10-05T10:29:24.000Z</time>
      </trkpt>
      <trkpt lat="48.71181" lon="1.96005">
        <ele>152.19999694824</ele>
        <time>2013-10-05T10:29:31.000Z</time>
      </trkpt>
      <trkpt lat="48.7118" lon="1.95991">
        <ele>152.60000610352</ele>
        <time>2013-10-05T10:29:39.000Z</time>
      </trkpt>
      <trkpt lat="48.7118" lon="1.95991">
        <ele>152.60000610352</ele>
        <time>2013-10-05T10:29:40.000Z</time>
      </trkpt>
      <trkpt lat="48.7118" lon="1.95987">
        <ele>152.80000305176</ele>
        <time>2013-10-05T10:29:42.000Z</time>
      </trkpt>
      <trkpt lat="48.71176" lon="1.95968">
        <ele>153.39999389648</ele>
        <time>2013-10-05T10:29:51.000Z</time>
      </trkpt>
      <trkpt lat="48.71173" lon="1.95951">
        <ele>153.80000305176</ele>
        <time>2013-10-05T10:30:00.000Z</time>
      </trkpt>
      <trkpt lat="48.71173" lon="1.9594">
        <ele>154.19999694824</ele>
        <time>2013-10-05T10:30:06.000Z</time>
      </trkpt>
      <trkpt lat="48.71175" lon="1.95929">
        <ele>154.80000305176</ele>
        <time>2013-10-05T10:30:11.000Z</time>
      </trkpt>
      <trkpt lat="48.71175" lon="1.95912">
        <ele>155.39999389648</ele>
        <time>2013-10-05T10:30:20.000Z</time>
      </trkpt>
      <trkpt lat="48.71175" lon="1.959">
        <ele>155.80000305176</ele>
        <time>2013-10-05T10:30:26.000Z</time>
      </trkpt>
      <trkpt lat="48.71176" lon="1.95885">
        <ele>156.39999389648</ele>
        <time>2013-10-05T10:30:34.000Z</time>
      </trkpt>
      <trkpt lat="48.71179" lon="1.95877">
        <ele>156.60000610352</ele>
        <time>2013-10-05T10:30:40.000Z</time>
      </trkpt>
      <trkpt lat="48.71179" lon="1.95865">
        <ele>157.19999694824</ele>
        <time>2013-10-05T10:30:47.000Z</time>
      </trkpt>
      <trkpt lat="48.71184" lon="1.95854">
        <ele>157.60000610352</ele>
        <time>2013-10-05T10:30:54.000Z</time>
      </trkpt>
      <trkpt lat="48.71184" lon="1.95844">
        <ele>158</ele>
        <time>2013-10-05T10:31:00.000Z</time>
      </trkpt>
      <trkpt lat="48.71188" lon="1.95833">
        <ele>158.39999389648</ele>
        <time>2013-10-05T10:31:07.000Z</time>
      </trkpt>
      <trkpt lat="48.71191" lon="1.95821">
        <ele>158.60000610352</ele>
        <time>2013-10-05T10:31:14.000Z</time>
      </trkpt>
      <trkpt lat="48.71196" lon="1.95806">
        <ele>159</ele>
        <time>2013-10-05T10:31:23.000Z</time>
      </trkpt>
      <trkpt lat="48.71201" lon="1.95789">
        <ele>159.19999694824</ele>
        <time>2013-10-05T10:31:32.000Z</time>
      </trkpt>
      <trkpt lat="48.71206" lon="1.95777">
        <ele>159.60000610352</ele>
        <time>2013-10-05T10:31:39.000Z</time>
      </trkpt>
      <trkpt lat="48.71211" lon="1.95762">
        <ele>159.80000305176</ele>
        <time>2013-10-05T10:31:47.000Z</time>
      </trkpt>
      <trkpt lat="48.71216" lon="1.95747">
        <ele>160.19999694824</ele>
        <time>2013-10-05T10:31:55.000Z</time>
      </trkpt>
      <trkpt lat="48.71223" lon="1.95733">
        <ele>160.60000610352</ele>
        <time>2013-10-05T10:32:03.000Z</time>
      </trkpt>
      <trkpt lat="48.71228" lon="1.95723">
        <ele>161</ele>
        <time>2013-10-05T10:32:10.000Z</time>
      </trkpt>
      <trkpt lat="48.71234" lon="1.9571">
        <ele>161.39999389648</ele>
        <time>2013-10-05T10:32:18.000Z</time>
      </trkpt>
      <trkpt lat="48.71238" lon="1.95697">
        <ele>161.80000305176</ele>
        <time>2013-10-05T10:32:25.000Z</time>
      </trkpt>
      <trkpt lat="48.71243" lon="1.95683">
        <ele>162.39999389648</ele>
        <time>2013-10-05T10:32:33.000Z</time>
      </trkpt>
      <trkpt lat="48.7125" lon="1.95666">
        <ele>162.80000305176</ele>
        <time>2013-10-05T10:32:43.000Z</time>
      </trkpt>
      <trkpt lat="48.71255" lon="1.9565">
        <ele>163</ele>
        <time>2013-10-05T10:32:51.000Z</time>
      </trkpt>
      <trkpt lat="48.71261" lon="1.9563">
        <ele>163</ele>
        <time>2013-10-05T10:33:01.000Z</time>
      </trkpt>
      <trkpt lat="48.71265" lon="1.95614">
        <ele>163</ele>
        <time>2013-10-05T10:33:09.000Z</time>
      </trkpt>
      <trkpt lat="48.7127" lon="1.95598">
        <ele>163</ele>
        <time>2013-10-05T10:33:17.000Z</time>
      </trkpt>
      <trkpt lat="48.71275" lon="1.95581">
        <ele>163</ele>
        <time>2013-10-05T10:33:25.000Z</time>
      </trkpt>
      <trkpt lat="48.7128" lon="1.95563">
        <ele>163.19999694824</ele>
        <time>2013-10-05T10:33:34.000Z</time>
      </trkpt>
      <trkpt lat="48.71285" lon="1.95545">
        <ele>163.39999389648</ele>
        <time>2013-10-05T10:33:42.000Z</time>
      </trkpt>
      <trkpt lat="48.71289" lon="1.95531">
        <ele>163.60000610352</ele>
        <time>2013-10-05T10:33:49.000Z</time>
      </trkpt>
      <trkpt lat="48.71292" lon="1.95518">
        <ele>163.60000610352</ele>
        <time>2013-10-05T10:33:55.000Z</time>
      </trkpt>
      <trkpt lat="48.71296" lon="1.95504">
        <ele>163.80000305176</ele>
        <time>2013-10-05T10:34:02.000Z</time>
      </trkpt>
      <trkpt lat="48.71301" lon="1.95484">
        <ele>164</ele>
        <time>2013-10-05T10:34:11.000Z</time>
      </trkpt>
      <trkpt lat="48.71304" lon="1.95469">
        <ele>164.19999694824</ele>
        <time>2013-10-05T10:34:18.000Z</time>
      </trkpt>
      <trkpt lat="48.71307" lon="1.95452">
        <ele>164.19999694824</ele>
        <time>2013-10-05T10:34:26.000Z</time>
      </trkpt>
      <trkpt lat="48.7131" lon="1.95435">
        <ele>164.39999389648</ele>
        <time>2013-10-05T10:34:33.000Z</time>
      </trkpt>
      <trkpt lat="48.71312" lon="1.95419">
        <ele>164.60000610352</ele>
        <time>2013-10-05T10:34:40.000Z</time>
      </trkpt>
      <trkpt lat="48.71313" lon="1.95409">
        <ele>164.60000610352</ele>
        <time>2013-10-05T10:34:45.000Z</time>
      </trkpt>
      <trkpt lat="48.71313" lon="1.95393">
        <ele>164.60000610352</ele>
        <time>2013-10-05T10:34:52.000Z</time>
      </trkpt>
      <trkpt lat="48.71315" lon="1.95374">
        <ele>164.39999389648</ele>
        <time>2013-10-05T10:35:00.000Z</time>
      </trkpt>
      <trkpt lat="48.71316" lon="1.95356">
        <ele>164.19999694824</ele>
        <time>2013-10-05T10:35:08.000Z</time>
      </trkpt>
      <trkpt lat="48.71316" lon="1.9534">
        <ele>164.19999694824</ele>
        <time>2013-10-05T10:35:15.000Z</time>
      </trkpt>
      <trkpt lat="48.71316" lon="1.95321">
        <ele>164</ele>
        <time>2013-10-05T10:35:23.000Z</time>
      </trkpt>
      <trkpt lat="48.71316" lon="1.95302">
        <ele>163.80000305176</ele>
        <time>2013-10-05T10:35:31.000Z</time>
      </trkpt>
      <trkpt lat="48.71315" lon="1.95289">
        <ele>163.80000305176</ele>
        <time>2013-10-05T10:35:37.000Z</time>
      </trkpt>
      <trkpt lat="48.71312" lon="1.95278">
        <ele>163.60000610352</ele>
        <time>2013-10-05T10:35:43.000Z</time>
      </trkpt>
      <trkpt lat="48.71301" lon="1.95268">
        <ele>163.80000305176</ele>
        <time>2013-10-05T10:35:51.000Z</time>
      </trkpt>
      <trkpt lat="48.71298" lon="1.95267">
        <ele>163.80000305176</ele>
        <time>2013-10-05T10:35:53.000Z</time>
      </trkpt>
      <trkpt lat="48.7129" lon="1.95265">
        <ele>164</ele>
        <time>2013-10-05T10:35:59.000Z</time>
      </trkpt>
      <trkpt lat="48.71271" lon="1.95262">
        <ele>164.39999389648</ele>
        <time>2013-10-05T10:36:12.000Z</time>
      </trkpt>
      <trkpt lat="48.71266" lon="1.95261">
        <ele>164.60000610352</ele>
        <time>2013-10-05T10:36:16.000Z</time>
      </trkpt>
      <trkpt lat="48.71256" lon="1.9526">
        <ele>164.80000305176</ele>
        <time>2013-10-05T10:36:23.000Z</time>
      </trkpt>
      <trkpt lat="48.71249" lon="1.95259">
        <ele>165</ele>
        <time>2013-10-05T10:36:28.000Z</time>
      </trkpt>
      <trkpt lat="48.71244" lon="1.95259">
        <ele>165</ele>
        <time>2013-10-05T10:36:32.000Z</time>
      </trkpt>
      <trkpt lat="48.71235" lon="1.9526">
        <ele>165.39999389648</ele>
        <time>2013-10-05T10:36:40.000Z</time>
      </trkpt>
      <trkpt lat="48.71233" lon="1.9526">
        <ele>165.39999389648</ele>
        <time>2013-10-05T10:36:42.000Z</time>
      </trkpt>
      <trkpt lat="48.71227" lon="1.9526">
        <ele>165.60000610352</ele>
        <time>2013-10-05T10:36:49.000Z</time>
      </trkpt>
      <trkpt lat="48.71219" lon="1.95258">
        <ele>166</ele>
        <time>2013-10-05T10:36:55.000Z</time>
      </trkpt>
      <trkpt lat="48.71204" lon="1.95252">
        <ele>166.60000610352</ele>
        <time>2013-10-05T10:37:06.000Z</time>
      </trkpt>
      <trkpt lat="48.71197" lon="1.9525">
        <ele>166.80000305176</ele>
        <time>2013-10-05T10:37:11.000Z</time>
      </trkpt>
      <trkpt lat="48.71185" lon="1.95244">
        <ele>167.19999694824</ele>
        <time>2013-10-05T10:37:19.000Z</time>
      </trkpt>
      <trkpt lat="48.71177" lon="1.95239">
        <ele>167.60000610352</ele>
        <time>2013-10-05T10:37:25.000Z</time>
      </trkpt>
      <trkpt lat="48.71167" lon="1.95226">
        <ele>167.80000305176</ele>
        <time>2013-10-05T10:37:30.000Z</time>
      </trkpt>
      <trkpt lat="48.7117" lon="1.9523">
        <ele>167.80000305176</ele>
        <time>2013-10-05T10:37:35.000Z</time>
      </trkpt>
      <trkpt lat="48.71168" lon="1.95217">
        <ele>167.80000305176</ele>
        <time>2013-10-05T10:37:41.000Z</time>
      </trkpt>
      <trkpt lat="48.71167" lon="1.95204">
        <ele>167.80000305176</ele>
        <time>2013-10-05T10:37:47.000Z</time>
      </trkpt>
      <trkpt lat="48.71166" lon="1.95193">
        <ele>168</ele>
        <time>2013-10-05T10:37:52.000Z</time>
      </trkpt>
      <trkpt lat="48.71165" lon="1.95183">
        <ele>168</ele>
        <time>2013-10-05T10:37:57.000Z</time>
      </trkpt>
      <trkpt lat="48.71164" lon="1.95169">
        <ele>168</ele>
        <time>2013-10-05T10:38:03.000Z</time>
      </trkpt>
      <trkpt lat="48.71164" lon="1.95167">
        <ele>168</ele>
        <time>2013-10-05T10:38:04.000Z</time>
      </trkpt>
      <trkpt lat="48.71164" lon="1.95161">
        <ele>168</ele>
        <time>2013-10-05T10:38:07.000Z</time>
      </trkpt>
      <trkpt lat="48.71164" lon="1.9515">
        <ele>168</ele>
        <time>2013-10-05T10:38:13.000Z</time>
      </trkpt>
      <trkpt lat="48.71164" lon="1.95148">
        <ele>168</ele>
        <time>2013-10-05T10:38:15.000Z</time>
      </trkpt>
      <trkpt lat="48.71164" lon="1.95145">
        <ele>168</ele>
        <time>2013-10-05T10:38:21.000Z</time>
      </trkpt>
      <trkpt lat="48.71164" lon="1.95145">
        <ele>168</ele>
        <time>2013-10-05T10:38:26.000Z</time>
      </trkpt>
      <trkpt lat="48.71163" lon="1.95134">
        <ele>168</ele>
        <time>2013-10-05T10:38:35.000Z</time>
      </trkpt>
      <trkpt lat="48.71162" lon="1.95122">
        <ele>168</ele>
        <time>2013-10-05T10:38:42.000Z</time>
      </trkpt>
      <trkpt lat="48.71161" lon="1.9511">
        <ele>168</ele>
        <time>2013-10-05T10:38:48.000Z</time>
      </trkpt>
      <trkpt lat="48.71158" lon="1.95095">
        <ele>168.19999694824</ele>
        <time>2013-10-05T10:38:54.000Z</time>
      </trkpt>
      <trkpt lat="48.7116" lon="1.95092">
        <ele>168</ele>
        <time>2013-10-05T10:38:58.000Z</time>
      </trkpt>
      <trkpt lat="48.71158" lon="1.95084">
        <ele>168.19999694824</ele>
        <time>2013-10-05T10:39:02.000Z</time>
      </trkpt>
      <trkpt lat="48.71159" lon="1.95067">
        <ele>168.19999694824</ele>
        <time>2013-10-05T10:39:11.000Z</time>
      </trkpt>
      <trkpt lat="48.71158" lon="1.95061">
        <ele>168.19999694824</ele>
        <time>2013-10-05T10:39:14.000Z</time>
      </trkpt>
      <trkpt lat="48.71158" lon="1.95057">
        <ele>168.19999694824</ele>
        <time>2013-10-05T10:39:16.000Z</time>
      </trkpt>
      <trkpt lat="48.71158" lon="1.95047">
        <ele>168.19999694824</ele>
        <time>2013-10-05T10:39:22.000Z</time>
      </trkpt>
      <trkpt lat="48.71157" lon="1.9503">
        <ele>168.19999694824</ele>
        <time>2013-10-05T10:39:30.000Z</time>
      </trkpt>
      <trkpt lat="48.71156" lon="1.95016">
        <ele>168.19999694824</ele>
        <time>2013-10-05T10:39:36.000Z</time>
      </trkpt>
      <trkpt lat="48.71156" lon="1.95013">
        <ele>168.19999694824</ele>
        <time>2013-10-05T10:39:38.000Z</time>
      </trkpt>
      <trkpt lat="48.71156" lon="1.95">
        <ele>168.19999694824</ele>
        <time>2013-10-05T10:39:44.000Z</time>
      </trkpt>
      <trkpt lat="48.71154" lon="1.94992">
        <ele>168.19999694824</ele>
        <time>2013-10-05T10:39:48.000Z</time>
      </trkpt>
      <trkpt lat="48.71155" lon="1.94986">
        <ele>168.19999694824</ele>
        <time>2013-10-05T10:39:51.000Z</time>
      </trkpt>
      <trkpt lat="48.71155" lon="1.94983">
        <ele>168.19999694824</ele>
        <time>2013-10-05T10:39:53.000Z</time>
      </trkpt>
      <trkpt lat="48.71154" lon="1.94978">
        <ele>168</ele>
        <time>2013-10-05T10:39:55.000Z</time>
      </trkpt>
      <trkpt lat="48.71154" lon="1.94966">
        <ele>168</ele>
        <time>2013-10-05T10:40:01.000Z</time>
      </trkpt>
      <trkpt lat="48.71151" lon="1.94959">
        <ele>168</ele>
        <time>2013-10-05T10:40:05.000Z</time>
      </trkpt>
      <trkpt lat="48.71151" lon="1.94955">
        <ele>168</ele>
        <time>2013-10-05T10:40:07.000Z</time>
      </trkpt>
      <trkpt lat="48.71151" lon="1.94937">
        <ele>167.60000610352</ele>
        <time>2013-10-05T10:40:16.000Z</time>
      </trkpt>
      <trkpt lat="48.71151" lon="1.94923">
        <ele>167.60000610352</ele>
        <time>2013-10-05T10:40:23.000Z</time>
      </trkpt>
      <trkpt lat="48.71152" lon="1.94911">
        <ele>167.39999389648</ele>
        <time>2013-10-05T10:40:29.000Z</time>
      </trkpt>
      <trkpt lat="48.71152" lon="1.94902">
        <ele>167.60000610352</ele>
        <time>2013-10-05T10:40:33.000Z</time>
      </trkpt>
      <trkpt lat="48.71154" lon="1.94886">
        <ele>167.60000610352</ele>
        <time>2013-10-05T10:40:41.000Z</time>
      </trkpt>
      <trkpt lat="48.71155" lon="1.94869">
        <ele>167.80000305176</ele>
        <time>2013-10-05T10:40:48.000Z</time>
      </trkpt>
      <trkpt lat="48.71156" lon="1.9485">
        <ele>168</ele>
        <time>2013-10-05T10:40:56.000Z</time>
      </trkpt>
      <trkpt lat="48.71157" lon="1.94831">
        <ele>168.19999694824</ele>
        <time>2013-10-05T10:41:05.000Z</time>
      </trkpt>
      <trkpt lat="48.71158" lon="1.94814">
        <ele>168.39999389648</ele>
        <time>2013-10-05T10:41:13.000Z</time>
      </trkpt>
      <trkpt lat="48.71159" lon="1.94802">
        <ele>168.39999389648</ele>
        <time>2013-10-05T10:41:18.000Z</time>
      </trkpt>
      <trkpt lat="48.7116" lon="1.94791">
        <ele>168.60000610352</ele>
        <time>2013-10-05T10:41:24.000Z</time>
      </trkpt>
      <trkpt lat="48.7116" lon="1.94776">
        <ele>168.80000305176</ele>
        <time>2013-10-05T10:41:30.000Z</time>
      </trkpt>
      <trkpt lat="48.71159" lon="1.94757">
        <ele>169</ele>
        <time>2013-10-05T10:41:37.000Z</time>
      </trkpt>
      <trkpt lat="48.71158" lon="1.94751">
        <ele>169.19999694824</ele>
        <time>2013-10-05T10:41:40.000Z</time>
      </trkpt>
      <trkpt lat="48.71155" lon="1.94732">
        <ele>169.19999694824</ele>
        <time>2013-10-05T10:41:47.000Z</time>
      </trkpt>
      <trkpt lat="48.71151" lon="1.9472">
        <ele>169.19999694824</ele>
        <time>2013-10-05T10:41:53.000Z</time>
      </trkpt>
      <trkpt lat="48.71148" lon="1.9471">
        <ele>169.39999389648</ele>
        <time>2013-10-05T10:41:58.000Z</time>
      </trkpt>
      <trkpt lat="48.71144" lon="1.94696">
        <ele>169.39999389648</ele>
        <time>2013-10-05T10:42:05.000Z</time>
      </trkpt>
      <trkpt lat="48.7114" lon="1.94682">
        <ele>169.60000610352</ele>
        <time>2013-10-05T10:42:11.000Z</time>
      </trkpt>
      <trkpt lat="48.71135" lon="1.94666">
        <ele>169.60000610352</ele>
        <time>2013-10-05T10:42:19.000Z</time>
      </trkpt>
      <trkpt lat="48.71131" lon="1.94655">
        <ele>169.60000610352</ele>
        <time>2013-10-05T10:42:25.000Z</time>
      </trkpt>
      <trkpt lat="48.71126" lon="1.94641">
        <ele>169.60000610352</ele>
        <time>2013-10-05T10:42:31.000Z</time>
      </trkpt>
      <trkpt lat="48.71121" lon="1.9463">
        <ele>169.60000610352</ele>
        <time>2013-10-05T10:42:37.000Z</time>
      </trkpt>
      <trkpt lat="48.71117" lon="1.94618">
        <ele>169.60000610352</ele>
        <time>2013-10-05T10:42:42.000Z</time>
      </trkpt>
      <trkpt lat="48.71112" lon="1.94608">
        <ele>169.60000610352</ele>
        <time>2013-10-05T10:42:47.000Z</time>
      </trkpt>
      <trkpt lat="48.71108" lon="1.94601">
        <ele>169.60000610352</ele>
        <time>2013-10-05T10:42:51.000Z</time>
      </trkpt>
      <trkpt lat="48.71101" lon="1.94588">
        <ele>169.60000610352</ele>
        <time>2013-10-05T10:42:57.000Z</time>
      </trkpt>
      <trkpt lat="48.71096" lon="1.94577">
        <ele>169.60000610352</ele>
        <time>2013-10-05T10:43:02.000Z</time>
      </trkpt>
      <trkpt lat="48.71088" lon="1.9456">
        <ele>169.80000305176</ele>
        <time>2013-10-05T10:43:11.000Z</time>
      </trkpt>
      <trkpt lat="48.71082" lon="1.94548">
        <ele>170</ele>
        <time>2013-10-05T10:43:16.000Z</time>
      </trkpt>
      <trkpt lat="48.71075" lon="1.94535">
        <ele>170</ele>
        <time>2013-10-05T10:43:23.000Z</time>
      </trkpt>
      <trkpt lat="48.71069" lon="1.94523">
        <ele>170</ele>
        <time>2013-10-05T10:43:30.000Z</time>
      </trkpt>
      <trkpt lat="48.71062" lon="1.94507">
        <ele>170.19999694824</ele>
        <time>2013-10-05T10:43:38.000Z</time>
      </trkpt>
      <trkpt lat="48.71054" lon="1.94493">
        <ele>170.19999694824</ele>
        <time>2013-10-05T10:43:46.000Z</time>
      </trkpt>
      <trkpt lat="48.71049" lon="1.94481">
        <ele>170.19999694824</ele>
        <time>2013-10-05T10:43:52.000Z</time>
      </trkpt>
      <trkpt lat="48.71043" lon="1.9447">
        <ele>170.19999694824</ele>
        <time>2013-10-05T10:43:58.000Z</time>
      </trkpt>
      <trkpt lat="48.71037" lon="1.94457">
        <ele>170.19999694824</ele>
        <time>2013-10-05T10:44:04.000Z</time>
      </trkpt>
      <trkpt lat="48.71032" lon="1.94445">
        <ele>170.19999694824</ele>
        <time>2013-10-05T10:44:10.000Z</time>
      </trkpt>
      <trkpt lat="48.71025" lon="1.94431">
        <ele>170</ele>
        <time>2013-10-05T10:44:17.000Z</time>
      </trkpt>
      <trkpt lat="48.71019" lon="1.9442">
        <ele>170</ele>
        <time>2013-10-05T10:44:23.000Z</time>
      </trkpt>
      <trkpt lat="48.71013" lon="1.94408">
        <ele>169.80000305176</ele>
        <time>2013-10-05T10:44:29.000Z</time>
      </trkpt>
      <trkpt lat="48.71007" lon="1.94393">
        <ele>169.60000610352</ele>
        <time>2013-10-05T10:44:37.000Z</time>
      </trkpt>
      <trkpt lat="48.71003" lon="1.94383">
        <ele>169.60000610352</ele>
        <time>2013-10-05T10:44:42.000Z</time>
      </trkpt>
      <trkpt lat="48.70999" lon="1.94371">
        <ele>169.39999389648</ele>
        <time>2013-10-05T10:44:48.000Z</time>
      </trkpt>
      <trkpt lat="48.70993" lon="1.94354">
        <ele>169.19999694824</ele>
        <time>2013-10-05T10:44:56.000Z</time>
      </trkpt>
      <trkpt lat="48.70989" lon="1.9434">
        <ele>169</ele>
        <time>2013-10-05T10:45:02.000Z</time>
      </trkpt>
      <trkpt lat="48.70985" lon="1.94328">
        <ele>169</ele>
        <time>2013-10-05T10:45:08.000Z</time>
      </trkpt>
      <trkpt lat="48.70979" lon="1.94314">
        <ele>169.39999389648</ele>
        <time>2013-10-05T10:45:15.000Z</time>
      </trkpt>
      <trkpt lat="48.70974" lon="1.94299">
        <ele>169.60000610352</ele>
        <time>2013-10-05T10:45:22.000Z</time>
      </trkpt>
      <trkpt lat="48.7097" lon="1.94285">
        <ele>169.80000305176</ele>
        <time>2013-10-05T10:45:29.000Z</time>
      </trkpt>
      <trkpt lat="48.70966" lon="1.94277">
        <ele>170</ele>
        <time>2013-10-05T10:45:33.000Z</time>
      </trkpt>
      <trkpt lat="48.70961" lon="1.94263">
        <ele>170.19999694824</ele>
        <time>2013-10-05T10:45:40.000Z</time>
      </trkpt>
      <trkpt lat="48.70957" lon="1.94254">
        <ele>170.39999389648</ele>
        <time>2013-10-05T10:45:45.000Z</time>
      </trkpt>
      <trkpt lat="48.70953" lon="1.94243">
        <ele>170.80000305176</ele>
        <time>2013-10-05T10:45:50.000Z</time>
      </trkpt>
      <trkpt lat="48.70949" lon="1.94233">
        <ele>171.19999694824</ele>
        <time>2013-10-05T10:45:55.000Z</time>
      </trkpt>
      <trkpt lat="48.70944" lon="1.9422">
        <ele>171.80000305176</ele>
        <time>2013-10-05T10:46:01.000Z</time>
      </trkpt>
      <trkpt lat="48.70938" lon="1.94206">
        <ele>172.19999694824</ele>
        <time>2013-10-05T10:46:08.000Z</time>
      </trkpt>
      <trkpt lat="48.70933" lon="1.94194">
        <ele>172.39999389648</ele>
        <time>2013-10-05T10:46:15.000Z</time>
      </trkpt>
      <trkpt lat="48.70925" lon="1.94179">
        <ele>172.39999389648</ele>
        <time>2013-10-05T10:46:22.000Z</time>
      </trkpt>
      <trkpt lat="48.70923" lon="1.94171">
        <ele>172.39999389648</ele>
        <time>2013-10-05T10:46:28.000Z</time>
      </trkpt>
      <trkpt lat="48.70922" lon="1.94153">
        <ele>172.39999389648</ele>
        <time>2013-10-05T10:46:36.000Z</time>
      </trkpt>
      <trkpt lat="48.70925" lon="1.94141">
        <ele>172.80000305176</ele>
        <time>2013-10-05T10:46:43.000Z</time>
      </trkpt>
      <trkpt lat="48.70924" lon="1.94136">
        <ele>172.60000610352</ele>
        <time>2013-10-05T10:46:45.000Z</time>
      </trkpt>
      <trkpt lat="48.70926" lon="1.94113">
        <ele>172.80000305176</ele>
        <time>2013-10-05T10:46:54.000Z</time>
      </trkpt>
      <trkpt lat="48.70928" lon="1.94096">
        <ele>173</ele>
        <time>2013-10-05T10:47:01.000Z</time>
      </trkpt>
      <trkpt lat="48.70929" lon="1.94081">
        <ele>173</ele>
        <time>2013-10-05T10:47:07.000Z</time>
      </trkpt>
      <trkpt lat="48.7093" lon="1.94067">
        <ele>172.60000610352</ele>
        <time>2013-10-05T10:47:13.000Z</time>
      </trkpt>
      <trkpt lat="48.7093" lon="1.94052">
        <ele>172.19999694824</ele>
        <time>2013-10-05T10:47:19.000Z</time>
      </trkpt>
      <trkpt lat="48.70932" lon="1.94033">
        <ele>171.80000305176</ele>
        <time>2013-10-05T10:47:27.000Z</time>
      </trkpt>
      <trkpt lat="48.70933" lon="1.94018">
        <ele>171.19999694824</ele>
        <time>2013-10-05T10:47:33.000Z</time>
      </trkpt>
      <trkpt lat="48.70934" lon="1.93999">
        <ele>170.80000305176</ele>
        <time>2013-10-05T10:47:41.000Z</time>
      </trkpt>
      <trkpt lat="48.70937" lon="1.93977">
        <ele>170.80000305176</ele>
        <time>2013-10-05T10:47:50.000Z</time>
      </trkpt>
      <trkpt lat="48.70938" lon="1.93954">
        <ele>170.60000610352</ele>
        <time>2013-10-05T10:47:59.000Z</time>
      </trkpt>
      <trkpt lat="48.70938" lon="1.93947">
        <ele>170.60000610352</ele>
        <time>2013-10-05T10:48:02.000Z</time>
      </trkpt>
      <trkpt lat="48.70939" lon="1.93938">
        <ele>170.60000610352</ele>
        <time>2013-10-05T10:48:05.000Z</time>
      </trkpt>
      <trkpt lat="48.70939" lon="1.93934">
        <ele>170.60000610352</ele>
        <time>2013-10-05T10:48:11.000Z</time>
      </trkpt>
      <trkpt lat="48.70939" lon="1.93934">
        <ele>170.60000610352</ele>
        <time>2013-10-05T10:48:12.000Z</time>
      </trkpt>
      <trkpt lat="48.70939" lon="1.93934">
        <ele>170.60000610352</ele>
        <time>2013-10-05T10:48:19.000Z</time>
      </trkpt>
      <trkpt lat="48.7094" lon="1.93935">
        <ele>170.60000610352</ele>
        <time>2013-10-05T10:48:22.000Z</time>
      </trkpt>
      <trkpt lat="48.7094" lon="1.93906">
        <ele>170.19999694824</ele>
        <time>2013-10-05T10:48:29.000Z</time>
      </trkpt>
      <trkpt lat="48.7094" lon="1.93906">
        <ele>170.19999694824</ele>
        <time>2013-10-05T10:48:30.000Z</time>
      </trkpt>
      <trkpt lat="48.7094" lon="1.93892">
        <ele>170.19999694824</ele>
        <time>2013-10-05T10:48:36.000Z</time>
      </trkpt>
      <trkpt lat="48.7094" lon="1.9389">
        <ele>170</ele>
        <time>2013-10-05T10:48:38.000Z</time>
      </trkpt>
      <trkpt lat="48.7094" lon="1.93883">
        <ele>170</ele>
        <time>2013-10-05T10:48:42.000Z</time>
      </trkpt>
      <trkpt lat="48.70941" lon="1.93879">
        <ele>170</ele>
        <time>2013-10-05T10:48:44.000Z</time>
      </trkpt>
      <trkpt lat="48.70939" lon="1.93932">
        <ele>170.39999389648</ele>
        <time>2013-10-05T10:48:51.000Z</time>
      </trkpt>
      <trkpt lat="48.70939" lon="1.93932">
        <ele>170.39999389648</ele>
        <time>2013-10-05T10:48:52.000Z</time>
      </trkpt>
      <trkpt lat="48.7094" lon="1.93864">
        <ele>169.80000305176</ele>
        <time>2013-10-05T10:48:56.000Z</time>
      </trkpt>
      <trkpt lat="48.70939" lon="1.93857">
        <ele>169.60000610352</ele>
        <time>2013-10-05T10:48:59.000Z</time>
      </trkpt>
      <trkpt lat="48.70938" lon="1.93847">
        <ele>169.39999389648</ele>
        <time>2013-10-05T10:49:04.000Z</time>
      </trkpt>
      <trkpt lat="48.7092" lon="1.93847">
        <ele>168.19999694824</ele>
        <time>2013-10-05T10:49:09.000Z</time>
      </trkpt>
      <trkpt lat="48.70937" lon="1.93838">
        <ele>169.19999694824</ele>
        <time>2013-10-05T10:49:13.000Z</time>
      </trkpt>
      <trkpt lat="48.70937" lon="1.93833">
        <ele>169.19999694824</ele>
        <time>2013-10-05T10:49:21.000Z</time>
      </trkpt>
      <trkpt lat="48.70937" lon="1.93834">
        <ele>169.19999694824</ele>
        <time>2013-10-05T10:49:24.000Z</time>
      </trkpt>
      <trkpt lat="48.70939" lon="1.93821">
        <ele>169</ele>
        <time>2013-10-05T10:49:31.000Z</time>
      </trkpt>
      <trkpt lat="48.70939" lon="1.93821">
        <ele>169</ele>
        <time>2013-10-05T10:49:37.000Z</time>
      </trkpt>
      <trkpt lat="48.70899" lon="1.93795">
        <ele>168</ele>
        <time>2013-10-05T10:49:42.000Z</time>
      </trkpt>
      <trkpt lat="48.7094" lon="1.93814">
        <ele>169</ele>
        <time>2013-10-05T10:49:45.000Z</time>
      </trkpt>
      <trkpt lat="48.70889" lon="1.93786">
        <ele>167.80000305176</ele>
        <time>2013-10-05T10:49:50.000Z</time>
      </trkpt>
      <trkpt lat="48.70887" lon="1.93776">
        <ele>167.80000305176</ele>
        <time>2013-10-05T10:49:56.000Z</time>
      </trkpt>
      <trkpt lat="48.70883" lon="1.93768">
        <ele>167.80000305176</ele>
        <time>2013-10-05T10:50:02.000Z</time>
      </trkpt>
      <trkpt lat="48.70878" lon="1.93759">
        <ele>167.80000305176</ele>
        <time>2013-10-05T10:50:07.000Z</time>
      </trkpt>
      <trkpt lat="48.70871" lon="1.9375">
        <ele>167.80000305176</ele>
        <time>2013-10-05T10:50:13.000Z</time>
      </trkpt>
      <trkpt lat="48.70865" lon="1.93743">
        <ele>168</ele>
        <time>2013-10-05T10:50:17.000Z</time>
      </trkpt>
      <trkpt lat="48.7086" lon="1.9374">
        <ele>168</ele>
        <time>2013-10-05T10:50:21.000Z</time>
      </trkpt>
      <trkpt lat="48.70854" lon="1.93728">
        <ele>168.60000610352</ele>
        <time>2013-10-05T10:50:28.000Z</time>
      </trkpt>
      <trkpt lat="48.70851" lon="1.9372">
        <ele>169</ele>
        <time>2013-10-05T10:50:33.000Z</time>
      </trkpt>
      <trkpt lat="48.70845" lon="1.93707">
        <ele>169.60000610352</ele>
        <time>2013-10-05T10:50:40.000Z</time>
      </trkpt>
      <trkpt lat="48.70841" lon="1.937">
        <ele>169.80000305176</ele>
        <time>2013-10-05T10:50:43.000Z</time>
      </trkpt>
      <trkpt lat="48.70835" lon="1.93691">
        <ele>170.39999389648</ele>
        <time>2013-10-05T10:50:49.000Z</time>
      </trkpt>
      <trkpt lat="48.7083" lon="1.93681">
        <ele>171</ele>
        <time>2013-10-05T10:50:55.000Z</time>
      </trkpt>
      <trkpt lat="48.70825" lon="1.93674">
        <ele>171.19999694824</ele>
        <time>2013-10-05T10:50:59.000Z</time>
      </trkpt>
      <trkpt lat="48.70823" lon="1.93665">
        <ele>171.60000610352</ele>
        <time>2013-10-05T10:51:06.000Z</time>
      </trkpt>
      <trkpt lat="48.7082" lon="1.93663">
        <ele>171.60000610352</ele>
        <time>2013-10-05T10:51:09.000Z</time>
      </trkpt>
      <trkpt lat="48.70816" lon="1.93658">
        <ele>171.80000305176</ele>
        <time>2013-10-05T10:51:12.000Z</time>
      </trkpt>
      <trkpt lat="48.70817" lon="1.9365">
        <ele>172.39999389648</ele>
        <time>2013-10-05T10:51:16.000Z</time>
      </trkpt>
      <trkpt lat="48.70818" lon="1.9364">
        <ele>173.19999694824</ele>
        <time>2013-10-05T10:51:20.000Z</time>
      </trkpt>
      <trkpt lat="48.70812" lon="1.9363">
        <ele>173.60000610352</ele>
        <time>2013-10-05T10:51:27.000Z</time>
      </trkpt>
      <trkpt lat="48.70811" lon="1.93628">
        <ele>173.60000610352</ele>
        <time>2013-10-05T10:51:28.000Z</time>
      </trkpt>
      <trkpt lat="48.70809" lon="1.93628">
        <ele>173.60000610352</ele>
        <time>2013-10-05T10:51:31.000Z</time>
      </trkpt>
      <trkpt lat="48.70804" lon="1.93617">
        <ele>174</ele>
        <time>2013-10-05T10:51:38.000Z</time>
      </trkpt>
      <trkpt lat="48.70803" lon="1.93614">
        <ele>174.19999694824</ele>
        <time>2013-10-05T10:51:41.000Z</time>
      </trkpt>
      <trkpt lat="48.70802" lon="1.93602">
        <ele>174.80000305176</ele>
        <time>2013-10-05T10:51:47.000Z</time>
      </trkpt>
      <trkpt lat="48.70801" lon="1.93596">
        <ele>175.19999694824</ele>
        <time>2013-10-05T10:51:50.000Z</time>
      </trkpt>
      <trkpt lat="48.70803" lon="1.93586">
        <ele>176</ele>
        <time>2013-10-05T10:51:55.000Z</time>
      </trkpt>
      <trkpt lat="48.70802" lon="1.93582">
        <ele>176</ele>
        <time>2013-10-05T10:51:57.000Z</time>
      </trkpt>
      <trkpt lat="48.70793" lon="1.93574">
        <ele>175.39999389648</ele>
        <time>2013-10-05T10:52:04.000Z</time>
      </trkpt>
      <trkpt lat="48.70788" lon="1.93565">
        <ele>175.19999694824</ele>
        <time>2013-10-05T10:52:08.000Z</time>
      </trkpt>
      <trkpt lat="48.70782" lon="1.93552">
        <ele>174.80000305176</ele>
        <time>2013-10-05T10:52:14.000Z</time>
      </trkpt>
      <trkpt lat="48.70782" lon="1.9354">
        <ele>174.80000305176</ele>
        <time>2013-10-05T10:52:19.000Z</time>
      </trkpt>
      <trkpt lat="48.70786" lon="1.9353">
        <ele>175</ele>
        <time>2013-10-05T10:52:25.000Z</time>
      </trkpt>
      <trkpt lat="48.70785" lon="1.93528">
        <ele>175</ele>
        <time>2013-10-05T10:52:29.000Z</time>
      </trkpt>
      <trkpt lat="48.70808" lon="1.93441">
        <ele>173</ele>
        <time>2013-10-05T10:52:36.000Z</time>
      </trkpt>
      <trkpt lat="48.7081" lon="1.93442">
        <ele>173.19999694824</ele>
        <time>2013-10-05T10:52:42.000Z</time>
      </trkpt>
      <trkpt lat="48.7081" lon="1.93442">
        <ele>173.19999694824</ele>
        <time>2013-10-05T10:52:47.000Z</time>
      </trkpt>
      <trkpt lat="48.70811" lon="1.93442">
        <ele>173.19999694824</ele>
        <time>2013-10-05T10:52:48.000Z</time>
      </trkpt>
      <trkpt lat="48.70814" lon="1.93445">
        <ele>173.39999389648</ele>
        <time>2013-10-05T10:52:55.000Z</time>
      </trkpt>
      <trkpt lat="48.70814" lon="1.93445">
        <ele>173.39999389648</ele>
        <time>2013-10-05T10:52:56.000Z</time>
      </trkpt>
      <trkpt lat="48.70812" lon="1.93442">
        <ele>173.19999694824</ele>
        <time>2013-10-05T10:53:01.000Z</time>
      </trkpt>
      <trkpt lat="48.7081" lon="1.93441">
        <ele>173</ele>
        <time>2013-10-05T10:53:07.000Z</time>
      </trkpt>
      <trkpt lat="48.70809" lon="1.93439">
        <ele>173</ele>
        <time>2013-10-05T10:53:09.000Z</time>
      </trkpt>
      <trkpt lat="48.70809" lon="1.93441">
        <ele>173</ele>
        <time>2013-10-05T10:53:14.000Z</time>
      </trkpt>
      <trkpt lat="48.70811" lon="1.93443">
        <ele>173.19999694824</ele>
        <time>2013-10-05T10:53:18.000Z</time>
      </trkpt>
      <trkpt lat="48.70818" lon="1.93446">
        <ele>173.60000610352</ele>
        <time>2013-10-05T10:53:25.000Z</time>
      </trkpt>
      <trkpt lat="48.70821" lon="1.93448">
        <ele>173.80000305176</ele>
        <time>2013-10-05T10:53:27.000Z</time>
      </trkpt>
      <trkpt lat="48.70824" lon="1.93456">
        <ele>174.39999389648</ele>
        <time>2013-10-05T10:53:33.000Z</time>
      </trkpt>
      <trkpt lat="48.70828" lon="1.93453">
        <ele>174.39999389648</ele>
        <time>2013-10-05T10:53:40.000Z</time>
      </trkpt>
      <trkpt lat="48.70829" lon="1.93453">
        <ele>174.39999389648</ele>
        <time>2013-10-05T10:53:42.000Z</time>
      </trkpt>
      <trkpt lat="48.70831" lon="1.93468">
        <ele>175.60000610352</ele>
        <time>2013-10-05T10:53:49.000Z</time>
      </trkpt>
      <trkpt lat="48.70833" lon="1.93475">
        <ele>176</ele>
        <time>2013-10-05T10:53:55.000Z</time>
      </trkpt>
      <trkpt lat="48.70833" lon="1.93475">
        <ele>176.19999694824</ele>
        <time>2013-10-05T10:53:56.000Z</time>
      </trkpt>
      <trkpt lat="48.70837" lon="1.93456">
        <ele>174.60000610352</ele>
        <time>2013-10-05T10:54:02.000Z</time>
      </trkpt>
      <trkpt lat="48.70837" lon="1.93456">
        <ele>174.60000610352</ele>
        <time>2013-10-05T10:54:08.000Z</time>
      </trkpt>
      <trkpt lat="48.70837" lon="1.93456">
        <ele>174.60000610352</ele>
        <time>2013-10-05T10:54:13.000Z</time>
      </trkpt>
      <trkpt lat="48.70837" lon="1.93456">
        <ele>174.60000610352</ele>
        <time>2013-10-05T10:54:16.000Z</time>
      </trkpt>
      <trkpt lat="48.70856" lon="1.93457">
        <ele>174.19999694824</ele>
        <time>2013-10-05T10:54:23.000Z</time>
      </trkpt>
      <trkpt lat="48.70856" lon="1.93457">
        <ele>174.19999694824</ele>
        <time>2013-10-05T10:54:28.000Z</time>
      </trkpt>
      <trkpt lat="48.70856" lon="1.93457">
        <ele>174.19999694824</ele>
        <time>2013-10-05T10:54:36.000Z</time>
      </trkpt>
      <trkpt lat="48.70856" lon="1.93457">
        <ele>174.19999694824</ele>
        <time>2013-10-05T10:54:40.000Z</time>
      </trkpt>
      <trkpt lat="48.70856" lon="1.93457">
        <ele>174.19999694824</ele>
        <time>2013-10-05T10:54:44.000Z</time>
      </trkpt>
      <trkpt lat="48.70956" lon="1.93495">
        <ele>171</ele>
        <time>2013-10-05T10:54:52.000Z</time>
      </trkpt>
      <trkpt lat="48.70956" lon="1.93495">
        <ele>171</ele>
        <time>2013-10-05T10:54:53.000Z</time>
      </trkpt>
      <trkpt lat="48.70958" lon="1.93497">
        <ele>171</ele>
        <time>2013-10-05T10:54:57.000Z</time>
      </trkpt>
      <trkpt lat="48.70956" lon="1.93495">
        <ele>171</ele>
        <time>2013-10-05T10:55:00.000Z</time>
      </trkpt>
      <trkpt lat="48.70911" lon="1.93483">
        <ele>172.60000610352</ele>
        <time>2013-10-05T10:55:08.000Z</time>
      </trkpt>
      <trkpt lat="48.70919" lon="1.9349">
        <ele>172</ele>
        <time>2013-10-05T10:55:13.000Z</time>
      </trkpt>
      <trkpt lat="48.70919" lon="1.9349">
        <ele>172</ele>
        <time>2013-10-05T10:55:16.000Z</time>
      </trkpt>
      <trkpt lat="48.70954" lon="1.93458">
        <ele>171.80000305176</ele>
        <time>2013-10-05T10:55:21.000Z</time>
      </trkpt>
      <trkpt lat="48.70954" lon="1.93466">
        <ele>171.60000610352</ele>
        <time>2013-10-05T10:55:28.000Z</time>
      </trkpt>
      <trkpt lat="48.70955" lon="1.93473">
        <ele>171.39999389648</ele>
        <time>2013-10-05T10:55:33.000Z</time>
      </trkpt>
      <trkpt lat="48.70956" lon="1.93495">
        <ele>171</ele>
        <time>2013-10-05T10:55:40.000Z</time>
      </trkpt>
      <trkpt lat="48.70956" lon="1.93495">
        <ele>171</ele>
        <time>2013-10-05T10:55:42.000Z</time>
      </trkpt>
      <trkpt lat="48.70956" lon="1.93494">
        <ele>171</ele>
        <time>2013-10-05T10:55:48.000Z</time>
      </trkpt>
      <trkpt lat="48.70956" lon="1.93494">
        <ele>171</ele>
        <time>2013-10-05T10:55:55.000Z</time>
      </trkpt>
      <trkpt lat="48.7095" lon="1.93497">
        <ele>171.19999694824</ele>
        <time>2013-10-05T10:56:03.000Z</time>
      </trkpt>
      <trkpt lat="48.7095" lon="1.93497">
        <ele>171.19999694824</ele>
        <time>2013-10-05T10:56:10.000Z</time>
      </trkpt>
      <trkpt lat="48.7095" lon="1.93497">
        <ele>171.19999694824</ele>
        <time>2013-10-05T10:56:13.000Z</time>
      </trkpt>
      <trkpt lat="48.70975" lon="1.93494">
        <ele>170.60000610352</ele>
        <time>2013-10-05T10:56:20.000Z</time>
      </trkpt>
      <trkpt lat="48.70975" lon="1.93494">
        <ele>170.60000610352</ele>
        <time>2013-10-05T10:56:27.000Z</time>
      </trkpt>
      <trkpt lat="48.70991" lon="1.93492">
        <ele>170.19999694824</ele>
        <time>2013-10-05T10:56:34.000Z</time>
      </trkpt>
      <trkpt lat="48.71008" lon="1.93492">
        <ele>168.60000610352</ele>
        <time>2013-10-05T10:56:41.000Z</time>
      </trkpt>
      <trkpt lat="48.71014" lon="1.93493">
        <ele>167.80000305176</ele>
        <time>2013-10-05T10:56:44.000Z</time>
      </trkpt>
      <trkpt lat="48.71019" lon="1.93493">
        <ele>167</ele>
        <time>2013-10-05T10:56:50.000Z</time>
      </trkpt>
      <trkpt lat="48.71037" lon="1.93496">
        <ele>164.19999694824</ele>
        <time>2013-10-05T10:56:58.000Z</time>
      </trkpt>
      <trkpt lat="48.71037" lon="1.93496">
        <ele>164.19999694824</ele>
        <time>2013-10-05T10:57:03.000Z</time>
      </trkpt>
      <trkpt lat="48.71047" lon="1.93499">
        <ele>162.39999389648</ele>
        <time>2013-10-05T10:57:08.000Z</time>
      </trkpt>
      <trkpt lat="48.7106" lon="1.93504">
        <ele>160.39999389648</ele>
        <time>2013-10-05T10:57:13.000Z</time>
      </trkpt>
      <trkpt lat="48.71064" lon="1.93507">
        <ele>159.60000610352</ele>
        <time>2013-10-05T10:57:19.000Z</time>
      </trkpt>
      <trkpt lat="48.71075" lon="1.93516">
        <ele>157.80000305176</ele>
        <time>2013-10-05T10:57:23.000Z</time>
      </trkpt>
      <trkpt lat="48.71082" lon="1.93523">
        <ele>156.39999389648</ele>
        <time>2013-10-05T10:57:29.000Z</time>
      </trkpt>
      <trkpt lat="48.71092" lon="1.93534">
        <ele>154.60000610352</ele>
        <time>2013-10-05T10:57:34.000Z</time>
      </trkpt>
      <trkpt lat="48.71097" lon="1.93538">
        <ele>153.80000305176</ele>
        <time>2013-10-05T10:57:36.000Z</time>
      </trkpt>
      <trkpt lat="48.71103" lon="1.93544">
        <ele>152.80000305176</ele>
        <time>2013-10-05T10:57:41.000Z</time>
      </trkpt>
      <trkpt lat="48.71112" lon="1.93552">
        <ele>151</ele>
        <time>2013-10-05T10:57:47.000Z</time>
      </trkpt>
      <trkpt lat="48.71115" lon="1.93553">
        <ele>150.60000610352</ele>
        <time>2013-10-05T10:57:51.000Z</time>
      </trkpt>
      <trkpt lat="48.7112" lon="1.93556">
        <ele>149.60000610352</ele>
        <time>2013-10-05T10:58:00.000Z</time>
      </trkpt>
      <trkpt lat="48.71122" lon="1.93557">
        <ele>149.39999389648</ele>
        <time>2013-10-05T10:58:03.000Z</time>
      </trkpt>
      <trkpt lat="48.71128" lon="1.93559">
        <ele>148.39999389648</ele>
        <time>2013-10-05T10:58:09.000Z</time>
      </trkpt>
      <trkpt lat="48.71138" lon="1.93563">
        <ele>146.80000305176</ele>
        <time>2013-10-05T10:58:19.000Z</time>
      </trkpt>
      <trkpt lat="48.71139" lon="1.93563">
        <ele>146.60000610352</ele>
        <time>2013-10-05T10:58:24.000Z</time>
      </trkpt>
      <trkpt lat="48.71157" lon="1.93569">
        <ele>143.60000610352</ele>
        <time>2013-10-05T10:58:48.000Z</time>
      </trkpt>
      <trkpt lat="48.71157" lon="1.93569">
        <ele>143.60000610352</ele>
        <time>2013-10-05T10:58:56.000Z</time>
      </trkpt>
      <trkpt lat="48.71157" lon="1.93569">
        <ele>143.60000610352</ele>
        <time>2013-10-05T10:59:02.000Z</time>
      </trkpt>
      <trkpt lat="48.7117" lon="1.9357">
        <ele>142</ele>
        <time>2013-10-05T10:59:09.000Z</time>
      </trkpt>
      <trkpt lat="48.71185" lon="1.93572">
        <ele>141.39999389648</ele>
        <time>2013-10-05T10:59:17.000Z</time>
      </trkpt>
      <trkpt lat="48.71192" lon="1.93573">
        <ele>141.19999694824</ele>
        <time>2013-10-05T10:59:23.000Z</time>
      </trkpt>
      <trkpt lat="48.71192" lon="1.93573">
        <ele>141.19999694824</ele>
        <time>2013-10-05T10:59:27.000Z</time>
      </trkpt>
      <trkpt lat="48.71192" lon="1.93573">
        <ele>141.19999694824</ele>
        <time>2013-10-05T10:59:38.000Z</time>
      </trkpt>
      <trkpt lat="48.71192" lon="1.93573">
        <ele>141.19999694824</ele>
        <time>2013-10-05T10:59:45.000Z</time>
      </trkpt>
      <trkpt lat="48.71192" lon="1.93573">
        <ele>141.19999694824</ele>
        <time>2013-10-05T10:59:51.000Z</time>
      </trkpt>
      <trkpt lat="48.71192" lon="1.93573">
        <ele>141.19999694824</ele>
        <time>2013-10-05T11:00:00.000Z</time>
      </trkpt>
      <trkpt lat="48.71192" lon="1.93573">
        <ele>141.19999694824</ele>
        <time>2013-10-05T11:00:15.000Z</time>
      </trkpt>
      <trkpt lat="48.71192" lon="1.93573">
        <ele>141.19999694824</ele>
        <time>2013-10-05T11:00:16.000Z</time>
      </trkpt>
      <trkpt lat="48.71264" lon="1.93588">
        <ele>139.19999694824</ele>
        <time>2013-10-05T11:00:22.000Z</time>
      </trkpt>
      <trkpt lat="48.71274" lon="1.93593">
        <ele>139.19999694824</ele>
        <time>2013-10-05T11:00:29.000Z</time>
      </trkpt>
      <trkpt lat="48.71274" lon="1.93593">
        <ele>139.19999694824</ele>
        <time>2013-10-05T11:00:36.000Z</time>
      </trkpt>
      <trkpt lat="48.71274" lon="1.93593">
        <ele>139.19999694824</ele>
        <time>2013-10-05T11:00:43.000Z</time>
      </trkpt>
      <trkpt lat="48.71286" lon="1.93607">
        <ele>139.39999389648</ele>
        <time>2013-10-05T11:00:47.000Z</time>
      </trkpt>
      <trkpt lat="48.71286" lon="1.93607">
        <ele>139.39999389648</ele>
        <time>2013-10-05T11:01:22.000Z</time>
      </trkpt>
      <trkpt lat="48.71286" lon="1.93607">
        <ele>139.39999389648</ele>
        <time>2013-10-05T11:01:33.000Z</time>
      </trkpt>
      <trkpt lat="48.71286" lon="1.93607">
        <ele>139.39999389648</ele>
        <time>2013-10-05T11:01:43.000Z</time>
      </trkpt>
      <trkpt lat="48.71286" lon="1.93607">
        <ele>139.39999389648</ele>
        <time>2013-10-05T11:01:49.000Z</time>
      </trkpt>
      <trkpt lat="48.71286" lon="1.93607">
        <ele>139.39999389648</ele>
        <time>2013-10-05T11:01:59.000Z</time>
      </trkpt>
      <trkpt lat="48.71286" lon="1.93607">
        <ele>139.39999389648</ele>
        <time>2013-10-05T11:02:00.000Z</time>
      </trkpt>
      <trkpt lat="48.71287" lon="1.93609">
        <ele>139.39999389648</ele>
        <time>2013-10-05T11:02:08.000Z</time>
      </trkpt>
      <trkpt lat="48.71287" lon="1.93609">
        <ele>139.39999389648</ele>
        <time>2013-10-05T11:02:21.000Z</time>
      </trkpt>
      <trkpt lat="48.71287" lon="1.93609">
        <ele>139.39999389648</ele>
        <time>2013-10-05T11:02:28.000Z</time>
      </trkpt>
      <trkpt lat="48.71287" lon="1.93609">
        <ele>139.39999389648</ele>
        <time>2013-10-05T11:02:33.000Z</time>
      </trkpt>
      <trkpt lat="48.71287" lon="1.93609">
        <ele>139.39999389648</ele>
        <time>2013-10-05T11:02:44.000Z</time>
      </trkpt>
      <trkpt lat="48.71287" lon="1.93609">
        <ele>139.39999389648</ele>
        <time>2013-10-05T11:02:58.000Z</time>
      </trkpt>
      <trkpt lat="48.713" lon="1.9362">
        <ele>139.39999389648</ele>
        <time>2013-10-05T11:03:03.000Z</time>
      </trkpt>
      <trkpt lat="48.713" lon="1.9362">
        <ele>139.39999389648</ele>
        <time>2013-10-05T11:03:05.000Z</time>
      </trkpt>
      <trkpt lat="48.71302" lon="1.93625">
        <ele>139.39999389648</ele>
        <time>2013-10-05T11:03:11.000Z</time>
      </trkpt>
      <trkpt lat="48.71302" lon="1.93625">
        <ele>139.39999389648</ele>
        <time>2013-10-05T11:03:17.000Z</time>
      </trkpt>
      <trkpt lat="48.71302" lon="1.93625">
        <ele>139.39999389648</ele>
        <time>2013-10-05T11:03:23.000Z</time>
      </trkpt>
      <trkpt lat="48.71302" lon="1.93625">
        <ele>139.39999389648</ele>
        <time>2013-10-05T11:03:29.000Z</time>
      </trkpt>
      <trkpt lat="48.7132" lon="1.93639">
        <ele>139.80000305176</ele>
        <time>2013-10-05T11:03:33.000Z</time>
      </trkpt>
      <trkpt lat="48.71327" lon="1.93644">
        <ele>140</ele>
        <time>2013-10-05T11:03:39.000Z</time>
      </trkpt>
      <trkpt lat="48.71327" lon="1.93644">
        <ele>140</ele>
        <time>2013-10-05T11:03:44.000Z</time>
      </trkpt>
      <trkpt lat="48.71327" lon="1.93644">
        <ele>140</ele>
        <time>2013-10-05T11:03:50.000Z</time>
      </trkpt>
      <trkpt lat="48.71327" lon="1.93644">
        <ele>140</ele>
        <time>2013-10-05T11:03:56.000Z</time>
      </trkpt>
      <trkpt lat="48.71327" lon="1.93644">
        <ele>140</ele>
        <time>2013-10-05T11:04:04.000Z</time>
      </trkpt>
      <trkpt lat="48.71327" lon="1.93644">
        <ele>140</ele>
        <time>2013-10-05T11:04:09.000Z</time>
      </trkpt>
      <trkpt lat="48.71327" lon="1.93644">
        <ele>140</ele>
        <time>2013-10-05T11:04:17.000Z</time>
      </trkpt>
      <trkpt lat="48.71327" lon="1.93644">
        <ele>140</ele>
        <time>2013-10-05T11:04:23.000Z</time>
      </trkpt>
      <trkpt lat="48.71327" lon="1.93644">
        <ele>140</ele>
        <time>2013-10-05T11:04:35.000Z</time>
      </trkpt>
      <trkpt lat="48.71327" lon="1.93644">
        <ele>140</ele>
        <time>2013-10-05T11:04:50.000Z</time>
      </trkpt>
      <trkpt lat="48.71368" lon="1.93668">
        <ele>139.80000305176</ele>
        <time>2013-10-05T11:04:56.000Z</time>
      </trkpt>
      <trkpt lat="48.71368" lon="1.93668">
        <ele>139.80000305176</ele>
        <time>2013-10-05T11:05:04.000Z</time>
      </trkpt>
      <trkpt lat="48.71368" lon="1.93668">
        <ele>139.80000305176</ele>
        <time>2013-10-05T11:05:14.000Z</time>
      </trkpt>
      <trkpt lat="48.71365" lon="1.93667">
        <ele>139.80000305176</ele>
        <time>2013-10-05T11:05:30.000Z</time>
      </trkpt>
      <trkpt lat="48.71365" lon="1.93667">
        <ele>139.80000305176</ele>
        <time>2013-10-05T11:05:44.000Z</time>
      </trkpt>
      <trkpt lat="48.71369" lon="1.93669">
        <ele>139.80000305176</ele>
        <time>2013-10-05T11:05:50.000Z</time>
      </trkpt>
      <trkpt lat="48.71369" lon="1.93669">
        <ele>139.80000305176</ele>
        <time>2013-10-05T11:05:56.000Z</time>
      </trkpt>
      <trkpt lat="48.71369" lon="1.93669">
        <ele>139.80000305176</ele>
        <time>2013-10-05T11:06:01.000Z</time>
      </trkpt>
      <trkpt lat="48.71369" lon="1.93669">
        <ele>139.80000305176</ele>
        <time>2013-10-05T11:06:16.000Z</time>
      </trkpt>
      <trkpt lat="48.71369" lon="1.93669">
        <ele>139.80000305176</ele>
        <time>2013-10-05T11:06:25.000Z</time>
      </trkpt>
      <trkpt lat="48.71369" lon="1.93669">
        <ele>139.80000305176</ele>
        <time>2013-10-05T11:06:33.000Z</time>
      </trkpt>
      <trkpt lat="48.71369" lon="1.93669">
        <ele>139.80000305176</ele>
        <time>2013-10-05T11:06:49.000Z</time>
      </trkpt>
      <trkpt lat="48.71369" lon="1.93669">
        <ele>139.80000305176</ele>
        <time>2013-10-05T11:06:57.000Z</time>
      </trkpt>
      <trkpt lat="48.71369" lon="1.93669">
        <ele>139.80000305176</ele>
        <time>2013-10-05T11:07:08.000Z</time>
      </trkpt>
      <trkpt lat="48.71358" lon="1.93663">
        <ele>140</ele>
        <time>2013-10-05T11:07:13.000Z</time>
      </trkpt>
      <trkpt lat="48.71355" lon="1.93662">
        <ele>140.19999694824</ele>
        <time>2013-10-05T11:07:17.000Z</time>
      </trkpt>
      <trkpt lat="48.71356" lon="1.93662">
        <ele>140</ele>
        <time>2013-10-05T11:07:25.000Z</time>
      </trkpt>
      <trkpt lat="48.71356" lon="1.93662">
        <ele>140</ele>
        <time>2013-10-05T11:07:35.000Z</time>
      </trkpt>
      <trkpt lat="48.71356" lon="1.93662">
        <ele>140</ele>
        <time>2013-10-05T11:07:41.000Z</time>
      </trkpt>
      <trkpt lat="48.71356" lon="1.93662">
        <ele>140</ele>
        <time>2013-10-05T11:07:47.000Z</time>
      </trkpt>
      <trkpt lat="48.71356" lon="1.93662">
        <ele>140</ele>
        <time>2013-10-05T11:07:55.000Z</time>
      </trkpt>
      <trkpt lat="48.71356" lon="1.93662">
        <ele>140</ele>
        <time>2013-10-05T11:08:02.000Z</time>
      </trkpt>
      <trkpt lat="48.71369" lon="1.93669">
        <ele>139.80000305176</ele>
        <time>2013-10-05T11:08:14.000Z</time>
      </trkpt>
      <trkpt lat="48.71369" lon="1.93669">
        <ele>139.80000305176</ele>
        <time>2013-10-05T11:08:19.000Z</time>
      </trkpt>
      <trkpt lat="48.71369" lon="1.93669">
        <ele>139.80000305176</ele>
        <time>2013-10-05T11:08:25.000Z</time>
      </trkpt>
      <trkpt lat="48.71369" lon="1.93669">
        <ele>139.80000305176</ele>
        <time>2013-10-05T11:08:47.000Z</time>
      </trkpt>
      <trkpt lat="48.71369" lon="1.93669">
        <ele>139.80000305176</ele>
        <time>2013-10-05T11:09:00.000Z</time>
      </trkpt>
      <trkpt lat="48.71381" lon="1.93675">
        <ele>139.60000610352</ele>
        <time>2013-10-05T11:09:06.000Z</time>
      </trkpt>
      <trkpt lat="48.71381" lon="1.93675">
        <ele>139.60000610352</ele>
        <time>2013-10-05T11:09:11.000Z</time>
      </trkpt>
      <trkpt lat="48.71381" lon="1.93675">
        <ele>139.60000610352</ele>
        <time>2013-10-05T11:09:12.000Z</time>
      </trkpt>
      <trkpt lat="48.71388" lon="1.93679">
        <ele>139.60000610352</ele>
        <time>2013-10-05T11:09:20.000Z</time>
      </trkpt>
      <trkpt lat="48.71388" lon="1.93679">
        <ele>139.60000610352</ele>
        <time>2013-10-05T11:09:27.000Z</time>
      </trkpt>
      <trkpt lat="48.71388" lon="1.93679">
        <ele>139.60000610352</ele>
        <time>2013-10-05T11:09:37.000Z</time>
      </trkpt>
      <trkpt lat="48.71425" lon="1.93701">
        <ele>138.80000305176</ele>
        <time>2013-10-05T11:09:54.000Z</time>
      </trkpt>
      <trkpt lat="48.71425" lon="1.93701">
        <ele>138.80000305176</ele>
        <time>2013-10-05T11:10:02.000Z</time>
      </trkpt>
      <trkpt lat="48.71425" lon="1.93701">
        <ele>138.80000305176</ele>
        <time>2013-10-05T11:10:09.000Z</time>
      </trkpt>
      <trkpt lat="48.71425" lon="1.93701">
        <ele>138.80000305176</ele>
        <time>2013-10-05T11:10:17.000Z</time>
      </trkpt>
      <trkpt lat="48.71425" lon="1.93701">
        <ele>138.80000305176</ele>
        <time>2013-10-05T11:10:23.000Z</time>
      </trkpt>
      <trkpt lat="48.71425" lon="1.93701">
        <ele>138.80000305176</ele>
        <time>2013-10-05T11:10:30.000Z</time>
      </trkpt>
      <trkpt lat="48.71425" lon="1.93701">
        <ele>138.80000305176</ele>
        <time>2013-10-05T11:10:36.000Z</time>
      </trkpt>
      <trkpt lat="48.71425" lon="1.93701">
        <ele>138.80000305176</ele>
        <time>2013-10-05T11:10:41.000Z</time>
      </trkpt>
      <trkpt lat="48.71489" lon="1.93727">
        <ele>141.19999694824</ele>
        <time>2013-10-05T11:10:46.000Z</time>
      </trkpt>
      <trkpt lat="48.71495" lon="1.93727">
        <ele>141.60000610352</ele>
        <time>2013-10-05T11:10:54.000Z</time>
      </trkpt>
      <trkpt lat="48.71495" lon="1.93727">
        <ele>141.60000610352</ele>
        <time>2013-10-05T11:10:59.000Z</time>
      </trkpt>
      <trkpt lat="48.71495" lon="1.93727">
        <ele>141.60000610352</ele>
        <time>2013-10-05T11:11:04.000Z</time>
      </trkpt>
      <trkpt lat="48.71495" lon="1.93727">
        <ele>141.60000610352</ele>
        <time>2013-10-05T11:11:10.000Z</time>
      </trkpt>
      <trkpt lat="48.71495" lon="1.93727">
        <ele>141.60000610352</ele>
        <time>2013-10-05T11:11:15.000Z</time>
      </trkpt>
      <trkpt lat="48.71495" lon="1.93727">
        <ele>141.60000610352</ele>
        <time>2013-10-05T11:11:22.000Z</time>
      </trkpt>
      <trkpt lat="48.71495" lon="1.93727">
        <ele>141.60000610352</ele>
        <time>2013-10-05T11:11:27.000Z</time>
      </trkpt>
      <trkpt lat="48.71495" lon="1.93727">
        <ele>141.60000610352</ele>
        <time>2013-10-05T11:11:35.000Z</time>
      </trkpt>
      <trkpt lat="48.71495" lon="1.93727">
        <ele>141.60000610352</ele>
        <time>2013-10-05T11:11:40.000Z</time>
      </trkpt>
      <trkpt lat="48.71495" lon="1.93727">
        <ele>141.60000610352</ele>
        <time>2013-10-05T11:11:45.000Z</time>
      </trkpt>
      <trkpt lat="48.71583" lon="1.93778">
        <ele>145.80000305176</ele>
        <time>2013-10-05T11:11:52.000Z</time>
      </trkpt>
      <trkpt lat="48.71583" lon="1.93778">
        <ele>145.80000305176</ele>
        <time>2013-10-05T11:12:00.000Z</time>
      </trkpt>
      <trkpt lat="48.71583" lon="1.93778">
        <ele>145.80000305176</ele>
        <time>2013-10-05T11:12:04.000Z</time>
      </trkpt>
      <trkpt lat="48.71583" lon="1.93778">
        <ele>145.80000305176</ele>
        <time>2013-10-05T11:12:10.000Z</time>
      </trkpt>
      <trkpt lat="48.71583" lon="1.93778">
        <ele>145.80000305176</ele>
        <time>2013-10-05T11:12:13.000Z</time>
      </trkpt>
      <trkpt lat="48.716" lon="1.93801">
        <ele>143.39999389648</ele>
        <time>2013-10-05T11:12:19.000Z</time>
      </trkpt>
      <trkpt lat="48.71607" lon="1.93811">
        <ele>142.60000610352</ele>
        <time>2013-10-05T11:12:26.000Z</time>
      </trkpt>
      <trkpt lat="48.71607" lon="1.93811">
        <ele>142.60000610352</ele>
        <time>2013-10-05T11:12:31.000Z</time>
      </trkpt>
      <trkpt lat="48.71607" lon="1.93811">
        <ele>142.60000610352</ele>
        <time>2013-10-05T11:12:41.000Z</time>
      </trkpt>
      <trkpt lat="48.71607" lon="1.93811">
        <ele>142.60000610352</ele>
        <time>2013-10-05T11:12:55.000Z</time>
      </trkpt>
      <trkpt lat="48.71607" lon="1.93811">
        <ele>142.60000610352</ele>
        <time>2013-10-05T11:13:00.000Z</time>
      </trkpt>
      <trkpt lat="48.71607" lon="1.93811">
        <ele>142.60000610352</ele>
        <time>2013-10-05T11:13:06.000Z</time>
      </trkpt>
      <trkpt lat="48.71681" lon="1.9388">
        <ele>139</ele>
        <time>2013-10-05T11:13:24.000Z</time>
      </trkpt>
      <trkpt lat="48.71681" lon="1.9388">
        <ele>139</ele>
        <time>2013-10-05T11:13:31.000Z</time>
      </trkpt>
      <trkpt lat="48.71681" lon="1.9388">
        <ele>139</ele>
        <time>2013-10-05T11:13:37.000Z</time>
      </trkpt>
      <trkpt lat="48.71708" lon="1.93894">
        <ele>138.39999389648</ele>
        <time>2013-10-05T11:13:42.000Z</time>
      </trkpt>
      <trkpt lat="48.71726" lon="1.93904">
        <ele>138</ele>
        <time>2013-10-05T11:13:50.000Z</time>
      </trkpt>
      <trkpt lat="48.71728" lon="1.93905">
        <ele>138</ele>
        <time>2013-10-05T11:13:54.000Z</time>
      </trkpt>
      <trkpt lat="48.7174" lon="1.9391">
        <ele>138</ele>
        <time>2013-10-05T11:13:59.000Z</time>
      </trkpt>
      <trkpt lat="48.71751" lon="1.93915">
        <ele>137.80000305176</ele>
        <time>2013-10-05T11:14:05.000Z</time>
      </trkpt>
      <trkpt lat="48.71756" lon="1.93917">
        <ele>137.19999694824</ele>
        <time>2013-10-05T11:14:11.000Z</time>
      </trkpt>
      <trkpt lat="48.71763" lon="1.9392">
        <ele>136.39999389648</ele>
        <time>2013-10-05T11:14:18.000Z</time>
      </trkpt>
      <trkpt lat="48.71763" lon="1.9392">
        <ele>136.39999389648</ele>
        <time>2013-10-05T11:14:24.000Z</time>
      </trkpt>
      <trkpt lat="48.71763" lon="1.9392">
        <ele>136.39999389648</ele>
        <time>2013-10-05T11:14:34.000Z</time>
      </trkpt>
      <trkpt lat="48.71763" lon="1.9392">
        <ele>136.39999389648</ele>
        <time>2013-10-05T11:14:41.000Z</time>
      </trkpt>
      <trkpt lat="48.71793" lon="1.93931">
        <ele>133.19999694824</ele>
        <time>2013-10-05T11:14:48.000Z</time>
      </trkpt>
      <trkpt lat="48.71793" lon="1.93931">
        <ele>133.19999694824</ele>
        <time>2013-10-05T11:14:49.000Z</time>
      </trkpt>
      <trkpt lat="48.71802" lon="1.93936">
        <ele>132.19999694824</ele>
        <time>2013-10-05T11:14:54.000Z</time>
      </trkpt>
      <trkpt lat="48.71816" lon="1.93942">
        <ele>130.60000610352</ele>
        <time>2013-10-05T11:14:58.000Z</time>
      </trkpt>
      <trkpt lat="48.71828" lon="1.93948">
        <ele>129.39999389648</ele>
        <time>2013-10-05T11:15:06.000Z</time>
      </trkpt>
      <trkpt lat="48.71834" lon="1.93951">
        <ele>128.80000305176</ele>
        <time>2013-10-05T11:15:12.000Z</time>
      </trkpt>
      <trkpt lat="48.7185" lon="1.93958">
        <ele>126.80000305176</ele>
        <time>2013-10-05T11:15:17.000Z</time>
      </trkpt>
      <trkpt lat="48.71863" lon="1.93964">
        <ele>125.40000152588</ele>
        <time>2013-10-05T11:15:24.000Z</time>
      </trkpt>
      <trkpt lat="48.71863" lon="1.93964">
        <ele>125.40000152588</ele>
        <time>2013-10-05T11:15:29.000Z</time>
      </trkpt>
      <trkpt lat="48.71863" lon="1.93964">
        <ele>125.40000152588</ele>
        <time>2013-10-05T11:15:34.000Z</time>
      </trkpt>
      <trkpt lat="48.71863" lon="1.93964">
        <ele>125.40000152588</ele>
        <time>2013-10-05T11:15:39.000Z</time>
      </trkpt>
      <trkpt lat="48.71863" lon="1.93964">
        <ele>125.40000152588</ele>
        <time>2013-10-05T11:15:45.000Z</time>
      </trkpt>
      <trkpt lat="48.71863" lon="1.93964">
        <ele>125.40000152588</ele>
        <time>2013-10-05T11:15:50.000Z</time>
      </trkpt>
      <trkpt lat="48.71863" lon="1.93964">
        <ele>125.40000152588</ele>
        <time>2013-10-05T11:15:52.000Z</time>
      </trkpt>
      <trkpt lat="48.71894" lon="1.93976">
        <ele>121.59999847412</ele>
        <time>2013-10-05T11:15:56.000Z</time>
      </trkpt>
      <trkpt lat="48.71914" lon="1.9399">
        <ele>119.19999694824</ele>
        <time>2013-10-05T11:16:03.000Z</time>
      </trkpt>
      <trkpt lat="48.71914" lon="1.9399">
        <ele>119.19999694824</ele>
        <time>2013-10-05T11:16:06.000Z</time>
      </trkpt>
      <trkpt lat="48.71926" lon="1.94009">
        <ele>118.80000305176</ele>
        <time>2013-10-05T11:16:13.000Z</time>
      </trkpt>
      <trkpt lat="48.71926" lon="1.94009">
        <ele>118.80000305176</ele>
        <time>2013-10-05T11:16:17.000Z</time>
      </trkpt>
      <trkpt lat="48.71936" lon="1.94026">
        <ele>118.59999847412</ele>
        <time>2013-10-05T11:16:25.000Z</time>
      </trkpt>
      <trkpt lat="48.71936" lon="1.94026">
        <ele>118.59999847412</ele>
        <time>2013-10-05T11:16:31.000Z</time>
      </trkpt>
      <trkpt lat="48.71936" lon="1.94026">
        <ele>118.59999847412</ele>
        <time>2013-10-05T11:16:35.000Z</time>
      </trkpt>
      <trkpt lat="48.71953" lon="1.94035">
        <ele>118.19999694824</ele>
        <time>2013-10-05T11:16:42.000Z</time>
      </trkpt>
      <trkpt lat="48.71964" lon="1.94034">
        <ele>118.19999694824</ele>
        <time>2013-10-05T11:16:48.000Z</time>
      </trkpt>
      <trkpt lat="48.71977" lon="1.94031">
        <ele>118.19999694824</ele>
        <time>2013-10-05T11:16:55.000Z</time>
      </trkpt>
      <trkpt lat="48.71986" lon="1.94028">
        <ele>118.19999694824</ele>
        <time>2013-10-05T11:17:00.000Z</time>
      </trkpt>
      <trkpt lat="48.71988" lon="1.94029">
        <ele>118.19999694824</ele>
        <time>2013-10-05T11:17:05.000Z</time>
      </trkpt>
      <trkpt lat="48.71999" lon="1.94027">
        <ele>118.19999694824</ele>
        <time>2013-10-05T11:17:10.000Z</time>
      </trkpt>
      <trkpt lat="48.71999" lon="1.94027">
        <ele>118.19999694824</ele>
        <time>2013-10-05T11:17:17.000Z</time>
      </trkpt>
      <trkpt lat="48.71999" lon="1.94027">
        <ele>118.19999694824</ele>
        <time>2013-10-05T11:17:18.000Z</time>
      </trkpt>
      <trkpt lat="48.72006" lon="1.94023">
        <ele>119.19999694824</ele>
        <time>2013-10-05T11:17:21.000Z</time>
      </trkpt>
      <trkpt lat="48.72025" lon="1.94027">
        <ele>121.59999847412</ele>
        <time>2013-10-05T11:17:27.000Z</time>
      </trkpt>
      <trkpt lat="48.72025" lon="1.94037">
        <ele>121.40000152588</ele>
        <time>2013-10-05T11:17:31.000Z</time>
      </trkpt>
      <trkpt lat="48.72025" lon="1.94045">
        <ele>121.19999694824</ele>
        <time>2013-10-05T11:17:36.000Z</time>
      </trkpt>
      <trkpt lat="48.72024" lon="1.94056">
        <ele>120.80000305176</ele>
        <time>2013-10-05T11:17:42.000Z</time>
      </trkpt>
      <trkpt lat="48.72023" lon="1.94058">
        <ele>120.59999847412</ele>
        <time>2013-10-05T11:17:48.000Z</time>
      </trkpt>
      <trkpt lat="48.72023" lon="1.94058">
        <ele>120.59999847412</ele>
        <time>2013-10-05T11:18:10.000Z</time>
      </trkpt>
      <trkpt lat="48.72023" lon="1.94058">
        <ele>120.59999847412</ele>
        <time>2013-10-05T11:18:14.000Z</time>
      </trkpt>
      <trkpt lat="48.72023" lon="1.94058">
        <ele>120.59999847412</ele>
        <time>2013-10-05T11:18:24.000Z</time>
      </trkpt>
      <trkpt lat="48.72023" lon="1.94058">
        <ele>120.59999847412</ele>
        <time>2013-10-05T11:18:29.000Z</time>
      </trkpt>
      <trkpt lat="48.72023" lon="1.94058">
        <ele>120.59999847412</ele>
        <time>2013-10-05T11:18:36.000Z</time>
      </trkpt>
      <trkpt lat="48.72023" lon="1.94058">
        <ele>120.59999847412</ele>
        <time>2013-10-05T11:18:40.000Z</time>
      </trkpt>
      <trkpt lat="48.72025" lon="1.94012">
        <ele>122.19999694824</ele>
        <time>2013-10-05T11:18:45.000Z</time>
      </trkpt>
      <trkpt lat="48.72091" lon="1.94077">
        <ele>129.60000610352</ele>
        <time>2013-10-05T11:18:50.000Z</time>
      </trkpt>
      <trkpt lat="48.72097" lon="1.94077">
        <ele>130.80000305176</ele>
        <time>2013-10-05T11:18:55.000Z</time>
      </trkpt>
      <trkpt lat="48.72107" lon="1.94081">
        <ele>132.39999389648</ele>
        <time>2013-10-05T11:19:05.000Z</time>
      </trkpt>
      <trkpt lat="48.7211" lon="1.94082">
        <ele>133</ele>
        <time>2013-10-05T11:19:08.000Z</time>
      </trkpt>
      <trkpt lat="48.72117" lon="1.94085">
        <ele>134.39999389648</ele>
        <time>2013-10-05T11:19:12.000Z</time>
      </trkpt>
      <trkpt lat="48.72122" lon="1.94086">
        <ele>135.39999389648</ele>
        <time>2013-10-05T11:19:17.000Z</time>
      </trkpt>
      <trkpt lat="48.72129" lon="1.94085">
        <ele>136.60000610352</ele>
        <time>2013-10-05T11:19:23.000Z</time>
      </trkpt>
      <trkpt lat="48.72135" lon="1.9408">
        <ele>138</ele>
        <time>2013-10-05T11:19:29.000Z</time>
      </trkpt>
      <trkpt lat="48.72134" lon="1.94076">
        <ele>137.80000305176</ele>
        <time>2013-10-05T11:19:36.000Z</time>
      </trkpt>
      <trkpt lat="48.7217" lon="1.94153">
        <ele>146.60000610352</ele>
        <time>2013-10-05T11:19:40.000Z</time>
      </trkpt>
      <trkpt lat="48.7217" lon="1.94153">
        <ele>146.60000610352</ele>
        <time>2013-10-05T11:19:45.000Z</time>
      </trkpt>
      <trkpt lat="48.7217" lon="1.94153">
        <ele>146.60000610352</ele>
        <time>2013-10-05T11:19:53.000Z</time>
      </trkpt>
      <trkpt lat="48.7217" lon="1.94153">
        <ele>146.60000610352</ele>
        <time>2013-10-05T11:19:59.000Z</time>
      </trkpt>
      <trkpt lat="48.7217" lon="1.94153">
        <ele>146.60000610352</ele>
        <time>2013-10-05T11:20:05.000Z</time>
      </trkpt>
      <trkpt lat="48.7217" lon="1.94153">
        <ele>146.60000610352</ele>
        <time>2013-10-05T11:20:16.000Z</time>
      </trkpt>
      <trkpt lat="48.7217" lon="1.94153">
        <ele>146.60000610352</ele>
        <time>2013-10-05T11:20:17.000Z</time>
      </trkpt>
      <trkpt lat="48.72169" lon="1.9408">
        <ele>144.39999389648</ele>
        <time>2013-10-05T11:20:24.000Z</time>
      </trkpt>
      <trkpt lat="48.72173" lon="1.94078">
        <ele>145.60000610352</ele>
        <time>2013-10-05T11:20:34.000Z</time>
      </trkpt>
      <trkpt lat="48.72178" lon="1.94075">
        <ele>146.60000610352</ele>
        <time>2013-10-05T11:20:43.000Z</time>
      </trkpt>
      <trkpt lat="48.72194" lon="1.94083">
        <ele>151.19999694824</ele>
        <time>2013-10-05T11:20:56.000Z</time>
      </trkpt>
      <trkpt lat="48.72199" lon="1.94084">
        <ele>152.39999389648</ele>
        <time>2013-10-05T11:21:04.000Z</time>
      </trkpt>
      <trkpt lat="48.72205" lon="1.94085">
        <ele>154</ele>
        <time>2013-10-05T11:21:10.000Z</time>
      </trkpt>
      <trkpt lat="48.72208" lon="1.94087">
        <ele>155</ele>
        <time>2013-10-05T11:21:18.000Z</time>
      </trkpt>
      <trkpt lat="48.72218" lon="1.9409">
        <ele>157.60000610352</ele>
        <time>2013-10-05T11:21:26.000Z</time>
      </trkpt>
      <trkpt lat="48.72221" lon="1.94093">
        <ele>158.39999389648</ele>
        <time>2013-10-05T11:21:34.000Z</time>
      </trkpt>
      <trkpt lat="48.7222" lon="1.9409">
        <ele>158</ele>
        <time>2013-10-05T11:21:41.000Z</time>
      </trkpt>
      <trkpt lat="48.7217" lon="1.94153">
        <ele>146.60000610352</ele>
        <time>2013-10-05T11:21:48.000Z</time>
      </trkpt>
      <trkpt lat="48.7217" lon="1.94153">
        <ele>146.60000610352</ele>
        <time>2013-10-05T11:21:55.000Z</time>
      </trkpt>
      <trkpt lat="48.7217" lon="1.94153">
        <ele>146.60000610352</ele>
        <time>2013-10-05T11:22:00.000Z</time>
      </trkpt>
      <trkpt lat="48.72236" lon="1.94092">
        <ele>162.19999694824</ele>
        <time>2013-10-05T11:22:06.000Z</time>
      </trkpt>
      <trkpt lat="48.72247" lon="1.94096">
        <ele>165.19999694824</ele>
        <time>2013-10-05T11:22:12.000Z</time>
      </trkpt>
      <trkpt lat="48.72295" lon="1.94143">
        <ele>168</ele>
        <time>2013-10-05T11:22:18.000Z</time>
      </trkpt>
      <trkpt lat="48.72295" lon="1.94143">
        <ele>168</ele>
        <time>2013-10-05T11:22:22.000Z</time>
      </trkpt>
      <trkpt lat="48.72295" lon="1.94143">
        <ele>168</ele>
        <time>2013-10-05T11:22:29.000Z</time>
      </trkpt>
      <trkpt lat="48.72295" lon="1.94143">
        <ele>168</ele>
        <time>2013-10-05T11:22:36.000Z</time>
      </trkpt>
      <trkpt lat="48.72295" lon="1.94143">
        <ele>168</ele>
        <time>2013-10-05T11:22:43.000Z</time>
      </trkpt>
      <trkpt lat="48.72297" lon="1.94122">
        <ele>167.80000305176</ele>
        <time>2013-10-05T11:22:50.000Z</time>
      </trkpt>
      <trkpt lat="48.72296" lon="1.94133">
        <ele>168</ele>
        <time>2013-10-05T11:22:57.000Z</time>
      </trkpt>
      <trkpt lat="48.72295" lon="1.94142">
        <ele>168</ele>
        <time>2013-10-05T11:23:03.000Z</time>
      </trkpt>
      <trkpt lat="48.72295" lon="1.94143">
        <ele>168</ele>
        <time>2013-10-05T11:23:10.000Z</time>
      </trkpt>
      <trkpt lat="48.72295" lon="1.94143">
        <ele>168</ele>
        <time>2013-10-05T11:23:13.000Z</time>
      </trkpt>
      <trkpt lat="48.72293" lon="1.94177">
        <ele>168.19999694824</ele>
        <time>2013-10-05T11:23:20.000Z</time>
      </trkpt>
      <trkpt lat="48.72293" lon="1.94196">
        <ele>167.80000305176</ele>
        <time>2013-10-05T11:23:27.000Z</time>
      </trkpt>
      <trkpt lat="48.72293" lon="1.94201">
        <ele>167.60000610352</ele>
        <time>2013-10-05T11:23:29.000Z</time>
      </trkpt>
      <trkpt lat="48.72294" lon="1.94214">
        <ele>167.39999389648</ele>
        <time>2013-10-05T11:23:36.000Z</time>
      </trkpt>
      <trkpt lat="48.72294" lon="1.94223">
        <ele>167.19999694824</ele>
        <time>2013-10-05T11:23:40.000Z</time>
      </trkpt>
      <trkpt lat="48.72294" lon="1.94236">
        <ele>166.80000305176</ele>
        <time>2013-10-05T11:23:46.000Z</time>
      </trkpt>
      <trkpt lat="48.72294" lon="1.9424">
        <ele>166.80000305176</ele>
        <time>2013-10-05T11:23:48.000Z</time>
      </trkpt>
      <trkpt lat="48.72294" lon="1.94255">
        <ele>166.39999389648</ele>
        <time>2013-10-05T11:23:53.000Z</time>
      </trkpt>
      <trkpt lat="48.72295" lon="1.94263">
        <ele>166.39999389648</ele>
        <time>2013-10-05T11:23:57.000Z</time>
      </trkpt>
      <trkpt lat="48.72295" lon="1.94278">
        <ele>166</ele>
        <time>2013-10-05T11:24:03.000Z</time>
      </trkpt>
      <trkpt lat="48.72295" lon="1.94298">
        <ele>165.80000305176</ele>
        <time>2013-10-05T11:24:11.000Z</time>
      </trkpt>
      <trkpt lat="48.72295" lon="1.94306">
        <ele>165.60000610352</ele>
        <time>2013-10-05T11:24:14.000Z</time>
      </trkpt>
      <trkpt lat="48.72295" lon="1.94321">
        <ele>165.19999694824</ele>
        <time>2013-10-05T11:24:21.000Z</time>
      </trkpt>
      <trkpt lat="48.72295" lon="1.94335">
        <ele>165</ele>
        <time>2013-10-05T11:24:27.000Z</time>
      </trkpt>
      <trkpt lat="48.72295" lon="1.94341">
        <ele>165</ele>
        <time>2013-10-05T11:24:29.000Z</time>
      </trkpt>
      <trkpt lat="48.72296" lon="1.94358">
        <ele>164.80000305176</ele>
        <time>2013-10-05T11:24:36.000Z</time>
      </trkpt>
      <trkpt lat="48.72296" lon="1.9437">
        <ele>164.60000610352</ele>
        <time>2013-10-05T11:24:42.000Z</time>
      </trkpt>
      <trkpt lat="48.72296" lon="1.94373">
        <ele>164.60000610352</ele>
        <time>2013-10-05T11:24:43.000Z</time>
      </trkpt>
      <trkpt lat="48.72296" lon="1.94386">
        <ele>164.39999389648</ele>
        <time>2013-10-05T11:24:49.000Z</time>
      </trkpt>
      <trkpt lat="48.72297" lon="1.94398">
        <ele>164.19999694824</ele>
        <time>2013-10-05T11:24:54.000Z</time>
      </trkpt>
      <trkpt lat="48.72296" lon="1.94404">
        <ele>164.19999694824</ele>
        <time>2013-10-05T11:24:56.000Z</time>
      </trkpt>
      <trkpt lat="48.72298" lon="1.94417">
        <ele>164</ele>
        <time>2013-10-05T11:25:03.000Z</time>
      </trkpt>
      <trkpt lat="48.72298" lon="1.9442">
        <ele>164</ele>
        <time>2013-10-05T11:25:04.000Z</time>
      </trkpt>
      <trkpt lat="48.72297" lon="1.94436">
        <ele>163.39999389648</ele>
        <time>2013-10-05T11:25:12.000Z</time>
      </trkpt>
      <trkpt lat="48.72297" lon="1.9444">
        <ele>163.19999694824</ele>
        <time>2013-10-05T11:25:14.000Z</time>
      </trkpt>
      <trkpt lat="48.72298" lon="1.94455">
        <ele>162.80000305176</ele>
        <time>2013-10-05T11:25:21.000Z</time>
      </trkpt>
      <trkpt lat="48.72301" lon="1.94471">
        <ele>162.39999389648</ele>
        <time>2013-10-05T11:25:27.000Z</time>
      </trkpt>
      <trkpt lat="48.72302" lon="1.94482">
        <ele>162</ele>
        <time>2013-10-05T11:25:33.000Z</time>
      </trkpt>
      <trkpt lat="48.72304" lon="1.94493">
        <ele>161.80000305176</ele>
        <time>2013-10-05T11:25:38.000Z</time>
      </trkpt>
      <trkpt lat="48.72307" lon="1.94503">
        <ele>161.39999389648</ele>
        <time>2013-10-05T11:25:44.000Z</time>
      </trkpt>
      <trkpt lat="48.72311" lon="1.9452">
        <ele>160.80000305176</ele>
        <time>2013-10-05T11:25:51.000Z</time>
      </trkpt>
      <trkpt lat="48.72313" lon="1.94536">
        <ele>160</ele>
        <time>2013-10-05T11:25:58.000Z</time>
      </trkpt>
      <trkpt lat="48.72317" lon="1.94553">
        <ele>159.39999389648</ele>
        <time>2013-10-05T11:26:05.000Z</time>
      </trkpt>
      <trkpt lat="48.72322" lon="1.9457">
        <ele>158.80000305176</ele>
        <time>2013-10-05T11:26:12.000Z</time>
      </trkpt>
      <trkpt lat="48.72323" lon="1.94574">
        <ele>158.80000305176</ele>
        <time>2013-10-05T11:26:17.000Z</time>
      </trkpt>
      <trkpt lat="48.72327" lon="1.94586">
        <ele>158.60000610352</ele>
        <time>2013-10-05T11:26:21.000Z</time>
      </trkpt>
      <trkpt lat="48.72332" lon="1.94597">
        <ele>158.39999389648</ele>
        <time>2013-10-05T11:26:27.000Z</time>
      </trkpt>
      <trkpt lat="48.72335" lon="1.94605">
        <ele>158.19999694824</ele>
        <time>2013-10-05T11:26:31.000Z</time>
      </trkpt>
      <trkpt lat="48.72341" lon="1.94614">
        <ele>157.39999389648</ele>
        <time>2013-10-05T11:26:37.000Z</time>
      </trkpt>
      <trkpt lat="48.72345" lon="1.9462">
        <ele>156.80000305176</ele>
        <time>2013-10-05T11:26:41.000Z</time>
      </trkpt>
      <trkpt lat="48.72353" lon="1.94629">
        <ele>156</ele>
        <time>2013-10-05T11:26:46.000Z</time>
      </trkpt>
      <trkpt lat="48.72357" lon="1.94634">
        <ele>155.39999389648</ele>
        <time>2013-10-05T11:26:51.000Z</time>
      </trkpt>
      <trkpt lat="48.72365" lon="1.94642">
        <ele>154.39999389648</ele>
        <time>2013-10-05T11:26:56.000Z</time>
      </trkpt>
      <trkpt lat="48.72368" lon="1.94644">
        <ele>154</ele>
        <time>2013-10-05T11:27:00.000Z</time>
      </trkpt>
      <trkpt lat="48.72372" lon="1.94648">
        <ele>153.39999389648</ele>
        <time>2013-10-05T11:27:03.000Z</time>
      </trkpt>
      <trkpt lat="48.72382" lon="1.94659">
        <ele>152</ele>
        <time>2013-10-05T11:27:09.000Z</time>
      </trkpt>
      <trkpt lat="48.72383" lon="1.94664">
        <ele>151.60000610352</ele>
        <time>2013-10-05T11:27:12.000Z</time>
      </trkpt>
      <trkpt lat="48.72385" lon="1.94664">
        <ele>151.39999389648</ele>
        <time>2013-10-05T11:27:15.000Z</time>
      </trkpt>
      <trkpt lat="48.72379" lon="1.94693">
        <ele>150.60000610352</ele>
        <time>2013-10-05T11:27:22.000Z</time>
      </trkpt>
      <trkpt lat="48.72378" lon="1.94696">
        <ele>150.39999389648</ele>
        <time>2013-10-05T11:27:23.000Z</time>
      </trkpt>
      <trkpt lat="48.72376" lon="1.94706">
        <ele>150.19999694824</ele>
        <time>2013-10-05T11:27:27.000Z</time>
      </trkpt>
      <trkpt lat="48.72372" lon="1.94722">
        <ele>149.80000305176</ele>
        <time>2013-10-05T11:27:35.000Z</time>
      </trkpt>
      <trkpt lat="48.72371" lon="1.94725">
        <ele>149.60000610352</ele>
        <time>2013-10-05T11:27:36.000Z</time>
      </trkpt>
      <trkpt lat="48.72366" lon="1.94739">
        <ele>149.60000610352</ele>
        <time>2013-10-05T11:27:43.000Z</time>
      </trkpt>
      <trkpt lat="48.72362" lon="1.94748">
        <ele>149.60000610352</ele>
        <time>2013-10-05T11:27:47.000Z</time>
      </trkpt>
      <trkpt lat="48.72357" lon="1.94762">
        <ele>149</ele>
        <time>2013-10-05T11:27:54.000Z</time>
      </trkpt>
      <trkpt lat="48.72353" lon="1.94774">
        <ele>148.60000610352</ele>
        <time>2013-10-05T11:28:00.000Z</time>
      </trkpt>
      <trkpt lat="48.72348" lon="1.94784">
        <ele>148.39999389648</ele>
        <time>2013-10-05T11:28:05.000Z</time>
      </trkpt>
      <trkpt lat="48.72342" lon="1.94803">
        <ele>147.60000610352</ele>
        <time>2013-10-05T11:28:14.000Z</time>
      </trkpt>
      <trkpt lat="48.72339" lon="1.9481">
        <ele>147.19999694824</ele>
        <time>2013-10-05T11:28:18.000Z</time>
      </trkpt>
      <trkpt lat="48.72333" lon="1.94822">
        <ele>146.80000305176</ele>
        <time>2013-10-05T11:28:25.000Z</time>
      </trkpt>
      <trkpt lat="48.72328" lon="1.94834">
        <ele>145.39999389648</ele>
        <time>2013-10-05T11:28:31.000Z</time>
      </trkpt>
      <trkpt lat="48.72326" lon="1.94843">
        <ele>144.60000610352</ele>
        <time>2013-10-05T11:28:35.000Z</time>
      </trkpt>
      <trkpt lat="48.72318" lon="1.94858">
        <ele>143</ele>
        <time>2013-10-05T11:28:43.000Z</time>
      </trkpt>
      <trkpt lat="48.72317" lon="1.9486">
        <ele>142.80000305176</ele>
        <time>2013-10-05T11:28:44.000Z</time>
      </trkpt>
      <trkpt lat="48.72312" lon="1.94867">
        <ele>141.80000305176</ele>
        <time>2013-10-05T11:28:50.000Z</time>
      </trkpt>
      <trkpt lat="48.72304" lon="1.94882">
        <ele>140.19999694824</ele>
        <time>2013-10-05T11:28:58.000Z</time>
      </trkpt>
      <trkpt lat="48.723" lon="1.94886">
        <ele>139.80000305176</ele>
        <time>2013-10-05T11:29:03.000Z</time>
      </trkpt>
      <trkpt lat="48.72302" lon="1.94917">
        <ele>137.39999389648</ele>
        <time>2013-10-05T11:29:08.000Z</time>
      </trkpt>
      <trkpt lat="48.72304" lon="1.94922">
        <ele>137.19999694824</ele>
        <time>2013-10-05T11:29:13.000Z</time>
      </trkpt>
      <trkpt lat="48.7231" lon="1.94932">
        <ele>136.80000305176</ele>
        <time>2013-10-05T11:29:20.000Z</time>
      </trkpt>
      <trkpt lat="48.72312" lon="1.94935">
        <ele>136.60000610352</ele>
        <time>2013-10-05T11:29:22.000Z</time>
      </trkpt>
      <trkpt lat="48.7232" lon="1.94949">
        <ele>136</ele>
        <time>2013-10-05T11:29:30.000Z</time>
      </trkpt>
      <trkpt lat="48.72326" lon="1.94958">
        <ele>135.60000610352</ele>
        <time>2013-10-05T11:29:35.000Z</time>
      </trkpt>
      <trkpt lat="48.72332" lon="1.94969">
        <ele>135</ele>
        <time>2013-10-05T11:29:41.000Z</time>
      </trkpt>
      <trkpt lat="48.72341" lon="1.94984">
        <ele>133.80000305176</ele>
        <time>2013-10-05T11:29:49.000Z</time>
      </trkpt>
      <trkpt lat="48.72351" lon="1.95002">
        <ele>132.39999389648</ele>
        <time>2013-10-05T11:29:59.000Z</time>
      </trkpt>
      <trkpt lat="48.72359" lon="1.95015">
        <ele>131.39999389648</ele>
        <time>2013-10-05T11:30:06.000Z</time>
      </trkpt>
      <trkpt lat="48.72367" lon="1.95029">
        <ele>130.60000610352</ele>
        <time>2013-10-05T11:30:13.000Z</time>
      </trkpt>
      <trkpt lat="48.72376" lon="1.95044">
        <ele>129.60000610352</ele>
        <time>2013-10-05T11:30:20.000Z</time>
      </trkpt>
      <trkpt lat="48.72384" lon="1.95058">
        <ele>128.60000610352</ele>
        <time>2013-10-05T11:30:28.000Z</time>
      </trkpt>
      <trkpt lat="48.72391" lon="1.95071">
        <ele>127.80000305176</ele>
        <time>2013-10-05T11:30:35.000Z</time>
      </trkpt>
      <trkpt lat="48.724" lon="1.95086">
        <ele>127</ele>
        <time>2013-10-05T11:30:44.000Z</time>
      </trkpt>
      <trkpt lat="48.72408" lon="1.951">
        <ele>126.19999694824</ele>
        <time>2013-10-05T11:30:53.000Z</time>
      </trkpt>
      <trkpt lat="48.72417" lon="1.95116">
        <ele>125.40000152588</ele>
        <time>2013-10-05T11:31:02.000Z</time>
      </trkpt>
      <trkpt lat="48.72424" lon="1.95127">
        <ele>124.59999847412</ele>
        <time>2013-10-05T11:31:09.000Z</time>
      </trkpt>
      <trkpt lat="48.72431" lon="1.9514">
        <ele>123.80000305176</ele>
        <time>2013-10-05T11:31:17.000Z</time>
      </trkpt>
      <trkpt lat="48.72441" lon="1.95156">
        <ele>122.80000305176</ele>
        <time>2013-10-05T11:31:26.000Z</time>
      </trkpt>
      <trkpt lat="48.7245" lon="1.95172">
        <ele>121.80000305176</ele>
        <time>2013-10-05T11:31:35.000Z</time>
      </trkpt>
      <trkpt lat="48.72459" lon="1.95188">
        <ele>121</ele>
        <time>2013-10-05T11:31:44.000Z</time>
      </trkpt>
      <trkpt lat="48.7247" lon="1.95206">
        <ele>120</ele>
        <time>2013-10-05T11:31:53.000Z</time>
      </trkpt>
      <trkpt lat="48.72478" lon="1.9522">
        <ele>119</ele>
        <time>2013-10-05T11:32:01.000Z</time>
      </trkpt>
      <trkpt lat="48.72487" lon="1.95235">
        <ele>118</ele>
        <time>2013-10-05T11:32:10.000Z</time>
      </trkpt>
      <trkpt lat="48.72497" lon="1.95253">
        <ele>117</ele>
        <time>2013-10-05T11:32:20.000Z</time>
      </trkpt>
      <trkpt lat="48.72507" lon="1.9527">
        <ele>116.40000152588</ele>
        <time>2013-10-05T11:32:29.000Z</time>
      </trkpt>
      <trkpt lat="48.72512" lon="1.95278">
        <ele>116.40000152588</ele>
        <time>2013-10-05T11:32:33.000Z</time>
      </trkpt>
      <trkpt lat="48.72517" lon="1.95287">
        <ele>116.19999694824</ele>
        <time>2013-10-05T11:32:38.000Z</time>
      </trkpt>
      <trkpt lat="48.72522" lon="1.95295">
        <ele>116</ele>
        <time>2013-10-05T11:32:43.000Z</time>
      </trkpt>
      <trkpt lat="48.72528" lon="1.95306">
        <ele>116</ele>
        <time>2013-10-05T11:32:49.000Z</time>
      </trkpt>
      <trkpt lat="48.72529" lon="1.95308">
        <ele>116</ele>
        <time>2013-10-05T11:32:51.000Z</time>
      </trkpt>
      <trkpt lat="48.72529" lon="1.95308">
        <ele>116</ele>
        <time>2013-10-05T11:32:57.000Z</time>
      </trkpt>
      <trkpt lat="48.72529" lon="1.95308">
        <ele>116</ele>
        <time>2013-10-05T11:32:58.000Z</time>
      </trkpt>
      <trkpt lat="48.72543" lon="1.95291">
        <ele>116.40000152588</ele>
        <time>2013-10-05T11:33:09.000Z</time>
      </trkpt>
      <trkpt lat="48.72545" lon="1.9529">
        <ele>116.40000152588</ele>
        <time>2013-10-05T11:33:10.000Z</time>
      </trkpt>
      <trkpt lat="48.72554" lon="1.9528">
        <ele>116.59999847412</ele>
        <time>2013-10-05T11:33:17.000Z</time>
      </trkpt>
      <trkpt lat="48.72563" lon="1.95274">
        <ele>116.80000305176</ele>
        <time>2013-10-05T11:33:23.000Z</time>
      </trkpt>
      <trkpt lat="48.7257" lon="1.95266">
        <ele>116.80000305176</ele>
        <time>2013-10-05T11:33:29.000Z</time>
      </trkpt>
      <trkpt lat="48.72578" lon="1.95258">
        <ele>116.80000305176</ele>
        <time>2013-10-05T11:33:35.000Z</time>
      </trkpt>
      <trkpt lat="48.72583" lon="1.95255">
        <ele>116.80000305176</ele>
        <time>2013-10-05T11:33:39.000Z</time>
      </trkpt>
      <trkpt lat="48.72586" lon="1.95254">
        <ele>116.80000305176</ele>
        <time>2013-10-05T11:33:41.000Z</time>
      </trkpt>
      <trkpt lat="48.72595" lon="1.95251">
        <ele>116.80000305176</ele>
        <time>2013-10-05T11:33:47.000Z</time>
      </trkpt>
      <trkpt lat="48.72602" lon="1.95247">
        <ele>116.80000305176</ele>
        <time>2013-10-05T11:33:52.000Z</time>
      </trkpt>
      <trkpt lat="48.72613" lon="1.95246">
        <ele>116.59999847412</ele>
        <time>2013-10-05T11:33:59.000Z</time>
      </trkpt>
      <trkpt lat="48.72618" lon="1.95242">
        <ele>116.59999847412</ele>
        <time>2013-10-05T11:34:03.000Z</time>
      </trkpt>
      <trkpt lat="48.72625" lon="1.95241">
        <ele>116.59999847412</ele>
        <time>2013-10-05T11:34:07.000Z</time>
      </trkpt>
      <trkpt lat="48.72635" lon="1.95242">
        <ele>116.40000152588</ele>
        <time>2013-10-05T11:34:13.000Z</time>
      </trkpt>
      <trkpt lat="48.7264" lon="1.95239">
        <ele>116.40000152588</ele>
        <time>2013-10-05T11:34:17.000Z</time>
      </trkpt>
      <trkpt lat="48.72648" lon="1.95238">
        <ele>116.19999694824</ele>
        <time>2013-10-05T11:34:23.000Z</time>
      </trkpt>
      <trkpt lat="48.72656" lon="1.95237">
        <ele>116.19999694824</ele>
        <time>2013-10-05T11:34:29.000Z</time>
      </trkpt>
      <trkpt lat="48.72668" lon="1.95231">
        <ele>116.19999694824</ele>
        <time>2013-10-05T11:34:37.000Z</time>
      </trkpt>
      <trkpt lat="48.72677" lon="1.95226">
        <ele>116.19999694824</ele>
        <time>2013-10-05T11:34:43.000Z</time>
      </trkpt>
      <trkpt lat="48.72687" lon="1.95219">
        <ele>116.40000152588</ele>
        <time>2013-10-05T11:34:49.000Z</time>
      </trkpt>
      <trkpt lat="48.72697" lon="1.95214">
        <ele>116.59999847412</ele>
        <time>2013-10-05T11:34:55.000Z</time>
      </trkpt>
      <trkpt lat="48.727" lon="1.95212">
        <ele>116.59999847412</ele>
        <time>2013-10-05T11:34:57.000Z</time>
      </trkpt>
      <trkpt lat="48.72708" lon="1.95205">
        <ele>116.59999847412</ele>
        <time>2013-10-05T11:35:03.000Z</time>
      </trkpt>
      <trkpt lat="48.72717" lon="1.95199">
        <ele>116.80000305176</ele>
        <time>2013-10-05T11:35:09.000Z</time>
      </trkpt>
      <trkpt lat="48.72725" lon="1.95194">
        <ele>116.80000305176</ele>
        <time>2013-10-05T11:35:15.000Z</time>
      </trkpt>
      <trkpt lat="48.72728" lon="1.95192">
        <ele>116.80000305176</ele>
        <time>2013-10-05T11:35:17.000Z</time>
      </trkpt>
      <trkpt lat="48.7273" lon="1.9519">
        <ele>116.80000305176</ele>
        <time>2013-10-05T11:35:19.000Z</time>
      </trkpt>
      <trkpt lat="48.72733" lon="1.95188">
        <ele>116.80000305176</ele>
        <time>2013-10-05T11:35:21.000Z</time>
      </trkpt>
      <trkpt lat="48.72742" lon="1.95182">
        <ele>116.80000305176</ele>
        <time>2013-10-05T11:35:28.000Z</time>
      </trkpt>
      <trkpt lat="48.72751" lon="1.95175">
        <ele>117</ele>
        <time>2013-10-05T11:35:34.000Z</time>
      </trkpt>
      <trkpt lat="48.72759" lon="1.9517">
        <ele>117</ele>
        <time>2013-10-05T11:35:40.000Z</time>
      </trkpt>
      <trkpt lat="48.72761" lon="1.95169">
        <ele>117</ele>
        <time>2013-10-05T11:35:41.000Z</time>
      </trkpt>
      <trkpt lat="48.72766" lon="1.95165">
        <ele>117</ele>
        <time>2013-10-05T11:35:44.000Z</time>
      </trkpt>
      <trkpt lat="48.72776" lon="1.95158">
        <ele>117</ele>
        <time>2013-10-05T11:35:51.000Z</time>
      </trkpt>
      <trkpt lat="48.72778" lon="1.95156">
        <ele>117</ele>
        <time>2013-10-05T11:35:53.000Z</time>
      </trkpt>
      <trkpt lat="48.72789" lon="1.95149">
        <ele>117.19999694824</ele>
        <time>2013-10-05T11:36:01.000Z</time>
      </trkpt>
      <trkpt lat="48.72796" lon="1.95141">
        <ele>117.19999694824</ele>
        <time>2013-10-05T11:36:07.000Z</time>
      </trkpt>
      <trkpt lat="48.72806" lon="1.95137">
        <ele>117.19999694824</ele>
        <time>2013-10-05T11:36:13.000Z</time>
      </trkpt>
      <trkpt lat="48.72813" lon="1.95132">
        <ele>117.40000152588</ele>
        <time>2013-10-05T11:36:18.000Z</time>
      </trkpt>
      <trkpt lat="48.72823" lon="1.9512">
        <ele>117.40000152588</ele>
        <time>2013-10-05T11:36:25.000Z</time>
      </trkpt>
      <trkpt lat="48.7283" lon="1.95113">
        <ele>117.59999847412</ele>
        <time>2013-10-05T11:36:30.000Z</time>
      </trkpt>
      <trkpt lat="48.72837" lon="1.95109">
        <ele>117.59999847412</ele>
        <time>2013-10-05T11:36:35.000Z</time>
      </trkpt>
      <trkpt lat="48.72844" lon="1.95101">
        <ele>118</ele>
        <time>2013-10-05T11:36:41.000Z</time>
      </trkpt>
      <trkpt lat="48.72849" lon="1.95093">
        <ele>118.19999694824</ele>
        <time>2013-10-05T11:36:46.000Z</time>
      </trkpt>
      <trkpt lat="48.72856" lon="1.95084">
        <ele>118.40000152588</ele>
        <time>2013-10-05T11:36:53.000Z</time>
      </trkpt>
      <trkpt lat="48.72858" lon="1.95083">
        <ele>118.40000152588</ele>
        <time>2013-10-05T11:36:54.000Z</time>
      </trkpt>
      <trkpt lat="48.72866" lon="1.95074">
        <ele>119.19999694824</ele>
        <time>2013-10-05T11:37:01.000Z</time>
      </trkpt>
      <trkpt lat="48.72874" lon="1.95065">
        <ele>119.59999847412</ele>
        <time>2013-10-05T11:37:09.000Z</time>
      </trkpt>
      <trkpt lat="48.72882" lon="1.95055">
        <ele>120.19999694824</ele>
        <time>2013-10-05T11:37:16.000Z</time>
      </trkpt>
      <trkpt lat="48.72889" lon="1.95051">
        <ele>120.59999847412</ele>
        <time>2013-10-05T11:37:21.000Z</time>
      </trkpt>
      <trkpt lat="48.72892" lon="1.95043">
        <ele>121</ele>
        <time>2013-10-05T11:37:25.000Z</time>
      </trkpt>
      <trkpt lat="48.72901" lon="1.95035">
        <ele>121.40000152588</ele>
        <time>2013-10-05T11:37:32.000Z</time>
      </trkpt>
      <trkpt lat="48.72909" lon="1.95026">
        <ele>121.80000305176</ele>
        <time>2013-10-05T11:37:39.000Z</time>
      </trkpt>
      <trkpt lat="48.72917" lon="1.95016">
        <ele>122.40000152588</ele>
        <time>2013-10-05T11:37:46.000Z</time>
      </trkpt>
      <trkpt lat="48.72923" lon="1.95006">
        <ele>122.59999847412</ele>
        <time>2013-10-05T11:37:53.000Z</time>
      </trkpt>
      <trkpt lat="48.72925" lon="1.95002">
        <ele>122.80000305176</ele>
        <time>2013-10-05T11:37:55.000Z</time>
      </trkpt>
      <trkpt lat="48.72929" lon="1.94994">
        <ele>122.80000305176</ele>
        <time>2013-10-05T11:38:00.000Z</time>
      </trkpt>
      <trkpt lat="48.72931" lon="1.94991">
        <ele>122.80000305176</ele>
        <time>2013-10-05T11:38:02.000Z</time>
      </trkpt>
      <trkpt lat="48.72935" lon="1.94981">
        <ele>122.80000305176</ele>
        <time>2013-10-05T11:38:08.000Z</time>
      </trkpt>
      <trkpt lat="48.72938" lon="1.94978">
        <ele>122.80000305176</ele>
        <time>2013-10-05T11:38:10.000Z</time>
      </trkpt>
      <trkpt lat="48.72943" lon="1.94968">
        <ele>122.80000305176</ele>
        <time>2013-10-05T11:38:16.000Z</time>
      </trkpt>
      <trkpt lat="48.72947" lon="1.94958">
        <ele>122.59999847412</ele>
        <time>2013-10-05T11:38:21.000Z</time>
      </trkpt>
      <trkpt lat="48.72951" lon="1.94946">
        <ele>122.59999847412</ele>
        <time>2013-10-05T11:38:28.000Z</time>
      </trkpt>
      <trkpt lat="48.72955" lon="1.9494">
        <ele>122.59999847412</ele>
        <time>2013-10-05T11:38:31.000Z</time>
      </trkpt>
      <trkpt lat="48.72959" lon="1.94933">
        <ele>122.40000152588</ele>
        <time>2013-10-05T11:38:36.000Z</time>
      </trkpt>
      <trkpt lat="48.72964" lon="1.94925">
        <ele>122.19999694824</ele>
        <time>2013-10-05T11:38:41.000Z</time>
      </trkpt>
      <trkpt lat="48.72974" lon="1.94928">
        <ele>121.80000305176</ele>
        <time>2013-10-05T11:38:43.000Z</time>
      </trkpt>
      <trkpt lat="48.72981" lon="1.94935">
        <ele>121.80000305176</ele>
        <time>2013-10-05T11:38:50.000Z</time>
      </trkpt>
      <trkpt lat="48.72991" lon="1.94944">
        <ele>121.40000152588</ele>
        <time>2013-10-05T11:38:57.000Z</time>
      </trkpt>
      <trkpt lat="48.72994" lon="1.94948">
        <ele>121.40000152588</ele>
        <time>2013-10-05T11:38:59.000Z</time>
      </trkpt>
      <trkpt lat="48.72995" lon="1.94951">
        <ele>121.40000152588</ele>
        <time>2013-10-05T11:39:01.000Z</time>
      </trkpt>
      <trkpt lat="48.72996" lon="1.94953">
        <ele>121.40000152588</ele>
        <time>2013-10-05T11:39:03.000Z</time>
      </trkpt>
      <trkpt lat="48.73003" lon="1.94965">
        <ele>121.40000152588</ele>
        <time>2013-10-05T11:39:11.000Z</time>
      </trkpt>
      <trkpt lat="48.73012" lon="1.94979">
        <ele>121.40000152588</ele>
        <time>2013-10-05T11:39:18.000Z</time>
      </trkpt>
      <trkpt lat="48.73021" lon="1.94995">
        <ele>121.19999694824</ele>
        <time>2013-10-05T11:39:27.000Z</time>
      </trkpt>
      <trkpt lat="48.7303" lon="1.95011">
        <ele>120.80000305176</ele>
        <time>2013-10-05T11:39:36.000Z</time>
      </trkpt>
      <trkpt lat="48.73038" lon="1.95026">
        <ele>120.40000152588</ele>
        <time>2013-10-05T11:39:44.000Z</time>
      </trkpt>
      <trkpt lat="48.73046" lon="1.95042">
        <ele>120</ele>
        <time>2013-10-05T11:39:52.000Z</time>
      </trkpt>
      <trkpt lat="48.73056" lon="1.95056">
        <ele>119.59999847412</ele>
        <time>2013-10-05T11:40:00.000Z</time>
      </trkpt>
      <trkpt lat="48.73063" lon="1.95068">
        <ele>119.40000152588</ele>
        <time>2013-10-05T11:40:07.000Z</time>
      </trkpt>
      <trkpt lat="48.73065" lon="1.95072">
        <ele>119.40000152588</ele>
        <time>2013-10-05T11:40:09.000Z</time>
      </trkpt>
      <trkpt lat="48.73069" lon="1.9508">
        <ele>119.19999694824</ele>
        <time>2013-10-05T11:40:14.000Z</time>
      </trkpt>
      <trkpt lat="48.73073" lon="1.95084">
        <ele>119.19999694824</ele>
        <time>2013-10-05T11:40:16.000Z</time>
      </trkpt>
      <trkpt lat="48.7307" lon="1.9508">
        <ele>119.19999694824</ele>
        <time>2013-10-05T11:40:20.000Z</time>
      </trkpt>
      <trkpt lat="48.73086" lon="1.951">
        <ele>119.80000305176</ele>
        <time>2013-10-05T11:40:28.000Z</time>
      </trkpt>
      <trkpt lat="48.73095" lon="1.95107">
        <ele>120.80000305176</ele>
        <time>2013-10-05T11:40:35.000Z</time>
      </trkpt>
      <trkpt lat="48.73104" lon="1.95111">
        <ele>121.59999847412</ele>
        <time>2013-10-05T11:40:42.000Z</time>
      </trkpt>
      <trkpt lat="48.73115" lon="1.95114">
        <ele>122.40000152588</ele>
        <time>2013-10-05T11:40:49.000Z</time>
      </trkpt>
      <trkpt lat="48.73124" lon="1.95114">
        <ele>123.19999694824</ele>
        <time>2013-10-05T11:40:55.000Z</time>
      </trkpt>
      <trkpt lat="48.73131" lon="1.95114">
        <ele>123.59999847412</ele>
        <time>2013-10-05T11:41:00.000Z</time>
      </trkpt>
      <trkpt lat="48.73139" lon="1.95114">
        <ele>124.19999694824</ele>
        <time>2013-10-05T11:41:06.000Z</time>
      </trkpt>
      <trkpt lat="48.73144" lon="1.95113">
        <ele>124.40000152588</ele>
        <time>2013-10-05T11:41:11.000Z</time>
      </trkpt>
      <trkpt lat="48.73149" lon="1.95113">
        <ele>124.80000305176</ele>
        <time>2013-10-05T11:41:16.000Z</time>
      </trkpt>
      <trkpt lat="48.73151" lon="1.95113">
        <ele>125</ele>
        <time>2013-10-05T11:41:18.000Z</time>
      </trkpt>
      <trkpt lat="48.73165" lon="1.95109">
        <ele>125.80000305176</ele>
        <time>2013-10-05T11:41:26.000Z</time>
      </trkpt>
      <trkpt lat="48.73166" lon="1.95109">
        <ele>125.80000305176</ele>
        <time>2013-10-05T11:41:30.000Z</time>
      </trkpt>
      <trkpt lat="48.73175" lon="1.95109">
        <ele>126.19999694824</ele>
        <time>2013-10-05T11:41:37.000Z</time>
      </trkpt>
      <trkpt lat="48.73181" lon="1.95108">
        <ele>126.40000152588</ele>
        <time>2013-10-05T11:41:42.000Z</time>
      </trkpt>
      <trkpt lat="48.73183" lon="1.95108">
        <ele>126.40000152588</ele>
        <time>2013-10-05T11:41:48.000Z</time>
      </trkpt>
      <trkpt lat="48.73192" lon="1.95109">
        <ele>126.80000305176</ele>
        <time>2013-10-05T11:41:50.000Z</time>
      </trkpt>
      <trkpt lat="48.73206" lon="1.95118">
        <ele>127.80000305176</ele>
        <time>2013-10-05T11:41:57.000Z</time>
      </trkpt>
      <trkpt lat="48.73208" lon="1.9512">
        <ele>128</ele>
        <time>2013-10-05T11:41:59.000Z</time>
      </trkpt>
      <trkpt lat="48.73217" lon="1.95131">
        <ele>128.80000305176</ele>
        <time>2013-10-05T11:42:05.000Z</time>
      </trkpt>
      <trkpt lat="48.73225" lon="1.95146">
        <ele>129.80000305176</ele>
        <time>2013-10-05T11:42:10.000Z</time>
      </trkpt>
      <trkpt lat="48.7323" lon="1.95158">
        <ele>130.60000610352</ele>
        <time>2013-10-05T11:42:14.000Z</time>
      </trkpt>
      <trkpt lat="48.73236" lon="1.9517">
        <ele>131.60000610352</ele>
        <time>2013-10-05T11:42:20.000Z</time>
      </trkpt>
      <trkpt lat="48.7324" lon="1.95182">
        <ele>133</ele>
        <time>2013-10-05T11:42:27.000Z</time>
      </trkpt>
      <trkpt lat="48.73244" lon="1.95195">
        <ele>134.39999389648</ele>
        <time>2013-10-05T11:42:32.000Z</time>
      </trkpt>
      <trkpt lat="48.73248" lon="1.95203">
        <ele>135.19999694824</ele>
        <time>2013-10-05T11:42:37.000Z</time>
      </trkpt>
      <trkpt lat="48.73262" lon="1.95207">
        <ele>137.19999694824</ele>
        <time>2013-10-05T11:42:41.000Z</time>
      </trkpt>
      <trkpt lat="48.73267" lon="1.95206">
        <ele>137.80000305176</ele>
        <time>2013-10-05T11:42:47.000Z</time>
      </trkpt>
      <trkpt lat="48.7327" lon="1.95206">
        <ele>138.19999694824</ele>
        <time>2013-10-05T11:42:53.000Z</time>
      </trkpt>
      <trkpt lat="48.7325" lon="1.95209">
        <ele>136</ele>
        <time>2013-10-05T11:43:00.000Z</time>
      </trkpt>
      <trkpt lat="48.7327" lon="1.95247">
        <ele>142.19999694824</ele>
        <time>2013-10-05T11:43:05.000Z</time>
      </trkpt>
      <trkpt lat="48.73278" lon="1.95256">
        <ele>144.19999694824</ele>
        <time>2013-10-05T11:43:14.000Z</time>
      </trkpt>
      <trkpt lat="48.73286" lon="1.95262">
        <ele>146.19999694824</ele>
        <time>2013-10-05T11:43:19.000Z</time>
      </trkpt>
      <trkpt lat="48.73289" lon="1.95263">
        <ele>146.80000305176</ele>
        <time>2013-10-05T11:43:25.000Z</time>
      </trkpt>
      <trkpt lat="48.73289" lon="1.95263">
        <ele>146.80000305176</ele>
        <time>2013-10-05T11:43:30.000Z</time>
      </trkpt>
      <trkpt lat="48.73293" lon="1.95264">
        <ele>147.39999389648</ele>
        <time>2013-10-05T11:43:32.000Z</time>
      </trkpt>
      <trkpt lat="48.73295" lon="1.95265">
        <ele>147.80000305176</ele>
        <time>2013-10-05T11:43:39.000Z</time>
      </trkpt>
      <trkpt lat="48.73295" lon="1.95265">
        <ele>147.80000305176</ele>
        <time>2013-10-05T11:43:45.000Z</time>
      </trkpt>
      <trkpt lat="48.73295" lon="1.95265">
        <ele>147.80000305176</ele>
        <time>2013-10-05T11:43:50.000Z</time>
      </trkpt>
      <trkpt lat="48.73298" lon="1.95267">
        <ele>148.39999389648</ele>
        <time>2013-10-05T11:43:53.000Z</time>
      </trkpt>
      <trkpt lat="48.73301" lon="1.95267">
        <ele>148.80000305176</ele>
        <time>2013-10-05T11:43:56.000Z</time>
      </trkpt>
      <trkpt lat="48.73304" lon="1.95267">
        <ele>149.19999694824</ele>
        <time>2013-10-05T11:43:58.000Z</time>
      </trkpt>
      <trkpt lat="48.73355" lon="1.95297">
        <ele>159.19999694824</ele>
        <time>2013-10-05T11:44:04.000Z</time>
      </trkpt>
      <trkpt lat="48.73355" lon="1.95297">
        <ele>159.19999694824</ele>
        <time>2013-10-05T11:44:05.000Z</time>
      </trkpt>
      <trkpt lat="48.73313" lon="1.95271">
        <ele>150.80000305176</ele>
        <time>2013-10-05T11:44:11.000Z</time>
      </trkpt>
      <trkpt lat="48.73313" lon="1.95271">
        <ele>150.80000305176</ele>
        <time>2013-10-05T11:44:17.000Z</time>
      </trkpt>
      <trkpt lat="48.73313" lon="1.95271">
        <ele>150.80000305176</ele>
        <time>2013-10-05T11:44:21.000Z</time>
      </trkpt>
      <trkpt lat="48.73313" lon="1.95271">
        <ele>150.80000305176</ele>
        <time>2013-10-05T11:44:26.000Z</time>
      </trkpt>
      <trkpt lat="48.73313" lon="1.95271">
        <ele>150.80000305176</ele>
        <time>2013-10-05T11:44:32.000Z</time>
      </trkpt>
      <trkpt lat="48.73313" lon="1.95271">
        <ele>150.80000305176</ele>
        <time>2013-10-05T11:44:38.000Z</time>
      </trkpt>
      <trkpt lat="48.73313" lon="1.95271">
        <ele>150.80000305176</ele>
        <time>2013-10-05T11:44:44.000Z</time>
      </trkpt>
      <trkpt lat="48.73313" lon="1.95271">
        <ele>150.80000305176</ele>
        <time>2013-10-05T11:44:46.000Z</time>
      </trkpt>
      <trkpt lat="48.7335" lon="1.95281">
        <ele>156.80000305176</ele>
        <time>2013-10-05T11:44:52.000Z</time>
      </trkpt>
      <trkpt lat="48.73357" lon="1.95281">
        <ele>157.60000610352</ele>
        <time>2013-10-05T11:45:00.000Z</time>
      </trkpt>
      <trkpt lat="48.73357" lon="1.95281">
        <ele>157.60000610352</ele>
        <time>2013-10-05T11:45:07.000Z</time>
      </trkpt>
      <trkpt lat="48.73357" lon="1.95281">
        <ele>157.60000610352</ele>
        <time>2013-10-05T11:45:15.000Z</time>
      </trkpt>
      <trkpt lat="48.73357" lon="1.95281">
        <ele>157.60000610352</ele>
        <time>2013-10-05T11:45:21.000Z</time>
      </trkpt>
      <trkpt lat="48.73357" lon="1.95281">
        <ele>157.60000610352</ele>
        <time>2013-10-05T11:45:25.000Z</time>
      </trkpt>
      <trkpt lat="48.73365" lon="1.95295">
        <ele>160.19999694824</ele>
        <time>2013-10-05T11:45:28.000Z</time>
      </trkpt>
      <trkpt lat="48.73361" lon="1.95292">
        <ele>159.39999389648</ele>
        <time>2013-10-05T11:45:35.000Z</time>
      </trkpt>
      <trkpt lat="48.73355" lon="1.95307">
        <ele>160.39999389648</ele>
        <time>2013-10-05T11:45:41.000Z</time>
      </trkpt>
      <trkpt lat="48.73355" lon="1.95307">
        <ele>160.39999389648</ele>
        <time>2013-10-05T11:45:47.000Z</time>
      </trkpt>
      <trkpt lat="48.73347" lon="1.95322">
        <ele>161.19999694824</ele>
        <time>2013-10-05T11:45:52.000Z</time>
      </trkpt>
      <trkpt lat="48.73345" lon="1.95328">
        <ele>161.80000305176</ele>
        <time>2013-10-05T11:45:59.000Z</time>
      </trkpt>
      <trkpt lat="48.73345" lon="1.95328">
        <ele>161.80000305176</ele>
        <time>2013-10-05T11:46:05.000Z</time>
      </trkpt>
      <trkpt lat="48.73342" lon="1.95345">
        <ele>163.60000610352</ele>
        <time>2013-10-05T11:46:11.000Z</time>
      </trkpt>
      <trkpt lat="48.73342" lon="1.95345">
        <ele>163.60000610352</ele>
        <time>2013-10-05T11:46:13.000Z</time>
      </trkpt>
      <trkpt lat="48.73338" lon="1.95359">
        <ele>165</ele>
        <time>2013-10-05T11:46:20.000Z</time>
      </trkpt>
      <trkpt lat="48.73337" lon="1.95361">
        <ele>165.19999694824</ele>
        <time>2013-10-05T11:46:25.000Z</time>
      </trkpt>
      <trkpt lat="48.73335" lon="1.95371">
        <ele>166.39999389648</ele>
        <time>2013-10-05T11:46:28.000Z</time>
      </trkpt>
      <trkpt lat="48.73333" lon="1.95392">
        <ele>169.19999694824</ele>
        <time>2013-10-05T11:46:34.000Z</time>
      </trkpt>
      <trkpt lat="48.73335" lon="1.95407">
        <ele>171.60000610352</ele>
        <time>2013-10-05T11:46:41.000Z</time>
      </trkpt>
      <trkpt lat="48.73335" lon="1.9541">
        <ele>172</ele>
        <time>2013-10-05T11:46:46.000Z</time>
      </trkpt>
      <trkpt lat="48.73338" lon="1.95413">
        <ele>172.60000610352</ele>
        <time>2013-10-05T11:46:51.000Z</time>
      </trkpt>
      <trkpt lat="48.73339" lon="1.95417">
        <ele>173</ele>
        <time>2013-10-05T11:46:57.000Z</time>
      </trkpt>
      <trkpt lat="48.73342" lon="1.95429">
        <ele>174</ele>
        <time>2013-10-05T11:47:03.000Z</time>
      </trkpt>
      <trkpt lat="48.73345" lon="1.95439">
        <ele>174.60000610352</ele>
        <time>2013-10-05T11:47:10.000Z</time>
      </trkpt>
      <trkpt lat="48.73345" lon="1.95439">
        <ele>174.60000610352</ele>
        <time>2013-10-05T11:47:15.000Z</time>
      </trkpt>
      <trkpt lat="48.73351" lon="1.95462">
        <ele>176.19999694824</ele>
        <time>2013-10-05T11:47:23.000Z</time>
      </trkpt>
      <trkpt lat="48.73358" lon="1.95489">
        <ele>177.60000610352</ele>
        <time>2013-10-05T11:47:29.000Z</time>
      </trkpt>
      <trkpt lat="48.73362" lon="1.95501">
        <ele>178.19999694824</ele>
        <time>2013-10-05T11:47:34.000Z</time>
      </trkpt>
      <trkpt lat="48.73364" lon="1.95514">
        <ele>178.39999389648</ele>
        <time>2013-10-05T11:47:39.000Z</time>
      </trkpt>
      <trkpt lat="48.73366" lon="1.95522">
        <ele>178.39999389648</ele>
        <time>2013-10-05T11:47:44.000Z</time>
      </trkpt>
      <trkpt lat="48.73375" lon="1.95536">
        <ele>178.39999389648</ele>
        <time>2013-10-05T11:47:51.000Z</time>
      </trkpt>
      <trkpt lat="48.73377" lon="1.95538">
        <ele>178.19999694824</ele>
        <time>2013-10-05T11:47:55.000Z</time>
      </trkpt>
      <trkpt lat="48.73378" lon="1.9554">
        <ele>178.19999694824</ele>
        <time>2013-10-05T11:47:59.000Z</time>
      </trkpt>
      <trkpt lat="48.73386" lon="1.95547">
        <ele>178</ele>
        <time>2013-10-05T11:48:06.000Z</time>
      </trkpt>
      <trkpt lat="48.73396" lon="1.95558">
        <ele>177.80000305176</ele>
        <time>2013-10-05T11:48:13.000Z</time>
      </trkpt>
      <trkpt lat="48.73402" lon="1.95564">
        <ele>177.60000610352</ele>
        <time>2013-10-05T11:48:20.000Z</time>
      </trkpt>
      <trkpt lat="48.7341" lon="1.95572">
        <ele>177.19999694824</ele>
        <time>2013-10-05T11:48:26.000Z</time>
      </trkpt>
      <trkpt lat="48.73416" lon="1.95578">
        <ele>177</ele>
        <time>2013-10-05T11:48:31.000Z</time>
      </trkpt>
      <trkpt lat="48.7342" lon="1.95582">
        <ele>176.80000305176</ele>
        <time>2013-10-05T11:48:36.000Z</time>
      </trkpt>
      <trkpt lat="48.73421" lon="1.95583">
        <ele>176.80000305176</ele>
        <time>2013-10-05T11:48:42.000Z</time>
      </trkpt>
      <trkpt lat="48.73421" lon="1.95583">
        <ele>176.80000305176</ele>
        <time>2013-10-05T11:48:47.000Z</time>
      </trkpt>
      <trkpt lat="48.73436" lon="1.95597">
        <ele>176.19999694824</ele>
        <time>2013-10-05T11:48:53.000Z</time>
      </trkpt>
      <trkpt lat="48.73447" lon="1.95608">
        <ele>175.60000610352</ele>
        <time>2013-10-05T11:48:59.000Z</time>
      </trkpt>
      <trkpt lat="48.73456" lon="1.95619">
        <ele>175.39999389648</ele>
        <time>2013-10-05T11:49:05.000Z</time>
      </trkpt>
      <trkpt lat="48.73464" lon="1.95626">
        <ele>175</ele>
        <time>2013-10-05T11:49:11.000Z</time>
      </trkpt>
      <trkpt lat="48.73472" lon="1.95634">
        <ele>174.80000305176</ele>
        <time>2013-10-05T11:49:17.000Z</time>
      </trkpt>
      <trkpt lat="48.73478" lon="1.9564">
        <ele>174.60000610352</ele>
        <time>2013-10-05T11:49:22.000Z</time>
      </trkpt>
      <trkpt lat="48.73483" lon="1.95645">
        <ele>174.39999389648</ele>
        <time>2013-10-05T11:49:28.000Z</time>
      </trkpt>
      <trkpt lat="48.73485" lon="1.95648">
        <ele>174.39999389648</ele>
        <time>2013-10-05T11:49:32.000Z</time>
      </trkpt>
      <trkpt lat="48.7349" lon="1.95653">
        <ele>174.19999694824</ele>
        <time>2013-10-05T11:49:39.000Z</time>
      </trkpt>
      <trkpt lat="48.7349" lon="1.95651">
        <ele>174.19999694824</ele>
        <time>2013-10-05T11:49:42.000Z</time>
      </trkpt>
      <trkpt lat="48.73493" lon="1.95677">
        <ele>173.80000305176</ele>
        <time>2013-10-05T11:49:51.000Z</time>
      </trkpt>
      <trkpt lat="48.73514" lon="1.95676">
        <ele>173.60000610352</ele>
        <time>2013-10-05T11:49:57.000Z</time>
      </trkpt>
      <trkpt lat="48.73525" lon="1.95688">
        <ele>173.19999694824</ele>
        <time>2013-10-05T11:50:05.000Z</time>
      </trkpt>
      <trkpt lat="48.73533" lon="1.95697">
        <ele>173</ele>
        <time>2013-10-05T11:50:11.000Z</time>
      </trkpt>
      <trkpt lat="48.73543" lon="1.95703">
        <ele>173</ele>
        <time>2013-10-05T11:50:18.000Z</time>
      </trkpt>
      <trkpt lat="48.73552" lon="1.95709">
        <ele>172.80000305176</ele>
        <time>2013-10-05T11:50:25.000Z</time>
      </trkpt>
      <trkpt lat="48.73567" lon="1.95721">
        <ele>172.80000305176</ele>
        <time>2013-10-05T11:50:34.000Z</time>
      </trkpt>
      <trkpt lat="48.73577" lon="1.9573">
        <ele>172.80000305176</ele>
        <time>2013-10-05T11:50:41.000Z</time>
      </trkpt>
      <trkpt lat="48.73589" lon="1.95739">
        <ele>173</ele>
        <time>2013-10-05T11:50:49.000Z</time>
      </trkpt>
      <trkpt lat="48.73601" lon="1.95749">
        <ele>173</ele>
        <time>2013-10-05T11:50:57.000Z</time>
      </trkpt>
      <trkpt lat="48.73615" lon="1.95761">
        <ele>173</ele>
        <time>2013-10-05T11:51:07.000Z</time>
      </trkpt>
      <trkpt lat="48.73628" lon="1.95771">
        <ele>173</ele>
        <time>2013-10-05T11:51:16.000Z</time>
      </trkpt>
      <trkpt lat="48.73641" lon="1.95782">
        <ele>173</ele>
        <time>2013-10-05T11:51:25.000Z</time>
      </trkpt>
      <trkpt lat="48.7365" lon="1.95789">
        <ele>173</ele>
        <time>2013-10-05T11:51:32.000Z</time>
      </trkpt>
      <trkpt lat="48.73662" lon="1.95799">
        <ele>173</ele>
        <time>2013-10-05T11:51:41.000Z</time>
      </trkpt>
      <trkpt lat="48.73668" lon="1.95807">
        <ele>173</ele>
        <time>2013-10-05T11:51:47.000Z</time>
      </trkpt>
      <trkpt lat="48.73678" lon="1.95815">
        <ele>173.19999694824</ele>
        <time>2013-10-05T11:51:54.000Z</time>
      </trkpt>
      <trkpt lat="48.73685" lon="1.9582">
        <ele>173.60000610352</ele>
        <time>2013-10-05T11:52:00.000Z</time>
      </trkpt>
      <trkpt lat="48.73694" lon="1.95829">
        <ele>173.80000305176</ele>
        <time>2013-10-05T11:52:07.000Z</time>
      </trkpt>
      <trkpt lat="48.73702" lon="1.95835">
        <ele>174.19999694824</ele>
        <time>2013-10-05T11:52:13.000Z</time>
      </trkpt>
      <trkpt lat="48.7371" lon="1.95843">
        <ele>174.39999389648</ele>
        <time>2013-10-05T11:52:20.000Z</time>
      </trkpt>
      <trkpt lat="48.73719" lon="1.95854">
        <ele>174.60000610352</ele>
        <time>2013-10-05T11:52:28.000Z</time>
      </trkpt>
      <trkpt lat="48.73724" lon="1.9586">
        <ele>174.80000305176</ele>
        <time>2013-10-05T11:52:34.000Z</time>
      </trkpt>
      <trkpt lat="48.73727" lon="1.95864">
        <ele>174.80000305176</ele>
        <time>2013-10-05T11:52:39.000Z</time>
      </trkpt>
      <trkpt lat="48.73731" lon="1.95869">
        <ele>175</ele>
        <time>2013-10-05T11:52:44.000Z</time>
      </trkpt>
      <trkpt lat="48.73739" lon="1.95878">
        <ele>175</ele>
        <time>2013-10-05T11:52:51.000Z</time>
      </trkpt>
      <trkpt lat="48.73746" lon="1.95886">
        <ele>175.19999694824</ele>
        <time>2013-10-05T11:52:57.000Z</time>
      </trkpt>
      <trkpt lat="48.73748" lon="1.95889">
        <ele>175.19999694824</ele>
        <time>2013-10-05T11:52:59.000Z</time>
      </trkpt>
      <trkpt lat="48.73757" lon="1.959">
        <ele>175.39999389648</ele>
        <time>2013-10-05T11:53:07.000Z</time>
      </trkpt>
      <trkpt lat="48.73762" lon="1.95906">
        <ele>175.39999389648</ele>
        <time>2013-10-05T11:53:13.000Z</time>
      </trkpt>
      <trkpt lat="48.7377" lon="1.95916">
        <ele>175.60000610352</ele>
        <time>2013-10-05T11:53:20.000Z</time>
      </trkpt>
      <trkpt lat="48.73774" lon="1.95922">
        <ele>175.60000610352</ele>
        <time>2013-10-05T11:53:25.000Z</time>
      </trkpt>
      <trkpt lat="48.73776" lon="1.95924">
        <ele>175.80000305176</ele>
        <time>2013-10-05T11:53:27.000Z</time>
      </trkpt>
      <trkpt lat="48.7378" lon="1.95929">
        <ele>175.80000305176</ele>
        <time>2013-10-05T11:53:31.000Z</time>
      </trkpt>
      <trkpt lat="48.7379" lon="1.95942">
        <ele>175.80000305176</ele>
        <time>2013-10-05T11:53:39.000Z</time>
      </trkpt>
      <trkpt lat="48.73797" lon="1.95951">
        <ele>176</ele>
        <time>2013-10-05T11:53:45.000Z</time>
      </trkpt>
      <trkpt lat="48.73798" lon="1.95952">
        <ele>176</ele>
        <time>2013-10-05T11:53:46.000Z</time>
      </trkpt>
      <trkpt lat="48.73805" lon="1.9596">
        <ele>176</ele>
        <time>2013-10-05T11:53:52.000Z</time>
      </trkpt>
      <trkpt lat="48.73808" lon="1.95964">
        <ele>176</ele>
        <time>2013-10-05T11:53:55.000Z</time>
      </trkpt>
      <trkpt lat="48.73816" lon="1.95974">
        <ele>176</ele>
        <time>2013-10-05T11:54:01.000Z</time>
      </trkpt>
      <trkpt lat="48.73826" lon="1.95987">
        <ele>176</ele>
        <time>2013-10-05T11:54:08.000Z</time>
      </trkpt>
      <trkpt lat="48.73831" lon="1.95993">
        <ele>176</ele>
        <time>2013-10-05T11:54:13.000Z</time>
      </trkpt>
      <trkpt lat="48.73837" lon="1.96001">
        <ele>175.80000305176</ele>
        <time>2013-10-05T11:54:19.000Z</time>
      </trkpt>
      <trkpt lat="48.73842" lon="1.96007">
        <ele>175.60000610352</ele>
        <time>2013-10-05T11:54:22.000Z</time>
      </trkpt>
      <trkpt lat="48.73851" lon="1.96018">
        <ele>175.19999694824</ele>
        <time>2013-10-05T11:54:30.000Z</time>
      </trkpt>
      <trkpt lat="48.73858" lon="1.96027">
        <ele>175</ele>
        <time>2013-10-05T11:54:36.000Z</time>
      </trkpt>
      <trkpt lat="48.73864" lon="1.96034">
        <ele>174.80000305176</ele>
        <time>2013-10-05T11:54:42.000Z</time>
      </trkpt>
      <trkpt lat="48.73869" lon="1.9604">
        <ele>174.60000610352</ele>
        <time>2013-10-05T11:54:47.000Z</time>
      </trkpt>
      <trkpt lat="48.73876" lon="1.96047">
        <ele>174.39999389648</ele>
        <time>2013-10-05T11:54:51.000Z</time>
      </trkpt>
      <trkpt lat="48.73883" lon="1.96055">
        <ele>174.39999389648</ele>
        <time>2013-10-05T11:54:58.000Z</time>
      </trkpt>
      <trkpt lat="48.73885" lon="1.96058">
        <ele>174.19999694824</ele>
        <time>2013-10-05T11:55:00.000Z</time>
      </trkpt>
      <trkpt lat="48.73889" lon="1.96062">
        <ele>174.19999694824</ele>
        <time>2013-10-05T11:55:05.000Z</time>
      </trkpt>
      <trkpt lat="48.73897" lon="1.96071">
        <ele>174</ele>
        <time>2013-10-05T11:55:13.000Z</time>
      </trkpt>
      <trkpt lat="48.73902" lon="1.96077">
        <ele>173.80000305176</ele>
        <time>2013-10-05T11:55:19.000Z</time>
      </trkpt>
      <trkpt lat="48.73913" lon="1.9609">
        <ele>173.60000610352</ele>
        <time>2013-10-05T11:55:28.000Z</time>
      </trkpt>
      <trkpt lat="48.73922" lon="1.96101">
        <ele>173.19999694824</ele>
        <time>2013-10-05T11:55:34.000Z</time>
      </trkpt>
      <trkpt lat="48.73932" lon="1.96113">
        <ele>173</ele>
        <time>2013-10-05T11:55:42.000Z</time>
      </trkpt>
      <trkpt lat="48.73944" lon="1.96127">
        <ele>172.60000610352</ele>
        <time>2013-10-05T11:55:53.000Z</time>
      </trkpt>
      <trkpt lat="48.73953" lon="1.96138">
        <ele>172.60000610352</ele>
        <time>2013-10-05T11:56:01.000Z</time>
      </trkpt>
      <trkpt lat="48.73956" lon="1.96142">
        <ele>172.39999389648</ele>
        <time>2013-10-05T11:56:04.000Z</time>
      </trkpt>
      <trkpt lat="48.73961" lon="1.96148">
        <ele>172.39999389648</ele>
        <time>2013-10-05T11:56:10.000Z</time>
      </trkpt>
      <trkpt lat="48.73966" lon="1.96155">
        <ele>172.39999389648</ele>
        <time>2013-10-05T11:56:15.000Z</time>
      </trkpt>
      <trkpt lat="48.7397" lon="1.96161">
        <ele>172.39999389648</ele>
        <time>2013-10-05T11:56:19.000Z</time>
      </trkpt>
      <trkpt lat="48.73974" lon="1.96166">
        <ele>172.19999694824</ele>
        <time>2013-10-05T11:56:22.000Z</time>
      </trkpt>
      <trkpt lat="48.73978" lon="1.96171">
        <ele>172.39999389648</ele>
        <time>2013-10-05T11:56:26.000Z</time>
      </trkpt>
      <trkpt lat="48.73982" lon="1.96178">
        <ele>172.19999694824</ele>
        <time>2013-10-05T11:56:30.000Z</time>
      </trkpt>
      <trkpt lat="48.73988" lon="1.96185">
        <ele>172.19999694824</ele>
        <time>2013-10-05T11:56:35.000Z</time>
      </trkpt>
      <trkpt lat="48.73993" lon="1.9619">
        <ele>172.19999694824</ele>
        <time>2013-10-05T11:56:41.000Z</time>
      </trkpt>
      <trkpt lat="48.73995" lon="1.96193">
        <ele>172.19999694824</ele>
        <time>2013-10-05T11:56:43.000Z</time>
      </trkpt>
      <trkpt lat="48.73996" lon="1.96195">
        <ele>172.19999694824</ele>
        <time>2013-10-05T11:56:45.000Z</time>
      </trkpt>
      <trkpt lat="48.73999" lon="1.962">
        <ele>172</ele>
        <time>2013-10-05T11:56:51.000Z</time>
      </trkpt>
      <trkpt lat="48.73991" lon="1.96224">
        <ele>171.39999389648</ele>
        <time>2013-10-05T11:56:55.000Z</time>
      </trkpt>
      <trkpt lat="48.73997" lon="1.96234">
        <ele>171.19999694824</ele>
        <time>2013-10-05T11:57:02.000Z</time>
      </trkpt>
      <trkpt lat="48.74" lon="1.96239">
        <ele>171.19999694824</ele>
        <time>2013-10-05T11:57:07.000Z</time>
      </trkpt>
      <trkpt lat="48.74006" lon="1.96248">
        <ele>171</ele>
        <time>2013-10-05T11:57:13.000Z</time>
      </trkpt>
      <trkpt lat="48.74012" lon="1.96256">
        <ele>171</ele>
        <time>2013-10-05T11:57:18.000Z</time>
      </trkpt>
      <trkpt lat="48.7402" lon="1.96268">
        <ele>171</ele>
        <time>2013-10-05T11:57:25.000Z</time>
      </trkpt>
      <trkpt lat="48.74026" lon="1.96277">
        <ele>170.80000305176</ele>
        <time>2013-10-05T11:57:31.000Z</time>
      </trkpt>
    </trkseg>
  </trk>
</gpx>